<?xml version="1.0" encoding="UTF-8" standalone="no" ?>
<gpx xmlns="http://www.topografix.com/GPX/1/1" xmlns:xsi="http://www.w3.org/2001/XMLSchema-instance" xsi:schemaLocation="http://www.topografix.com/GPX/1/1 http://www.topografix.com/GPX/1/1/gpx.xsd" version="1.1" creator="VisuGPX - https://www.visugpx.com">
  <metadata>
    <name>Randonnée des petits Maillons - Circuit 40 Km</name>
    <desc><![CDATA[Randonnée organisée par le Club VTT d\'Evreux : SpeedErure
Circuit en Forêt d\'Evreux très ludique sans difficultés]]></desc>
  </metadata>
  <trk>
    <name><![CDATA[ACTIVE LOG: 09 SEP 2012 08:18]]></name>
    <trkseg>
      <trkpt lat="49.00726" lon="1.15009">
        <ele>147.22</ele>
        <time>2012-09-09T06:18:19Z</time>
      </trkpt>
      <trkpt lat="49.00703" lon="1.14861">
        <ele>146.74</ele>
        <time>2012-09-09T06:18:36Z</time>
      </trkpt>
      <trkpt lat="49.00692" lon="1.14781">
        <ele>143.37</ele>
        <time>2012-09-09T06:18:44Z</time>
      </trkpt>
      <trkpt lat="49.0066" lon="1.14576">
        <ele>142.41</ele>
        <time>2012-09-09T06:19:06Z</time>
      </trkpt>
      <trkpt lat="49.00654" lon="1.14532">
        <ele>140.49</ele>
        <time>2012-09-09T06:19:12Z</time>
      </trkpt>
      <trkpt lat="49.00652" lon="1.14525">
        <ele>140.97</ele>
        <time>2012-09-09T06:19:21Z</time>
      </trkpt>
      <trkpt lat="49.00653" lon="1.14525">
        <ele>142.41</ele>
        <time>2012-09-09T06:19:47Z</time>
      </trkpt>
      <trkpt lat="49.00647" lon="1.14492">
        <ele>141.93</ele>
        <time>2012-09-09T06:20:19Z</time>
      </trkpt>
      <trkpt lat="49.00635" lon="1.14434">
        <ele>141.45</ele>
        <time>2012-09-09T06:20:26Z</time>
      </trkpt>
      <trkpt lat="49.00627" lon="1.14383">
        <ele>140.01</ele>
        <time>2012-09-09T06:20:34Z</time>
      </trkpt>
      <trkpt lat="49.0061" lon="1.14306">
        <ele>139.53</ele>
        <time>2012-09-09T06:20:42Z</time>
      </trkpt>
      <trkpt lat="49.00605" lon="1.14277">
        <ele>139.05</ele>
        <time>2012-09-09T06:20:45Z</time>
      </trkpt>
      <trkpt lat="49.00563" lon="1.14127">
        <ele>137.61</ele>
        <time>2012-09-09T06:21:01Z</time>
      </trkpt>
      <trkpt lat="49.00562" lon="1.14097">
        <ele>138.09</ele>
        <time>2012-09-09T06:21:05Z</time>
      </trkpt>
      <trkpt lat="49.00559" lon="1.14071">
        <ele>137.61</ele>
        <time>2012-09-09T06:21:10Z</time>
      </trkpt>
      <trkpt lat="49.0057" lon="1.14031">
        <ele>136.16</ele>
        <time>2012-09-09T06:21:17Z</time>
      </trkpt>
      <trkpt lat="49.00571" lon="1.14023">
        <ele>136.16</ele>
        <time>2012-09-09T06:21:18Z</time>
      </trkpt>
      <trkpt lat="49.00572" lon="1.13986">
        <ele>136.16</ele>
        <time>2012-09-09T06:21:22Z</time>
      </trkpt>
      <trkpt lat="49.00571" lon="1.13961">
        <ele>135.2</ele>
        <time>2012-09-09T06:21:25Z</time>
      </trkpt>
      <trkpt lat="49.00562" lon="1.13928">
        <ele>134.72</ele>
        <time>2012-09-09T06:21:29Z</time>
      </trkpt>
      <trkpt lat="49.00566" lon="1.13892">
        <ele>135.2</ele>
        <time>2012-09-09T06:21:34Z</time>
      </trkpt>
      <trkpt lat="49.0058" lon="1.13874">
        <ele>134.72</ele>
        <time>2012-09-09T06:21:37Z</time>
      </trkpt>
      <trkpt lat="49.00592" lon="1.1387">
        <ele>133.76</ele>
        <time>2012-09-09T06:21:40Z</time>
      </trkpt>
      <trkpt lat="49.00615" lon="1.13895">
        <ele>132.32</ele>
        <time>2012-09-09T06:21:48Z</time>
      </trkpt>
      <trkpt lat="49.00638" lon="1.13907">
        <ele>131.36</ele>
        <time>2012-09-09T06:21:53Z</time>
      </trkpt>
      <trkpt lat="49.00653" lon="1.13881">
        <ele>130.4</ele>
        <time>2012-09-09T06:22:00Z</time>
      </trkpt>
      <trkpt lat="49.00661" lon="1.1386">
        <ele>130.4</ele>
        <time>2012-09-09T06:22:04Z</time>
      </trkpt>
      <trkpt lat="49.00672" lon="1.13858">
        <ele>129.92</ele>
        <time>2012-09-09T06:22:08Z</time>
      </trkpt>
      <trkpt lat="49.00678" lon="1.13867">
        <ele>130.4</ele>
        <time>2012-09-09T06:22:11Z</time>
      </trkpt>
      <trkpt lat="49.00697" lon="1.13873">
        <ele>130.4</ele>
        <time>2012-09-09T06:22:19Z</time>
      </trkpt>
      <trkpt lat="49.00701" lon="1.13877">
        <ele>129.92</ele>
        <time>2012-09-09T06:22:22Z</time>
      </trkpt>
      <trkpt lat="49.00734" lon="1.13876">
        <ele>131.36</ele>
        <time>2012-09-09T06:22:32Z</time>
      </trkpt>
      <trkpt lat="49.00743" lon="1.13881">
        <ele>131.84</ele>
        <time>2012-09-09T06:22:35Z</time>
      </trkpt>
      <trkpt lat="49.00759" lon="1.13875">
        <ele>132.32</ele>
        <time>2012-09-09T06:22:40Z</time>
      </trkpt>
      <trkpt lat="49.00778" lon="1.13873">
        <ele>131.36</ele>
        <time>2012-09-09T06:22:46Z</time>
      </trkpt>
      <trkpt lat="49.0079" lon="1.13866">
        <ele>131.84</ele>
        <time>2012-09-09T06:22:50Z</time>
      </trkpt>
      <trkpt lat="49.00799" lon="1.13862">
        <ele>132.8</ele>
        <time>2012-09-09T06:22:53Z</time>
      </trkpt>
      <trkpt lat="49.0084" lon="1.13839">
        <ele>132.32</ele>
        <time>2012-09-09T06:23:04Z</time>
      </trkpt>
      <trkpt lat="49.00846" lon="1.13837">
        <ele>132.8</ele>
        <time>2012-09-09T06:23:06Z</time>
      </trkpt>
      <trkpt lat="49.00868" lon="1.13787">
        <ele>133.28</ele>
        <time>2012-09-09T06:23:17Z</time>
      </trkpt>
      <trkpt lat="49.00871" lon="1.13782">
        <ele>133.28</ele>
        <time>2012-09-09T06:23:18Z</time>
      </trkpt>
      <trkpt lat="49.0089" lon="1.13764">
        <ele>133.28</ele>
        <time>2012-09-09T06:23:23Z</time>
      </trkpt>
      <trkpt lat="49.00914" lon="1.13761">
        <ele>133.76</ele>
        <time>2012-09-09T06:23:31Z</time>
      </trkpt>
      <trkpt lat="49.00917" lon="1.13761">
        <ele>133.76</ele>
        <time>2012-09-09T06:23:32Z</time>
      </trkpt>
      <trkpt lat="49.00945" lon="1.13761">
        <ele>133.76</ele>
        <time>2012-09-09T06:23:41Z</time>
      </trkpt>
      <trkpt lat="49.00947" lon="1.13757">
        <ele>133.76</ele>
        <time>2012-09-09T06:23:42Z</time>
      </trkpt>
      <trkpt lat="49.00982" lon="1.13746">
        <ele>133.28</ele>
        <time>2012-09-09T06:23:52Z</time>
      </trkpt>
      <trkpt lat="49.00989" lon="1.13747">
        <ele>132.8</ele>
        <time>2012-09-09T06:23:54Z</time>
      </trkpt>
      <trkpt lat="49.01023" lon="1.13737">
        <ele>133.76</ele>
        <time>2012-09-09T06:24:05Z</time>
      </trkpt>
      <trkpt lat="49.01037" lon="1.13739">
        <ele>134.24</ele>
        <time>2012-09-09T06:24:09Z</time>
      </trkpt>
      <trkpt lat="49.01049" lon="1.13778">
        <ele>133.28</ele>
        <time>2012-09-09T06:24:16Z</time>
      </trkpt>
      <trkpt lat="49.01044" lon="1.13802">
        <ele>132.8</ele>
        <time>2012-09-09T06:24:20Z</time>
      </trkpt>
      <trkpt lat="49.00933" lon="1.13868">
        <ele>131.36</ele>
        <time>2012-09-09T06:24:39Z</time>
      </trkpt>
      <trkpt lat="49.00909" lon="1.13882">
        <ele>131.36</ele>
        <time>2012-09-09T06:24:45Z</time>
      </trkpt>
      <trkpt lat="49.00927" lon="1.13901">
        <ele>128.47</ele>
        <time>2012-09-09T06:24:54Z</time>
      </trkpt>
      <trkpt lat="49.00939" lon="1.13914">
        <ele>126.55</ele>
        <time>2012-09-09T06:24:57Z</time>
      </trkpt>
      <trkpt lat="49.00961" lon="1.13929">
        <ele>123.67</ele>
        <time>2012-09-09T06:25:01Z</time>
      </trkpt>
      <trkpt lat="49.00973" lon="1.13936">
        <ele>123.19</ele>
        <time>2012-09-09T06:25:03Z</time>
      </trkpt>
      <trkpt lat="49.0099" lon="1.13946">
        <ele>120.78</ele>
        <time>2012-09-09T06:25:09Z</time>
      </trkpt>
      <trkpt lat="49.01014" lon="1.13943">
        <ele>122.22</ele>
        <time>2012-09-09T06:25:19Z</time>
      </trkpt>
      <trkpt lat="49.01038" lon="1.13928">
        <ele>124.15</ele>
        <time>2012-09-09T06:25:28Z</time>
      </trkpt>
      <trkpt lat="49.01072" lon="1.13913">
        <ele>127.03</ele>
        <time>2012-09-09T06:25:40Z</time>
      </trkpt>
      <trkpt lat="49.0108" lon="1.13907">
        <ele>128.47</ele>
        <time>2012-09-09T06:25:45Z</time>
      </trkpt>
      <trkpt lat="49.01087" lon="1.13917">
        <ele>128.47</ele>
        <time>2012-09-09T06:25:49Z</time>
      </trkpt>
      <trkpt lat="49.01104" lon="1.13975">
        <ele>127.51</ele>
        <time>2012-09-09T06:26:00Z</time>
      </trkpt>
      <trkpt lat="49.01156" lon="1.13999">
        <ele>126.55</ele>
        <time>2012-09-09T06:26:13Z</time>
      </trkpt>
      <trkpt lat="49.01186" lon="1.14015">
        <ele>126.55</ele>
        <time>2012-09-09T06:26:20Z</time>
      </trkpt>
      <trkpt lat="49.012" lon="1.14019">
        <ele>125.59</ele>
        <time>2012-09-09T06:26:23Z</time>
      </trkpt>
      <trkpt lat="49.01226" lon="1.14026">
        <ele>125.11</ele>
        <time>2012-09-09T06:26:29Z</time>
      </trkpt>
      <trkpt lat="49.01247" lon="1.14049">
        <ele>124.15</ele>
        <time>2012-09-09T06:26:34Z</time>
      </trkpt>
      <trkpt lat="49.0128" lon="1.14065">
        <ele>124.63</ele>
        <time>2012-09-09T06:26:42Z</time>
      </trkpt>
      <trkpt lat="49.01319" lon="1.14091">
        <ele>124.63</ele>
        <time>2012-09-09T06:26:54Z</time>
      </trkpt>
      <trkpt lat="49.01319" lon="1.14133">
        <ele>122.22</ele>
        <time>2012-09-09T06:27:06Z</time>
      </trkpt>
      <trkpt lat="49.01319" lon="1.14139">
        <ele>121.26</ele>
        <time>2012-09-09T06:27:09Z</time>
      </trkpt>
      <trkpt lat="49.01322" lon="1.14151">
        <ele>118.86</ele>
        <time>2012-09-09T06:27:23Z</time>
      </trkpt>
      <trkpt lat="49.01326" lon="1.14156">
        <ele>115.98</ele>
        <time>2012-09-09T06:27:29Z</time>
      </trkpt>
      <trkpt lat="49.01328" lon="1.14156">
        <ele>115.5</ele>
        <time>2012-09-09T06:27:32Z</time>
      </trkpt>
      <trkpt lat="49.01358" lon="1.14189">
        <ele>115.01</ele>
        <time>2012-09-09T06:27:42Z</time>
      </trkpt>
      <trkpt lat="49.01364" lon="1.14195">
        <ele>115.5</ele>
        <time>2012-09-09T06:27:44Z</time>
      </trkpt>
      <trkpt lat="49.01388" lon="1.1422">
        <ele>118.86</ele>
        <time>2012-09-09T06:27:53Z</time>
      </trkpt>
      <trkpt lat="49.01407" lon="1.14237">
        <ele>119.34</ele>
        <time>2012-09-09T06:28:01Z</time>
      </trkpt>
      <trkpt lat="49.01423" lon="1.14262">
        <ele>118.38</ele>
        <time>2012-09-09T06:28:08Z</time>
      </trkpt>
      <trkpt lat="49.01443" lon="1.1427">
        <ele>116.46</ele>
        <time>2012-09-09T06:28:13Z</time>
      </trkpt>
      <trkpt lat="49.01452" lon="1.14254">
        <ele>116.94</ele>
        <time>2012-09-09T06:28:18Z</time>
      </trkpt>
      <trkpt lat="49.01466" lon="1.14209">
        <ele>119.34</ele>
        <time>2012-09-09T06:28:28Z</time>
      </trkpt>
      <trkpt lat="49.01476" lon="1.14158">
        <ele>121.74</ele>
        <time>2012-09-09T06:28:39Z</time>
      </trkpt>
      <trkpt lat="49.01492" lon="1.141">
        <ele>122.71</ele>
        <time>2012-09-09T06:28:51Z</time>
      </trkpt>
      <trkpt lat="49.01491" lon="1.14049">
        <ele>122.71</ele>
        <time>2012-09-09T06:29:00Z</time>
      </trkpt>
      <trkpt lat="49.0149" lon="1.14035">
        <ele>123.19</ele>
        <time>2012-09-09T06:29:03Z</time>
      </trkpt>
      <trkpt lat="49.01497" lon="1.14031">
        <ele>123.67</ele>
        <time>2012-09-09T06:29:08Z</time>
      </trkpt>
      <trkpt lat="49.01529" lon="1.14066">
        <ele>122.22</ele>
        <time>2012-09-09T06:29:20Z</time>
      </trkpt>
      <trkpt lat="49.01537" lon="1.14055">
        <ele>120.78</ele>
        <time>2012-09-09T06:29:25Z</time>
      </trkpt>
      <trkpt lat="49.01545" lon="1.14034">
        <ele>121.74</ele>
        <time>2012-09-09T06:29:30Z</time>
      </trkpt>
      <trkpt lat="49.01557" lon="1.13997">
        <ele>120.78</ele>
        <time>2012-09-09T06:29:39Z</time>
      </trkpt>
      <trkpt lat="49.01554" lon="1.13943">
        <ele>119.34</ele>
        <time>2012-09-09T06:29:47Z</time>
      </trkpt>
      <trkpt lat="49.01546" lon="1.13922">
        <ele>119.34</ele>
        <time>2012-09-09T06:29:50Z</time>
      </trkpt>
      <trkpt lat="49.01541" lon="1.13909">
        <ele>119.82</ele>
        <time>2012-09-09T06:29:52Z</time>
      </trkpt>
      <trkpt lat="49.01522" lon="1.13824">
        <ele>120.78</ele>
        <time>2012-09-09T06:30:03Z</time>
      </trkpt>
      <trkpt lat="49.0152" lon="1.13816">
        <ele>121.26</ele>
        <time>2012-09-09T06:30:04Z</time>
      </trkpt>
      <trkpt lat="49.01516" lon="1.13802">
        <ele>120.78</ele>
        <time>2012-09-09T06:30:06Z</time>
      </trkpt>
      <trkpt lat="49.01508" lon="1.13769">
        <ele>120.78</ele>
        <time>2012-09-09T06:30:11Z</time>
      </trkpt>
      <trkpt lat="49.01489" lon="1.13723">
        <ele>121.74</ele>
        <time>2012-09-09T06:30:19Z</time>
      </trkpt>
      <trkpt lat="49.01455" lon="1.13672">
        <ele>124.15</ele>
        <time>2012-09-09T06:30:30Z</time>
      </trkpt>
      <trkpt lat="49.01449" lon="1.13662">
        <ele>124.63</ele>
        <time>2012-09-09T06:30:32Z</time>
      </trkpt>
      <trkpt lat="49.01424" lon="1.13628">
        <ele>125.11</ele>
        <time>2012-09-09T06:30:40Z</time>
      </trkpt>
      <trkpt lat="49.01419" lon="1.13621">
        <ele>125.11</ele>
        <time>2012-09-09T06:30:42Z</time>
      </trkpt>
      <trkpt lat="49.01404" lon="1.13565">
        <ele>126.07</ele>
        <time>2012-09-09T06:30:52Z</time>
      </trkpt>
      <trkpt lat="49.01387" lon="1.13547">
        <ele>127.51</ele>
        <time>2012-09-09T06:30:58Z</time>
      </trkpt>
      <trkpt lat="49.01371" lon="1.13538">
        <ele>127.99</ele>
        <time>2012-09-09T06:31:02Z</time>
      </trkpt>
      <trkpt lat="49.01334" lon="1.13514">
        <ele>128.47</ele>
        <time>2012-09-09T06:31:11Z</time>
      </trkpt>
      <trkpt lat="49.01302" lon="1.13494">
        <ele>129.92</ele>
        <time>2012-09-09T06:31:20Z</time>
      </trkpt>
      <trkpt lat="49.01272" lon="1.1347">
        <ele>130.4</ele>
        <time>2012-09-09T06:31:28Z</time>
      </trkpt>
      <trkpt lat="49.01261" lon="1.1346">
        <ele>131.36</ele>
        <time>2012-09-09T06:31:31Z</time>
      </trkpt>
      <trkpt lat="49.01214" lon="1.13437">
        <ele>132.32</ele>
        <time>2012-09-09T06:31:43Z</time>
      </trkpt>
      <trkpt lat="49.0121" lon="1.13434">
        <ele>132.32</ele>
        <time>2012-09-09T06:31:44Z</time>
      </trkpt>
      <trkpt lat="49.01189" lon="1.13425">
        <ele>132.8</ele>
        <time>2012-09-09T06:31:49Z</time>
      </trkpt>
      <trkpt lat="49.01144" lon="1.13406">
        <ele>133.28</ele>
        <time>2012-09-09T06:32:00Z</time>
      </trkpt>
      <trkpt lat="49.01136" lon="1.13402">
        <ele>133.76</ele>
        <time>2012-09-09T06:32:02Z</time>
      </trkpt>
      <trkpt lat="49.01116" lon="1.13395">
        <ele>134.72</ele>
        <time>2012-09-09T06:32:07Z</time>
      </trkpt>
      <trkpt lat="49.01105" lon="1.13385">
        <ele>134.24</ele>
        <time>2012-09-09T06:32:11Z</time>
      </trkpt>
      <trkpt lat="49.01095" lon="1.1338">
        <ele>135.2</ele>
        <time>2012-09-09T06:32:18Z</time>
      </trkpt>
      <trkpt lat="49.01135" lon="1.13402">
        <ele>134.24</ele>
        <time>2012-09-09T06:32:31Z</time>
      </trkpt>
      <trkpt lat="49.01173" lon="1.13416">
        <ele>133.28</ele>
        <time>2012-09-09T06:32:43Z</time>
      </trkpt>
      <trkpt lat="49.01197" lon="1.13429">
        <ele>131.84</ele>
        <time>2012-09-09T06:32:52Z</time>
      </trkpt>
      <trkpt lat="49.01187" lon="1.13421">
        <ele>131.36</ele>
        <time>2012-09-09T06:32:57Z</time>
      </trkpt>
      <trkpt lat="49.01161" lon="1.13408">
        <ele>132.32</ele>
        <time>2012-09-09T06:33:03Z</time>
      </trkpt>
      <trkpt lat="49.01143" lon="1.13405">
        <ele>133.28</ele>
        <time>2012-09-09T06:33:07Z</time>
      </trkpt>
      <trkpt lat="49.01106" lon="1.13388">
        <ele>133.76</ele>
        <time>2012-09-09T06:33:16Z</time>
      </trkpt>
      <trkpt lat="49.01089" lon="1.13377">
        <ele>134.24</ele>
        <time>2012-09-09T06:33:20Z</time>
      </trkpt>
      <trkpt lat="49.01071" lon="1.13366">
        <ele>135.68</ele>
        <time>2012-09-09T06:33:24Z</time>
      </trkpt>
      <trkpt lat="49.01063" lon="1.13361">
        <ele>135.68</ele>
        <time>2012-09-09T06:33:26Z</time>
      </trkpt>
      <trkpt lat="49.01048" lon="1.13327">
        <ele>135.2</ele>
        <time>2012-09-09T06:33:34Z</time>
      </trkpt>
      <trkpt lat="49.01018" lon="1.13289">
        <ele>135.2</ele>
        <time>2012-09-09T06:33:44Z</time>
      </trkpt>
      <trkpt lat="49.01018" lon="1.13273">
        <ele>135.2</ele>
        <time>2012-09-09T06:33:49Z</time>
      </trkpt>
      <trkpt lat="49.01042" lon="1.13247">
        <ele>134.72</ele>
        <time>2012-09-09T06:33:57Z</time>
      </trkpt>
      <trkpt lat="49.01067" lon="1.13214">
        <ele>134.24</ele>
        <time>2012-09-09T06:34:04Z</time>
      </trkpt>
      <trkpt lat="49.01105" lon="1.13166">
        <ele>131.84</ele>
        <time>2012-09-09T06:34:14Z</time>
      </trkpt>
      <trkpt lat="49.01118" lon="1.13148">
        <ele>130.88</ele>
        <time>2012-09-09T06:34:17Z</time>
      </trkpt>
      <trkpt lat="49.01131" lon="1.13129">
        <ele>129.43</ele>
        <time>2012-09-09T06:34:20Z</time>
      </trkpt>
      <trkpt lat="49.0114" lon="1.13116">
        <ele>129.43</ele>
        <time>2012-09-09T06:34:22Z</time>
      </trkpt>
      <trkpt lat="49.01177" lon="1.13067">
        <ele>129.43</ele>
        <time>2012-09-09T06:34:30Z</time>
      </trkpt>
      <trkpt lat="49.01184" lon="1.13057">
        <ele>129.43</ele>
        <time>2012-09-09T06:34:32Z</time>
      </trkpt>
      <trkpt lat="49.01196" lon="1.13048">
        <ele>128.95</ele>
        <time>2012-09-09T06:34:36Z</time>
      </trkpt>
      <trkpt lat="49.01227" lon="1.1309">
        <ele>127.51</ele>
        <time>2012-09-09T06:34:43Z</time>
      </trkpt>
      <trkpt lat="49.01247" lon="1.13117">
        <ele>127.51</ele>
        <time>2012-09-09T06:34:48Z</time>
      </trkpt>
      <trkpt lat="49.01256" lon="1.13135">
        <ele>127.99</ele>
        <time>2012-09-09T06:34:51Z</time>
      </trkpt>
      <trkpt lat="49.01261" lon="1.13151">
        <ele>127.99</ele>
        <time>2012-09-09T06:34:53Z</time>
      </trkpt>
      <trkpt lat="49.01279" lon="1.13202">
        <ele>127.99</ele>
        <time>2012-09-09T06:35:00Z</time>
      </trkpt>
      <trkpt lat="49.01304" lon="1.13196">
        <ele>128.47</ele>
        <time>2012-09-09T06:35:09Z</time>
      </trkpt>
      <trkpt lat="49.01307" lon="1.13195">
        <ele>128.95</ele>
        <time>2012-09-09T06:35:10Z</time>
      </trkpt>
      <trkpt lat="49.01316" lon="1.13202">
        <ele>128.95</ele>
        <time>2012-09-09T06:35:14Z</time>
      </trkpt>
      <trkpt lat="49.01325" lon="1.13232">
        <ele>128.95</ele>
        <time>2012-09-09T06:35:20Z</time>
      </trkpt>
      <trkpt lat="49.01337" lon="1.13252">
        <ele>129.43</ele>
        <time>2012-09-09T06:35:24Z</time>
      </trkpt>
      <trkpt lat="49.01357" lon="1.13277">
        <ele>128.95</ele>
        <time>2012-09-09T06:35:30Z</time>
      </trkpt>
      <trkpt lat="49.01377" lon="1.13319">
        <ele>128.47</ele>
        <time>2012-09-09T06:35:39Z</time>
      </trkpt>
      <trkpt lat="49.01386" lon="1.13332">
        <ele>128.47</ele>
        <time>2012-09-09T06:35:42Z</time>
      </trkpt>
      <trkpt lat="49.0141" lon="1.13372">
        <ele>126.55</ele>
        <time>2012-09-09T06:35:49Z</time>
      </trkpt>
      <trkpt lat="49.01434" lon="1.13407">
        <ele>125.59</ele>
        <time>2012-09-09T06:35:56Z</time>
      </trkpt>
      <trkpt lat="49.01444" lon="1.13427">
        <ele>124.63</ele>
        <time>2012-09-09T06:36:02Z</time>
      </trkpt>
      <trkpt lat="49.01471" lon="1.13408">
        <ele>121.26</ele>
        <time>2012-09-09T06:36:11Z</time>
      </trkpt>
      <trkpt lat="49.01481" lon="1.13404">
        <ele>118.38</ele>
        <time>2012-09-09T06:36:16Z</time>
      </trkpt>
      <trkpt lat="49.01501" lon="1.13412">
        <ele>115.98</ele>
        <time>2012-09-09T06:36:22Z</time>
      </trkpt>
      <trkpt lat="49.01507" lon="1.13415">
        <ele>115.98</ele>
        <time>2012-09-09T06:36:27Z</time>
      </trkpt>
      <trkpt lat="49.0151" lon="1.13417">
        <ele>115.98</ele>
        <time>2012-09-09T06:36:29Z</time>
      </trkpt>
      <trkpt lat="49.01512" lon="1.13396">
        <ele>113.57</ele>
        <time>2012-09-09T06:36:37Z</time>
      </trkpt>
      <trkpt lat="49.01512" lon="1.13373">
        <ele>114.05</ele>
        <time>2012-09-09T06:36:43Z</time>
      </trkpt>
      <trkpt lat="49.01509" lon="1.13361">
        <ele>114.05</ele>
        <time>2012-09-09T06:36:46Z</time>
      </trkpt>
      <trkpt lat="49.01502" lon="1.13297">
        <ele>113.57</ele>
        <time>2012-09-09T06:36:58Z</time>
      </trkpt>
      <trkpt lat="49.01494" lon="1.13261">
        <ele>112.61</ele>
        <time>2012-09-09T06:37:04Z</time>
      </trkpt>
      <trkpt lat="49.01491" lon="1.13243">
        <ele>111.65</ele>
        <time>2012-09-09T06:37:06Z</time>
      </trkpt>
      <trkpt lat="49.01491" lon="1.13209">
        <ele>111.17</ele>
        <time>2012-09-09T06:37:12Z</time>
      </trkpt>
      <trkpt lat="49.0149" lon="1.1318">
        <ele>110.21</ele>
        <time>2012-09-09T06:37:16Z</time>
      </trkpt>
      <trkpt lat="49.01492" lon="1.13155">
        <ele>107.81</ele>
        <time>2012-09-09T06:37:19Z</time>
      </trkpt>
      <trkpt lat="49.01491" lon="1.13118">
        <ele>105.88</ele>
        <time>2012-09-09T06:37:24Z</time>
      </trkpt>
      <trkpt lat="49.0149" lon="1.13098">
        <ele>104.92</ele>
        <time>2012-09-09T06:37:27Z</time>
      </trkpt>
      <trkpt lat="49.01478" lon="1.13063">
        <ele>101.56</ele>
        <time>2012-09-09T06:37:36Z</time>
      </trkpt>
      <trkpt lat="49.01476" lon="1.13058">
        <ele>101.56</ele>
        <time>2012-09-09T06:37:37Z</time>
      </trkpt>
      <trkpt lat="49.01467" lon="1.13036">
        <ele>97.71</ele>
        <time>2012-09-09T06:37:41Z</time>
      </trkpt>
      <trkpt lat="49.01463" lon="1.13025">
        <ele>96.75</ele>
        <time>2012-09-09T06:37:43Z</time>
      </trkpt>
      <trkpt lat="49.01461" lon="1.13001">
        <ele>96.27</ele>
        <time>2012-09-09T06:37:51Z</time>
      </trkpt>
      <trkpt lat="49.01459" lon="1.12998">
        <ele>96.75</ele>
        <time>2012-09-09T06:37:53Z</time>
      </trkpt>
      <trkpt lat="49.01435" lon="1.12989">
        <ele>99.15</ele>
        <time>2012-09-09T06:38:01Z</time>
      </trkpt>
      <trkpt lat="49.01416" lon="1.12981">
        <ele>101.56</ele>
        <time>2012-09-09T06:38:10Z</time>
      </trkpt>
      <trkpt lat="49.01392" lon="1.1298">
        <ele>104.44</ele>
        <time>2012-09-09T06:38:20Z</time>
      </trkpt>
      <trkpt lat="49.01381" lon="1.12978">
        <ele>105.4</ele>
        <time>2012-09-09T06:38:25Z</time>
      </trkpt>
      <trkpt lat="49.01377" lon="1.12977">
        <ele>105.88</ele>
        <time>2012-09-09T06:38:28Z</time>
      </trkpt>
      <trkpt lat="49.01374" lon="1.12976">
        <ele>106.36</ele>
        <time>2012-09-09T06:38:30Z</time>
      </trkpt>
      <trkpt lat="49.01356" lon="1.12977">
        <ele>108.77</ele>
        <time>2012-09-09T06:38:41Z</time>
      </trkpt>
      <trkpt lat="49.01339" lon="1.12974">
        <ele>110.69</ele>
        <time>2012-09-09T06:38:49Z</time>
      </trkpt>
      <trkpt lat="49.01328" lon="1.12973">
        <ele>114.05</ele>
        <time>2012-09-09T06:39:01Z</time>
      </trkpt>
      <trkpt lat="49.01326" lon="1.12975">
        <ele>114.05</ele>
        <time>2012-09-09T06:39:03Z</time>
      </trkpt>
      <trkpt lat="49.01319" lon="1.12978">
        <ele>115.01</ele>
        <time>2012-09-09T06:39:07Z</time>
      </trkpt>
      <trkpt lat="49.01312" lon="1.12983">
        <ele>115.5</ele>
        <time>2012-09-09T06:39:11Z</time>
      </trkpt>
      <trkpt lat="49.01296" lon="1.12995">
        <ele>117.9</ele>
        <time>2012-09-09T06:39:22Z</time>
      </trkpt>
      <trkpt lat="49.01284" lon="1.13012">
        <ele>120.78</ele>
        <time>2012-09-09T06:39:34Z</time>
      </trkpt>
      <trkpt lat="49.01279" lon="1.13018">
        <ele>121.74</ele>
        <time>2012-09-09T06:39:38Z</time>
      </trkpt>
      <trkpt lat="49.01271" lon="1.13008">
        <ele>122.71</ele>
        <time>2012-09-09T06:39:45Z</time>
      </trkpt>
      <trkpt lat="49.01267" lon="1.13001">
        <ele>123.67</ele>
        <time>2012-09-09T06:39:49Z</time>
      </trkpt>
      <trkpt lat="49.01261" lon="1.12981">
        <ele>125.59</ele>
        <time>2012-09-09T06:39:58Z</time>
      </trkpt>
      <trkpt lat="49.01256" lon="1.12966">
        <ele>126.55</ele>
        <time>2012-09-09T06:40:05Z</time>
      </trkpt>
      <trkpt lat="49.01255" lon="1.12956">
        <ele>127.03</ele>
        <time>2012-09-09T06:40:09Z</time>
      </trkpt>
      <trkpt lat="49.01279" lon="1.12922">
        <ele>127.03</ele>
        <time>2012-09-09T06:40:21Z</time>
      </trkpt>
      <trkpt lat="49.01304" lon="1.12889">
        <ele>126.55</ele>
        <time>2012-09-09T06:40:30Z</time>
      </trkpt>
      <trkpt lat="49.01309" lon="1.12881">
        <ele>127.03</ele>
        <time>2012-09-09T06:40:32Z</time>
      </trkpt>
      <trkpt lat="49.01332" lon="1.12853">
        <ele>127.03</ele>
        <time>2012-09-09T06:40:39Z</time>
      </trkpt>
      <trkpt lat="49.01356" lon="1.12821">
        <ele>125.59</ele>
        <time>2012-09-09T06:40:46Z</time>
      </trkpt>
      <trkpt lat="49.01388" lon="1.12781">
        <ele>122.22</ele>
        <time>2012-09-09T06:40:54Z</time>
      </trkpt>
      <trkpt lat="49.01395" lon="1.12771">
        <ele>121.74</ele>
        <time>2012-09-09T06:40:56Z</time>
      </trkpt>
      <trkpt lat="49.01404" lon="1.12758">
        <ele>119.34</ele>
        <time>2012-09-09T06:40:59Z</time>
      </trkpt>
      <trkpt lat="49.01413" lon="1.12753">
        <ele>116.94</ele>
        <time>2012-09-09T06:41:02Z</time>
      </trkpt>
      <trkpt lat="49.01422" lon="1.12789">
        <ele>114.53</ele>
        <time>2012-09-09T06:41:08Z</time>
      </trkpt>
      <trkpt lat="49.01426" lon="1.12801">
        <ele>113.57</ele>
        <time>2012-09-09T06:41:10Z</time>
      </trkpt>
      <trkpt lat="49.01432" lon="1.12829">
        <ele>112.13</ele>
        <time>2012-09-09T06:41:14Z</time>
      </trkpt>
      <trkpt lat="49.01443" lon="1.12878">
        <ele>108.77</ele>
        <time>2012-09-09T06:41:22Z</time>
      </trkpt>
      <trkpt lat="49.01446" lon="1.1291">
        <ele>106.36</ele>
        <time>2012-09-09T06:41:27Z</time>
      </trkpt>
      <trkpt lat="49.01447" lon="1.12921">
        <ele>105.4</ele>
        <time>2012-09-09T06:41:30Z</time>
      </trkpt>
      <trkpt lat="49.01461" lon="1.12904">
        <ele>103.96</ele>
        <time>2012-09-09T06:41:36Z</time>
      </trkpt>
      <trkpt lat="49.01464" lon="1.12878">
        <ele>102.04</ele>
        <time>2012-09-09T06:41:41Z</time>
      </trkpt>
      <trkpt lat="49.01465" lon="1.12866">
        <ele>101.08</ele>
        <time>2012-09-09T06:41:43Z</time>
      </trkpt>
      <trkpt lat="49.01468" lon="1.12834">
        <ele>97.71</ele>
        <time>2012-09-09T06:41:48Z</time>
      </trkpt>
      <trkpt lat="49.0147" lon="1.1282">
        <ele>96.75</ele>
        <time>2012-09-09T06:41:50Z</time>
      </trkpt>
      <trkpt lat="49.01473" lon="1.12804">
        <ele>95.79</ele>
        <time>2012-09-09T06:41:52Z</time>
      </trkpt>
      <trkpt lat="49.01475" lon="1.12787">
        <ele>94.35</ele>
        <time>2012-09-09T06:41:54Z</time>
      </trkpt>
      <trkpt lat="49.01473" lon="1.12772">
        <ele>93.39</ele>
        <time>2012-09-09T06:41:56Z</time>
      </trkpt>
      <trkpt lat="49.01478" lon="1.12736">
        <ele>90.5</ele>
        <time>2012-09-09T06:42:01Z</time>
      </trkpt>
      <trkpt lat="49.01489" lon="1.12696">
        <ele>87.62</ele>
        <time>2012-09-09T06:42:09Z</time>
      </trkpt>
      <trkpt lat="49.01488" lon="1.1269">
        <ele>87.62</ele>
        <time>2012-09-09T06:42:10Z</time>
      </trkpt>
      <trkpt lat="49.01482" lon="1.12657">
        <ele>87.62</ele>
        <time>2012-09-09T06:42:15Z</time>
      </trkpt>
      <trkpt lat="49.01478" lon="1.12618">
        <ele>87.62</ele>
        <time>2012-09-09T06:42:20Z</time>
      </trkpt>
      <trkpt lat="49.01477" lon="1.12571">
        <ele>88.58</ele>
        <time>2012-09-09T06:42:28Z</time>
      </trkpt>
      <trkpt lat="49.01468" lon="1.12561">
        <ele>89.06</ele>
        <time>2012-09-09T06:42:33Z</time>
      </trkpt>
      <trkpt lat="49.0146" lon="1.12557">
        <ele>90.5</ele>
        <time>2012-09-09T06:42:37Z</time>
      </trkpt>
      <trkpt lat="49.01451" lon="1.12541">
        <ele>92.9</ele>
        <time>2012-09-09T06:42:47Z</time>
      </trkpt>
      <trkpt lat="49.01442" lon="1.12529">
        <ele>93.87</ele>
        <time>2012-09-09T06:42:54Z</time>
      </trkpt>
      <trkpt lat="49.01438" lon="1.12509">
        <ele>95.79</ele>
        <time>2012-09-09T06:43:03Z</time>
      </trkpt>
      <trkpt lat="49.01438" lon="1.12506">
        <ele>96.27</ele>
        <time>2012-09-09T06:43:05Z</time>
      </trkpt>
      <trkpt lat="49.01435" lon="1.12498">
        <ele>97.71</ele>
        <time>2012-09-09T06:43:11Z</time>
      </trkpt>
      <trkpt lat="49.0143" lon="1.12489">
        <ele>98.67</ele>
        <time>2012-09-09T06:43:16Z</time>
      </trkpt>
      <trkpt lat="49.01422" lon="1.12467">
        <ele>102.04</ele>
        <time>2012-09-09T06:43:27Z</time>
      </trkpt>
      <trkpt lat="49.01414" lon="1.12446">
        <ele>105.4</ele>
        <time>2012-09-09T06:43:39Z</time>
      </trkpt>
      <trkpt lat="49.01402" lon="1.12433">
        <ele>106.84</ele>
        <time>2012-09-09T06:43:50Z</time>
      </trkpt>
      <trkpt lat="49.01391" lon="1.12417">
        <ele>109.73</ele>
        <time>2012-09-09T06:44:03Z</time>
      </trkpt>
      <trkpt lat="49.01383" lon="1.12401">
        <ele>112.13</ele>
        <time>2012-09-09T06:44:14Z</time>
      </trkpt>
      <trkpt lat="49.0138" lon="1.12398">
        <ele>112.61</ele>
        <time>2012-09-09T06:44:18Z</time>
      </trkpt>
      <trkpt lat="49.01375" lon="1.12394">
        <ele>113.57</ele>
        <time>2012-09-09T06:44:23Z</time>
      </trkpt>
      <trkpt lat="49.0137" lon="1.12383">
        <ele>115.5</ele>
        <time>2012-09-09T06:44:38Z</time>
      </trkpt>
      <trkpt lat="49.01366" lon="1.12377">
        <ele>117.42</ele>
        <time>2012-09-09T06:44:47Z</time>
      </trkpt>
      <trkpt lat="49.01346" lon="1.12363">
        <ele>119.34</ele>
        <time>2012-09-09T06:45:01Z</time>
      </trkpt>
      <trkpt lat="49.0134" lon="1.12361">
        <ele>120.78</ele>
        <time>2012-09-09T06:45:08Z</time>
      </trkpt>
      <trkpt lat="49.01333" lon="1.1236">
        <ele>121.26</ele>
        <time>2012-09-09T06:45:18Z</time>
      </trkpt>
      <trkpt lat="49.01323" lon="1.1237">
        <ele>122.22</ele>
        <time>2012-09-09T06:45:25Z</time>
      </trkpt>
      <trkpt lat="49.01299" lon="1.12386">
        <ele>123.19</ele>
        <time>2012-09-09T06:45:38Z</time>
      </trkpt>
      <trkpt lat="49.01287" lon="1.12393">
        <ele>124.15</ele>
        <time>2012-09-09T06:45:45Z</time>
      </trkpt>
      <trkpt lat="49.01279" lon="1.12396">
        <ele>124.15</ele>
        <time>2012-09-09T06:45:50Z</time>
      </trkpt>
      <trkpt lat="49.01258" lon="1.12406">
        <ele>125.11</ele>
        <time>2012-09-09T06:46:02Z</time>
      </trkpt>
      <trkpt lat="49.01223" lon="1.12428">
        <ele>127.99</ele>
        <time>2012-09-09T06:46:17Z</time>
      </trkpt>
      <trkpt lat="49.01196" lon="1.12444">
        <ele>128.95</ele>
        <time>2012-09-09T06:46:28Z</time>
      </trkpt>
      <trkpt lat="49.01154" lon="1.12466">
        <ele>129.43</ele>
        <time>2012-09-09T06:46:40Z</time>
      </trkpt>
      <trkpt lat="49.01148" lon="1.1247">
        <ele>129.92</ele>
        <time>2012-09-09T06:46:42Z</time>
      </trkpt>
      <trkpt lat="49.01143" lon="1.12475">
        <ele>129.92</ele>
        <time>2012-09-09T06:46:44Z</time>
      </trkpt>
      <trkpt lat="49.01145" lon="1.125">
        <ele>129.92</ele>
        <time>2012-09-09T06:46:50Z</time>
      </trkpt>
      <trkpt lat="49.01162" lon="1.12571">
        <ele>130.4</ele>
        <time>2012-09-09T06:47:02Z</time>
      </trkpt>
      <trkpt lat="49.01179" lon="1.12637">
        <ele>131.36</ele>
        <time>2012-09-09T06:47:14Z</time>
      </trkpt>
      <trkpt lat="49.01195" lon="1.12704">
        <ele>130.4</ele>
        <time>2012-09-09T06:47:25Z</time>
      </trkpt>
      <trkpt lat="49.01196" lon="1.12711">
        <ele>130.4</ele>
        <time>2012-09-09T06:47:26Z</time>
      </trkpt>
      <trkpt lat="49.012" lon="1.12729">
        <ele>129.92</ele>
        <time>2012-09-09T06:47:29Z</time>
      </trkpt>
      <trkpt lat="49.01206" lon="1.12749">
        <ele>129.92</ele>
        <time>2012-09-09T06:47:32Z</time>
      </trkpt>
      <trkpt lat="49.01214" lon="1.12804">
        <ele>127.51</ele>
        <time>2012-09-09T06:47:41Z</time>
      </trkpt>
      <trkpt lat="49.01212" lon="1.12807">
        <ele>127.51</ele>
        <time>2012-09-09T06:47:42Z</time>
      </trkpt>
      <trkpt lat="49.01176" lon="1.12839">
        <ele>127.51</ele>
        <time>2012-09-09T06:47:52Z</time>
      </trkpt>
      <trkpt lat="49.01158" lon="1.12875">
        <ele>128.95</ele>
        <time>2012-09-09T06:48:02Z</time>
      </trkpt>
      <trkpt lat="49.01143" lon="1.12907">
        <ele>128.95</ele>
        <time>2012-09-09T06:48:10Z</time>
      </trkpt>
      <trkpt lat="49.01125" lon="1.12912">
        <ele>129.43</ele>
        <time>2012-09-09T06:48:20Z</time>
      </trkpt>
      <trkpt lat="49.01118" lon="1.12902">
        <ele>129.43</ele>
        <time>2012-09-09T06:48:26Z</time>
      </trkpt>
      <trkpt lat="49.01102" lon="1.12893">
        <ele>129.43</ele>
        <time>2012-09-09T06:48:33Z</time>
      </trkpt>
      <trkpt lat="49.01079" lon="1.12867">
        <ele>129.92</ele>
        <time>2012-09-09T06:48:46Z</time>
      </trkpt>
      <trkpt lat="49.01064" lon="1.12846">
        <ele>130.88</ele>
        <time>2012-09-09T06:48:57Z</time>
      </trkpt>
      <trkpt lat="49.01052" lon="1.12819">
        <ele>130.4</ele>
        <time>2012-09-09T06:49:10Z</time>
      </trkpt>
      <trkpt lat="49.01049" lon="1.12809">
        <ele>130.4</ele>
        <time>2012-09-09T06:49:19Z</time>
      </trkpt>
      <trkpt lat="49.01048" lon="1.12802">
        <ele>130.88</ele>
        <time>2012-09-09T06:49:22Z</time>
      </trkpt>
      <trkpt lat="49.01049" lon="1.12796">
        <ele>130.88</ele>
        <time>2012-09-09T06:49:25Z</time>
      </trkpt>
      <trkpt lat="49.01058" lon="1.12775">
        <ele>130.88</ele>
        <time>2012-09-09T06:49:35Z</time>
      </trkpt>
      <trkpt lat="49.01078" lon="1.12756">
        <ele>129.92</ele>
        <time>2012-09-09T06:49:44Z</time>
      </trkpt>
      <trkpt lat="49.0108" lon="1.12733">
        <ele>130.4</ele>
        <time>2012-09-09T06:49:53Z</time>
      </trkpt>
      <trkpt lat="49.01081" lon="1.12715">
        <ele>130.4</ele>
        <time>2012-09-09T06:49:58Z</time>
      </trkpt>
      <trkpt lat="49.01081" lon="1.12667">
        <ele>130.4</ele>
        <time>2012-09-09T06:50:13Z</time>
      </trkpt>
      <trkpt lat="49.01084" lon="1.12626">
        <ele>130.4</ele>
        <time>2012-09-09T06:50:27Z</time>
      </trkpt>
      <trkpt lat="49.01082" lon="1.12599">
        <ele>129.43</ele>
        <time>2012-09-09T06:50:35Z</time>
      </trkpt>
      <trkpt lat="49.01085" lon="1.12569">
        <ele>130.4</ele>
        <time>2012-09-09T06:50:45Z</time>
      </trkpt>
      <trkpt lat="49.01089" lon="1.1255">
        <ele>129.92</ele>
        <time>2012-09-09T06:50:51Z</time>
      </trkpt>
      <trkpt lat="49.01086" lon="1.12537">
        <ele>129.43</ele>
        <time>2012-09-09T06:50:54Z</time>
      </trkpt>
      <trkpt lat="49.01071" lon="1.12516">
        <ele>128.95</ele>
        <time>2012-09-09T06:51:03Z</time>
      </trkpt>
      <trkpt lat="49.01059" lon="1.12532">
        <ele>129.43</ele>
        <time>2012-09-09T06:51:07Z</time>
      </trkpt>
      <trkpt lat="49.0105" lon="1.12561">
        <ele>129.92</ele>
        <time>2012-09-09T06:51:11Z</time>
      </trkpt>
      <trkpt lat="49.01038" lon="1.12597">
        <ele>130.88</ele>
        <time>2012-09-09T06:51:16Z</time>
      </trkpt>
      <trkpt lat="49.01032" lon="1.12619">
        <ele>131.36</ele>
        <time>2012-09-09T06:51:20Z</time>
      </trkpt>
      <trkpt lat="49.01027" lon="1.12635">
        <ele>132.32</ele>
        <time>2012-09-09T06:51:23Z</time>
      </trkpt>
      <trkpt lat="49.0101" lon="1.12684">
        <ele>131.36</ele>
        <time>2012-09-09T06:51:31Z</time>
      </trkpt>
      <trkpt lat="49.01007" lon="1.12698">
        <ele>131.84</ele>
        <time>2012-09-09T06:51:33Z</time>
      </trkpt>
      <trkpt lat="49.00997" lon="1.12736">
        <ele>131.36</ele>
        <time>2012-09-09T06:51:38Z</time>
      </trkpt>
      <trkpt lat="49.00974" lon="1.12801">
        <ele>130.4</ele>
        <time>2012-09-09T06:51:46Z</time>
      </trkpt>
      <trkpt lat="49.00955" lon="1.12863">
        <ele>129.92</ele>
        <time>2012-09-09T06:51:54Z</time>
      </trkpt>
      <trkpt lat="49.00946" lon="1.12894">
        <ele>130.4</ele>
        <time>2012-09-09T06:51:58Z</time>
      </trkpt>
      <trkpt lat="49.00926" lon="1.12913">
        <ele>129.43</ele>
        <time>2012-09-09T06:52:05Z</time>
      </trkpt>
      <trkpt lat="49.00918" lon="1.12913">
        <ele>129.43</ele>
        <time>2012-09-09T06:52:07Z</time>
      </trkpt>
      <trkpt lat="49.00903" lon="1.12876">
        <ele>130.4</ele>
        <time>2012-09-09T06:52:15Z</time>
      </trkpt>
      <trkpt lat="49.00893" lon="1.1284">
        <ele>130.88</ele>
        <time>2012-09-09T06:52:21Z</time>
      </trkpt>
      <trkpt lat="49.00885" lon="1.12817">
        <ele>131.36</ele>
        <time>2012-09-09T06:52:25Z</time>
      </trkpt>
      <trkpt lat="49.00881" lon="1.12797">
        <ele>131.36</ele>
        <time>2012-09-09T06:52:28Z</time>
      </trkpt>
      <trkpt lat="49.0087" lon="1.12752">
        <ele>131.84</ele>
        <time>2012-09-09T06:52:35Z</time>
      </trkpt>
      <trkpt lat="49.00863" lon="1.12719">
        <ele>132.32</ele>
        <time>2012-09-09T06:52:40Z</time>
      </trkpt>
      <trkpt lat="49.00859" lon="1.12696">
        <ele>133.28</ele>
        <time>2012-09-09T06:52:44Z</time>
      </trkpt>
      <trkpt lat="49.00848" lon="1.12653">
        <ele>133.76</ele>
        <time>2012-09-09T06:52:53Z</time>
      </trkpt>
      <trkpt lat="49.00851" lon="1.1264">
        <ele>133.28</ele>
        <time>2012-09-09T06:52:57Z</time>
      </trkpt>
      <trkpt lat="49.00881" lon="1.12622">
        <ele>132.8</ele>
        <time>2012-09-09T06:53:05Z</time>
      </trkpt>
      <trkpt lat="49.00889" lon="1.12594">
        <ele>132.8</ele>
        <time>2012-09-09T06:53:13Z</time>
      </trkpt>
      <trkpt lat="49.00885" lon="1.12591">
        <ele>132.8</ele>
        <time>2012-09-09T06:53:14Z</time>
      </trkpt>
      <trkpt lat="49.0087" lon="1.12571">
        <ele>133.76</ele>
        <time>2012-09-09T06:53:19Z</time>
      </trkpt>
      <trkpt lat="49.00877" lon="1.12537">
        <ele>132.8</ele>
        <time>2012-09-09T06:53:28Z</time>
      </trkpt>
      <trkpt lat="49.00887" lon="1.12512">
        <ele>133.28</ele>
        <time>2012-09-09T06:53:35Z</time>
      </trkpt>
      <trkpt lat="49.00891" lon="1.12501">
        <ele>132.32</ele>
        <time>2012-09-09T06:53:39Z</time>
      </trkpt>
      <trkpt lat="49.00896" lon="1.12481">
        <ele>132.8</ele>
        <time>2012-09-09T06:53:47Z</time>
      </trkpt>
      <trkpt lat="49.00902" lon="1.1247">
        <ele>132.8</ele>
        <time>2012-09-09T06:53:52Z</time>
      </trkpt>
      <trkpt lat="49.00903" lon="1.12461">
        <ele>132.32</ele>
        <time>2012-09-09T06:53:56Z</time>
      </trkpt>
      <trkpt lat="49.00908" lon="1.12452">
        <ele>132.32</ele>
        <time>2012-09-09T06:54:00Z</time>
      </trkpt>
      <trkpt lat="49.00921" lon="1.1241">
        <ele>131.84</ele>
        <time>2012-09-09T06:54:13Z</time>
      </trkpt>
      <trkpt lat="49.00936" lon="1.12369">
        <ele>130.88</ele>
        <time>2012-09-09T06:54:25Z</time>
      </trkpt>
      <trkpt lat="49.00949" lon="1.12331">
        <ele>128.95</ele>
        <time>2012-09-09T06:54:37Z</time>
      </trkpt>
      <trkpt lat="49.00952" lon="1.12321">
        <ele>128.47</ele>
        <time>2012-09-09T06:54:41Z</time>
      </trkpt>
      <trkpt lat="49.00959" lon="1.12295">
        <ele>127.51</ele>
        <time>2012-09-09T06:54:52Z</time>
      </trkpt>
      <trkpt lat="49.00964" lon="1.1228">
        <ele>127.51</ele>
        <time>2012-09-09T06:55:03Z</time>
      </trkpt>
      <trkpt lat="49.00976" lon="1.12242">
        <ele>127.51</ele>
        <time>2012-09-09T06:55:17Z</time>
      </trkpt>
      <trkpt lat="49.00983" lon="1.12226">
        <ele>127.03</ele>
        <time>2012-09-09T06:55:23Z</time>
      </trkpt>
      <trkpt lat="49.00991" lon="1.12205">
        <ele>127.03</ele>
        <time>2012-09-09T06:55:32Z</time>
      </trkpt>
      <trkpt lat="49.00999" lon="1.12186">
        <ele>126.07</ele>
        <time>2012-09-09T06:55:40Z</time>
      </trkpt>
      <trkpt lat="49.00985" lon="1.1212">
        <ele>127.03</ele>
        <time>2012-09-09T06:55:52Z</time>
      </trkpt>
      <trkpt lat="49.00976" lon="1.12082">
        <ele>127.51</ele>
        <time>2012-09-09T06:55:59Z</time>
      </trkpt>
      <trkpt lat="49.0099" lon="1.12076">
        <ele>127.99</ele>
        <time>2012-09-09T06:56:06Z</time>
      </trkpt>
      <trkpt lat="49.01005" lon="1.12087">
        <ele>127.03</ele>
        <time>2012-09-09T06:56:10Z</time>
      </trkpt>
      <trkpt lat="49.01013" lon="1.12092">
        <ele>127.03</ele>
        <time>2012-09-09T06:56:12Z</time>
      </trkpt>
      <trkpt lat="49.01041" lon="1.12115">
        <ele>125.11</ele>
        <time>2012-09-09T06:56:19Z</time>
      </trkpt>
      <trkpt lat="49.01073" lon="1.12143">
        <ele>124.63</ele>
        <time>2012-09-09T06:56:28Z</time>
      </trkpt>
      <trkpt lat="49.01095" lon="1.12143">
        <ele>124.63</ele>
        <time>2012-09-09T06:56:34Z</time>
      </trkpt>
      <trkpt lat="49.0112" lon="1.12126">
        <ele>125.59</ele>
        <time>2012-09-09T06:56:43Z</time>
      </trkpt>
      <trkpt lat="49.01158" lon="1.12105">
        <ele>125.11</ele>
        <time>2012-09-09T06:56:55Z</time>
      </trkpt>
      <trkpt lat="49.01183" lon="1.12089">
        <ele>125.59</ele>
        <time>2012-09-09T06:57:05Z</time>
      </trkpt>
      <trkpt lat="49.01189" lon="1.12087">
        <ele>125.11</ele>
        <time>2012-09-09T06:57:07Z</time>
      </trkpt>
      <trkpt lat="49.01204" lon="1.12066">
        <ele>124.63</ele>
        <time>2012-09-09T06:57:14Z</time>
      </trkpt>
      <trkpt lat="49.01218" lon="1.12061">
        <ele>124.15</ele>
        <time>2012-09-09T06:57:20Z</time>
      </trkpt>
      <trkpt lat="49.01227" lon="1.12051">
        <ele>122.71</ele>
        <time>2012-09-09T06:57:24Z</time>
      </trkpt>
      <trkpt lat="49.01243" lon="1.12068">
        <ele>121.74</ele>
        <time>2012-09-09T06:57:31Z</time>
      </trkpt>
      <trkpt lat="49.01248" lon="1.12083">
        <ele>121.74</ele>
        <time>2012-09-09T06:57:35Z</time>
      </trkpt>
      <trkpt lat="49.01238" lon="1.12124">
        <ele>124.63</ele>
        <time>2012-09-09T06:57:46Z</time>
      </trkpt>
      <trkpt lat="49.01225" lon="1.12161">
        <ele>126.07</ele>
        <time>2012-09-09T06:57:55Z</time>
      </trkpt>
      <trkpt lat="49.01221" lon="1.12175">
        <ele>126.55</ele>
        <time>2012-09-09T06:57:59Z</time>
      </trkpt>
      <trkpt lat="49.01216" lon="1.12191">
        <ele>127.03</ele>
        <time>2012-09-09T06:58:03Z</time>
      </trkpt>
      <trkpt lat="49.01218" lon="1.12216">
        <ele>126.55</ele>
        <time>2012-09-09T06:58:08Z</time>
      </trkpt>
      <trkpt lat="49.01231" lon="1.12235">
        <ele>126.55</ele>
        <time>2012-09-09T06:58:13Z</time>
      </trkpt>
      <trkpt lat="49.0126" lon="1.12258">
        <ele>126.07</ele>
        <time>2012-09-09T06:58:21Z</time>
      </trkpt>
      <trkpt lat="49.01267" lon="1.12265">
        <ele>125.59</ele>
        <time>2012-09-09T06:58:23Z</time>
      </trkpt>
      <trkpt lat="49.01285" lon="1.12277">
        <ele>124.63</ele>
        <time>2012-09-09T06:58:27Z</time>
      </trkpt>
      <trkpt lat="49.01308" lon="1.12294">
        <ele>123.67</ele>
        <time>2012-09-09T06:58:32Z</time>
      </trkpt>
      <trkpt lat="49.01317" lon="1.12305">
        <ele>122.22</ele>
        <time>2012-09-09T06:58:34Z</time>
      </trkpt>
      <trkpt lat="49.01322" lon="1.12315">
        <ele>122.22</ele>
        <time>2012-09-09T06:58:36Z</time>
      </trkpt>
      <trkpt lat="49.01325" lon="1.12328">
        <ele>121.26</ele>
        <time>2012-09-09T06:58:40Z</time>
      </trkpt>
      <trkpt lat="49.0134" lon="1.12325">
        <ele>119.34</ele>
        <time>2012-09-09T06:58:49Z</time>
      </trkpt>
      <trkpt lat="49.01351" lon="1.12302">
        <ele>118.86</ele>
        <time>2012-09-09T06:58:58Z</time>
      </trkpt>
      <trkpt lat="49.01354" lon="1.12296">
        <ele>117.9</ele>
        <time>2012-09-09T06:59:00Z</time>
      </trkpt>
      <trkpt lat="49.01359" lon="1.12287">
        <ele>116.94</ele>
        <time>2012-09-09T06:59:05Z</time>
      </trkpt>
      <trkpt lat="49.01361" lon="1.12274">
        <ele>116.46</ele>
        <time>2012-09-09T06:59:10Z</time>
      </trkpt>
      <trkpt lat="49.01364" lon="1.12261">
        <ele>116.46</ele>
        <time>2012-09-09T06:59:16Z</time>
      </trkpt>
      <trkpt lat="49.01365" lon="1.12255">
        <ele>115.98</ele>
        <time>2012-09-09T06:59:19Z</time>
      </trkpt>
      <trkpt lat="49.01365" lon="1.12251">
        <ele>115.98</ele>
        <time>2012-09-09T06:59:21Z</time>
      </trkpt>
      <trkpt lat="49.01347" lon="1.12217">
        <ele>116.46</ele>
        <time>2012-09-09T06:59:33Z</time>
      </trkpt>
      <trkpt lat="49.01329" lon="1.12174">
        <ele>118.86</ele>
        <time>2012-09-09T06:59:48Z</time>
      </trkpt>
      <trkpt lat="49.01324" lon="1.12162">
        <ele>118.86</ele>
        <time>2012-09-09T06:59:52Z</time>
      </trkpt>
      <trkpt lat="49.01317" lon="1.12122">
        <ele>119.82</ele>
        <time>2012-09-09T07:00:03Z</time>
      </trkpt>
      <trkpt lat="49.01303" lon="1.12075">
        <ele>117.9</ele>
        <time>2012-09-09T07:00:13Z</time>
      </trkpt>
      <trkpt lat="49.0129" lon="1.12064">
        <ele>117.9</ele>
        <time>2012-09-09T07:00:17Z</time>
      </trkpt>
      <trkpt lat="49.01262" lon="1.12029">
        <ele>118.38</ele>
        <time>2012-09-09T07:00:29Z</time>
      </trkpt>
      <trkpt lat="49.01258" lon="1.12024">
        <ele>118.86</ele>
        <time>2012-09-09T07:00:31Z</time>
      </trkpt>
      <trkpt lat="49.01239" lon="1.12006">
        <ele>118.38</ele>
        <time>2012-09-09T07:00:41Z</time>
      </trkpt>
      <trkpt lat="49.01237" lon="1.12006">
        <ele>118.86</ele>
        <time>2012-09-09T07:00:42Z</time>
      </trkpt>
      <trkpt lat="49.01232" lon="1.12004">
        <ele>119.34</ele>
        <time>2012-09-09T07:00:44Z</time>
      </trkpt>
      <trkpt lat="49.01227" lon="1.11997">
        <ele>119.34</ele>
        <time>2012-09-09T07:00:46Z</time>
      </trkpt>
      <trkpt lat="49.01201" lon="1.11985">
        <ele>117.9</ele>
        <time>2012-09-09T07:00:54Z</time>
      </trkpt>
      <trkpt lat="49.01172" lon="1.1199">
        <ele>118.86</ele>
        <time>2012-09-09T07:01:04Z</time>
      </trkpt>
      <trkpt lat="49.01156" lon="1.11988">
        <ele>118.38</ele>
        <time>2012-09-09T07:01:09Z</time>
      </trkpt>
      <trkpt lat="49.0113" lon="1.11986">
        <ele>115.98</ele>
        <time>2012-09-09T07:01:18Z</time>
      </trkpt>
      <trkpt lat="49.01125" lon="1.11984">
        <ele>116.46</ele>
        <time>2012-09-09T07:01:21Z</time>
      </trkpt>
      <trkpt lat="49.01124" lon="1.11977">
        <ele>117.9</ele>
        <time>2012-09-09T07:01:23Z</time>
      </trkpt>
      <trkpt lat="49.01115" lon="1.11956">
        <ele>118.38</ele>
        <time>2012-09-09T07:01:30Z</time>
      </trkpt>
      <trkpt lat="49.01095" lon="1.1193">
        <ele>119.82</ele>
        <time>2012-09-09T07:01:41Z</time>
      </trkpt>
      <trkpt lat="49.01093" lon="1.1193">
        <ele>120.3</ele>
        <time>2012-09-09T07:01:42Z</time>
      </trkpt>
      <trkpt lat="49.01078" lon="1.11919">
        <ele>121.26</ele>
        <time>2012-09-09T07:01:48Z</time>
      </trkpt>
      <trkpt lat="49.01068" lon="1.11918">
        <ele>121.26</ele>
        <time>2012-09-09T07:01:52Z</time>
      </trkpt>
      <trkpt lat="49.0104" lon="1.11908">
        <ele>121.26</ele>
        <time>2012-09-09T07:02:03Z</time>
      </trkpt>
      <trkpt lat="49.01031" lon="1.11903">
        <ele>121.26</ele>
        <time>2012-09-09T07:02:08Z</time>
      </trkpt>
      <trkpt lat="49.01023" lon="1.11898">
        <ele>121.26</ele>
        <time>2012-09-09T07:02:13Z</time>
      </trkpt>
      <trkpt lat="49.00997" lon="1.11891">
        <ele>121.74</ele>
        <time>2012-09-09T07:02:24Z</time>
      </trkpt>
      <trkpt lat="49.00974" lon="1.11896">
        <ele>125.11</ele>
        <time>2012-09-09T07:02:33Z</time>
      </trkpt>
      <trkpt lat="49.00972" lon="1.11896">
        <ele>125.11</ele>
        <time>2012-09-09T07:02:34Z</time>
      </trkpt>
      <trkpt lat="49.0096" lon="1.1188">
        <ele>126.07</ele>
        <time>2012-09-09T07:02:40Z</time>
      </trkpt>
      <trkpt lat="49.0093" lon="1.11869">
        <ele>125.11</ele>
        <time>2012-09-09T07:02:51Z</time>
      </trkpt>
      <trkpt lat="49.0092" lon="1.1186">
        <ele>126.55</ele>
        <time>2012-09-09T07:02:55Z</time>
      </trkpt>
      <trkpt lat="49.00892" lon="1.11854">
        <ele>126.07</ele>
        <time>2012-09-09T07:03:04Z</time>
      </trkpt>
      <trkpt lat="49.00887" lon="1.11848">
        <ele>126.07</ele>
        <time>2012-09-09T07:03:06Z</time>
      </trkpt>
      <trkpt lat="49.00843" lon="1.11821">
        <ele>126.55</ele>
        <time>2012-09-09T07:03:19Z</time>
      </trkpt>
      <trkpt lat="49.00833" lon="1.11813">
        <ele>126.07</ele>
        <time>2012-09-09T07:03:22Z</time>
      </trkpt>
      <trkpt lat="49.00801" lon="1.11795">
        <ele>125.11</ele>
        <time>2012-09-09T07:03:30Z</time>
      </trkpt>
      <trkpt lat="49.00775" lon="1.11801">
        <ele>124.63</ele>
        <time>2012-09-09T07:03:37Z</time>
      </trkpt>
      <trkpt lat="49.00759" lon="1.11785">
        <ele>123.67</ele>
        <time>2012-09-09T07:03:41Z</time>
      </trkpt>
      <trkpt lat="49.00742" lon="1.11773">
        <ele>121.26</ele>
        <time>2012-09-09T07:03:44Z</time>
      </trkpt>
      <trkpt lat="49.00732" lon="1.1177">
        <ele>120.3</ele>
        <time>2012-09-09T07:03:46Z</time>
      </trkpt>
      <trkpt lat="49.00712" lon="1.11753">
        <ele>122.22</ele>
        <time>2012-09-09T07:03:53Z</time>
      </trkpt>
      <trkpt lat="49.00696" lon="1.11751">
        <ele>123.19</ele>
        <time>2012-09-09T07:03:57Z</time>
      </trkpt>
      <trkpt lat="49.00687" lon="1.11752">
        <ele>123.19</ele>
        <time>2012-09-09T07:03:59Z</time>
      </trkpt>
      <trkpt lat="49.00669" lon="1.11744">
        <ele>122.71</ele>
        <time>2012-09-09T07:04:04Z</time>
      </trkpt>
      <trkpt lat="49.00655" lon="1.11743">
        <ele>123.67</ele>
        <time>2012-09-09T07:04:09Z</time>
      </trkpt>
      <trkpt lat="49.00649" lon="1.11744">
        <ele>124.15</ele>
        <time>2012-09-09T07:04:11Z</time>
      </trkpt>
      <trkpt lat="49.00646" lon="1.11743">
        <ele>124.63</ele>
        <time>2012-09-09T07:04:12Z</time>
      </trkpt>
      <trkpt lat="49.00637" lon="1.1173">
        <ele>125.59</ele>
        <time>2012-09-09T07:04:16Z</time>
      </trkpt>
      <trkpt lat="49.00634" lon="1.11714">
        <ele>126.07</ele>
        <time>2012-09-09T07:04:19Z</time>
      </trkpt>
      <trkpt lat="49.00627" lon="1.11689">
        <ele>125.11</ele>
        <time>2012-09-09T07:04:25Z</time>
      </trkpt>
      <trkpt lat="49.00617" lon="1.11646">
        <ele>120.78</ele>
        <time>2012-09-09T07:04:33Z</time>
      </trkpt>
      <trkpt lat="49.00614" lon="1.11635">
        <ele>118.86</ele>
        <time>2012-09-09T07:04:36Z</time>
      </trkpt>
      <trkpt lat="49.00613" lon="1.11625">
        <ele>116.94</ele>
        <time>2012-09-09T07:04:40Z</time>
      </trkpt>
      <trkpt lat="49.00611" lon="1.1162">
        <ele>115.5</ele>
        <time>2012-09-09T07:04:42Z</time>
      </trkpt>
      <trkpt lat="49.00607" lon="1.11616">
        <ele>115.01</ele>
        <time>2012-09-09T07:04:44Z</time>
      </trkpt>
      <trkpt lat="49.00596" lon="1.11613">
        <ele>113.57</ele>
        <time>2012-09-09T07:04:47Z</time>
      </trkpt>
      <trkpt lat="49.00576" lon="1.11605">
        <ele>114.53</ele>
        <time>2012-09-09T07:04:54Z</time>
      </trkpt>
      <trkpt lat="49.00565" lon="1.11603">
        <ele>116.94</ele>
        <time>2012-09-09T07:04:59Z</time>
      </trkpt>
      <trkpt lat="49.00536" lon="1.11594">
        <ele>118.86</ele>
        <time>2012-09-09T07:05:11Z</time>
      </trkpt>
      <trkpt lat="49.00527" lon="1.11605">
        <ele>120.3</ele>
        <time>2012-09-09T07:05:16Z</time>
      </trkpt>
      <trkpt lat="49.00526" lon="1.11621">
        <ele>121.26</ele>
        <time>2012-09-09T07:05:21Z</time>
      </trkpt>
      <trkpt lat="49.00521" lon="1.11672">
        <ele>123.67</ele>
        <time>2012-09-09T07:05:34Z</time>
      </trkpt>
      <trkpt lat="49.00517" lon="1.11716">
        <ele>123.67</ele>
        <time>2012-09-09T07:05:43Z</time>
      </trkpt>
      <trkpt lat="49.00517" lon="1.11739">
        <ele>123.67</ele>
        <time>2012-09-09T07:05:47Z</time>
      </trkpt>
      <trkpt lat="49.0054" lon="1.11768">
        <ele>126.07</ele>
        <time>2012-09-09T07:05:57Z</time>
      </trkpt>
      <trkpt lat="49.00575" lon="1.1179">
        <ele>127.51</ele>
        <time>2012-09-09T07:06:08Z</time>
      </trkpt>
      <trkpt lat="49.0059" lon="1.11805">
        <ele>127.51</ele>
        <time>2012-09-09T07:06:12Z</time>
      </trkpt>
      <trkpt lat="49.00652" lon="1.11852">
        <ele>126.07</ele>
        <time>2012-09-09T07:06:26Z</time>
      </trkpt>
      <trkpt lat="49.00667" lon="1.11885">
        <ele>127.03</ele>
        <time>2012-09-09T07:06:34Z</time>
      </trkpt>
      <trkpt lat="49.00668" lon="1.11891">
        <ele>127.03</ele>
        <time>2012-09-09T07:06:35Z</time>
      </trkpt>
      <trkpt lat="49.00687" lon="1.11938">
        <ele>127.03</ele>
        <time>2012-09-09T07:06:44Z</time>
      </trkpt>
      <trkpt lat="49.00689" lon="1.11945">
        <ele>127.03</ele>
        <time>2012-09-09T07:06:45Z</time>
      </trkpt>
      <trkpt lat="49.00691" lon="1.11958">
        <ele>127.03</ele>
        <time>2012-09-09T07:06:47Z</time>
      </trkpt>
      <trkpt lat="49.00693" lon="1.11985">
        <ele>127.03</ele>
        <time>2012-09-09T07:06:52Z</time>
      </trkpt>
      <trkpt lat="49.0066" lon="1.12031">
        <ele>126.07</ele>
        <time>2012-09-09T07:07:04Z</time>
      </trkpt>
      <trkpt lat="49.00657" lon="1.12044">
        <ele>126.07</ele>
        <time>2012-09-09T07:07:06Z</time>
      </trkpt>
      <trkpt lat="49.00651" lon="1.12063">
        <ele>125.11</ele>
        <time>2012-09-09T07:07:10Z</time>
      </trkpt>
      <trkpt lat="49.00635" lon="1.12082">
        <ele>125.11</ele>
        <time>2012-09-09T07:07:17Z</time>
      </trkpt>
      <trkpt lat="49.00627" lon="1.12099">
        <ele>125.59</ele>
        <time>2012-09-09T07:07:23Z</time>
      </trkpt>
      <trkpt lat="49.00611" lon="1.12135">
        <ele>125.11</ele>
        <time>2012-09-09T07:07:32Z</time>
      </trkpt>
      <trkpt lat="49.00603" lon="1.1215">
        <ele>125.11</ele>
        <time>2012-09-09T07:07:35Z</time>
      </trkpt>
      <trkpt lat="49.00598" lon="1.12165">
        <ele>124.63</ele>
        <time>2012-09-09T07:07:39Z</time>
      </trkpt>
      <trkpt lat="49.00574" lon="1.12174">
        <ele>124.15</ele>
        <time>2012-09-09T07:07:47Z</time>
      </trkpt>
      <trkpt lat="49.00571" lon="1.12175">
        <ele>124.15</ele>
        <time>2012-09-09T07:07:48Z</time>
      </trkpt>
      <trkpt lat="49.00565" lon="1.12182">
        <ele>124.15</ele>
        <time>2012-09-09T07:07:50Z</time>
      </trkpt>
      <trkpt lat="49.00557" lon="1.12198">
        <ele>124.15</ele>
        <time>2012-09-09T07:07:54Z</time>
      </trkpt>
      <trkpt lat="49.00553" lon="1.12228">
        <ele>123.67</ele>
        <time>2012-09-09T07:08:02Z</time>
      </trkpt>
      <trkpt lat="49.00557" lon="1.12233">
        <ele>123.19</ele>
        <time>2012-09-09T07:08:04Z</time>
      </trkpt>
      <trkpt lat="49.00568" lon="1.12249">
        <ele>124.15</ele>
        <time>2012-09-09T07:08:10Z</time>
      </trkpt>
      <trkpt lat="49.00585" lon="1.12289">
        <ele>125.11</ele>
        <time>2012-09-09T07:08:22Z</time>
      </trkpt>
      <trkpt lat="49.00601" lon="1.12337">
        <ele>126.07</ele>
        <time>2012-09-09T07:08:32Z</time>
      </trkpt>
      <trkpt lat="49.00601" lon="1.12341">
        <ele>126.07</ele>
        <time>2012-09-09T07:08:33Z</time>
      </trkpt>
      <trkpt lat="49.00611" lon="1.12384">
        <ele>125.59</ele>
        <time>2012-09-09T07:08:41Z</time>
      </trkpt>
      <trkpt lat="49.00615" lon="1.12394">
        <ele>126.07</ele>
        <time>2012-09-09T07:08:44Z</time>
      </trkpt>
      <trkpt lat="49.00609" lon="1.12404">
        <ele>127.03</ele>
        <time>2012-09-09T07:08:51Z</time>
      </trkpt>
      <trkpt lat="49.00609" lon="1.12435">
        <ele>127.03</ele>
        <time>2012-09-09T07:09:00Z</time>
      </trkpt>
      <trkpt lat="49.00608" lon="1.12467">
        <ele>127.03</ele>
        <time>2012-09-09T07:09:07Z</time>
      </trkpt>
      <trkpt lat="49.00608" lon="1.12478">
        <ele>127.03</ele>
        <time>2012-09-09T07:09:09Z</time>
      </trkpt>
      <trkpt lat="49.00604" lon="1.12489">
        <ele>127.03</ele>
        <time>2012-09-09T07:09:12Z</time>
      </trkpt>
      <trkpt lat="49.00603" lon="1.12506">
        <ele>126.07</ele>
        <time>2012-09-09T07:09:19Z</time>
      </trkpt>
      <trkpt lat="49.00607" lon="1.12519">
        <ele>126.55</ele>
        <time>2012-09-09T07:09:25Z</time>
      </trkpt>
      <trkpt lat="49.00613" lon="1.12524">
        <ele>127.51</ele>
        <time>2012-09-09T07:09:28Z</time>
      </trkpt>
      <trkpt lat="49.00617" lon="1.12556">
        <ele>127.03</ele>
        <time>2012-09-09T07:09:38Z</time>
      </trkpt>
      <trkpt lat="49.00617" lon="1.12571">
        <ele>127.03</ele>
        <time>2012-09-09T07:09:42Z</time>
      </trkpt>
      <trkpt lat="49.00615" lon="1.12584">
        <ele>127.51</ele>
        <time>2012-09-09T07:09:46Z</time>
      </trkpt>
      <trkpt lat="49.00605" lon="1.12589">
        <ele>127.03</ele>
        <time>2012-09-09T07:09:53Z</time>
      </trkpt>
      <trkpt lat="49.00604" lon="1.12602">
        <ele>127.51</ele>
        <time>2012-09-09T07:09:57Z</time>
      </trkpt>
      <trkpt lat="49.00583" lon="1.12639">
        <ele>127.51</ele>
        <time>2012-09-09T07:10:09Z</time>
      </trkpt>
      <trkpt lat="49.00568" lon="1.12672">
        <ele>125.59</ele>
        <time>2012-09-09T07:10:19Z</time>
      </trkpt>
      <trkpt lat="49.00542" lon="1.12717">
        <ele>126.07</ele>
        <time>2012-09-09T07:10:30Z</time>
      </trkpt>
      <trkpt lat="49.00544" lon="1.12739">
        <ele>126.07</ele>
        <time>2012-09-09T07:10:35Z</time>
      </trkpt>
      <trkpt lat="49.00547" lon="1.12752">
        <ele>125.59</ele>
        <time>2012-09-09T07:10:38Z</time>
      </trkpt>
      <trkpt lat="49.00558" lon="1.12777">
        <ele>126.07</ele>
        <time>2012-09-09T07:10:45Z</time>
      </trkpt>
      <trkpt lat="49.0056" lon="1.12782">
        <ele>126.07</ele>
        <time>2012-09-09T07:10:47Z</time>
      </trkpt>
      <trkpt lat="49.00568" lon="1.12821">
        <ele>125.59</ele>
        <time>2012-09-09T07:10:56Z</time>
      </trkpt>
      <trkpt lat="49.00576" lon="1.12884">
        <ele>125.59</ele>
        <time>2012-09-09T07:11:07Z</time>
      </trkpt>
      <trkpt lat="49.00578" lon="1.12898">
        <ele>126.55</ele>
        <time>2012-09-09T07:11:10Z</time>
      </trkpt>
      <trkpt lat="49.00586" lon="1.12921">
        <ele>125.59</ele>
        <time>2012-09-09T07:11:14Z</time>
      </trkpt>
      <trkpt lat="49.00591" lon="1.1294">
        <ele>125.59</ele>
        <time>2012-09-09T07:11:17Z</time>
      </trkpt>
      <trkpt lat="49.00604" lon="1.12983">
        <ele>125.59</ele>
        <time>2012-09-09T07:11:24Z</time>
      </trkpt>
      <trkpt lat="49.00611" lon="1.1302">
        <ele>125.59</ele>
        <time>2012-09-09T07:11:29Z</time>
      </trkpt>
      <trkpt lat="49.00623" lon="1.13064">
        <ele>125.59</ele>
        <time>2012-09-09T07:11:34Z</time>
      </trkpt>
      <trkpt lat="49.00622" lon="1.13096">
        <ele>126.07</ele>
        <time>2012-09-09T07:11:38Z</time>
      </trkpt>
      <trkpt lat="49.00628" lon="1.13127">
        <ele>127.03</ele>
        <time>2012-09-09T07:11:43Z</time>
      </trkpt>
      <trkpt lat="49.00635" lon="1.13158">
        <ele>126.55</ele>
        <time>2012-09-09T07:11:47Z</time>
      </trkpt>
      <trkpt lat="49.00654" lon="1.13222">
        <ele>127.51</ele>
        <time>2012-09-09T07:11:56Z</time>
      </trkpt>
      <trkpt lat="49.00655" lon="1.13229">
        <ele>127.51</ele>
        <time>2012-09-09T07:11:57Z</time>
      </trkpt>
      <trkpt lat="49.00662" lon="1.13262">
        <ele>127.03</ele>
        <time>2012-09-09T07:12:02Z</time>
      </trkpt>
      <trkpt lat="49.00676" lon="1.1332">
        <ele>127.03</ele>
        <time>2012-09-09T07:12:10Z</time>
      </trkpt>
      <trkpt lat="49.00678" lon="1.13327">
        <ele>127.03</ele>
        <time>2012-09-09T07:12:11Z</time>
      </trkpt>
      <trkpt lat="49.00683" lon="1.13376">
        <ele>127.03</ele>
        <time>2012-09-09T07:12:18Z</time>
      </trkpt>
      <trkpt lat="49.00689" lon="1.13401">
        <ele>127.03</ele>
        <time>2012-09-09T07:12:21Z</time>
      </trkpt>
      <trkpt lat="49.007" lon="1.13436">
        <ele>127.03</ele>
        <time>2012-09-09T07:12:26Z</time>
      </trkpt>
      <trkpt lat="49.00719" lon="1.13462">
        <ele>126.55</ele>
        <time>2012-09-09T07:12:30Z</time>
      </trkpt>
      <trkpt lat="49.00727" lon="1.135">
        <ele>126.07</ele>
        <time>2012-09-09T07:12:36Z</time>
      </trkpt>
      <trkpt lat="49.00732" lon="1.1352">
        <ele>126.07</ele>
        <time>2012-09-09T07:12:41Z</time>
      </trkpt>
      <trkpt lat="49.00699" lon="1.13533">
        <ele>124.15</ele>
        <time>2012-09-09T07:12:50Z</time>
      </trkpt>
      <trkpt lat="49.00681" lon="1.13545">
        <ele>124.63</ele>
        <time>2012-09-09T07:12:54Z</time>
      </trkpt>
      <trkpt lat="49.00667" lon="1.13556">
        <ele>124.15</ele>
        <time>2012-09-09T07:12:57Z</time>
      </trkpt>
      <trkpt lat="49.00622" lon="1.13582">
        <ele>121.74</ele>
        <time>2012-09-09T07:13:07Z</time>
      </trkpt>
      <trkpt lat="49.00597" lon="1.136">
        <ele>120.78</ele>
        <time>2012-09-09T07:13:12Z</time>
      </trkpt>
      <trkpt lat="49.00591" lon="1.13597">
        <ele>120.78</ele>
        <time>2012-09-09T07:13:16Z</time>
      </trkpt>
      <trkpt lat="49.00591" lon="1.13572">
        <ele>120.78</ele>
        <time>2012-09-09T07:13:20Z</time>
      </trkpt>
      <trkpt lat="49.00592" lon="1.1355">
        <ele>120.78</ele>
        <time>2012-09-09T07:13:23Z</time>
      </trkpt>
      <trkpt lat="49.00597" lon="1.13481">
        <ele>122.22</ele>
        <time>2012-09-09T07:13:34Z</time>
      </trkpt>
      <trkpt lat="49.00598" lon="1.13475">
        <ele>122.22</ele>
        <time>2012-09-09T07:13:35Z</time>
      </trkpt>
      <trkpt lat="49.00599" lon="1.13459">
        <ele>122.22</ele>
        <time>2012-09-09T07:13:38Z</time>
      </trkpt>
      <trkpt lat="49.00601" lon="1.1341">
        <ele>122.71</ele>
        <time>2012-09-09T07:13:47Z</time>
      </trkpt>
      <trkpt lat="49.00593" lon="1.13351">
        <ele>123.67</ele>
        <time>2012-09-09T07:13:56Z</time>
      </trkpt>
      <trkpt lat="49.00589" lon="1.1331">
        <ele>123.19</ele>
        <time>2012-09-09T07:14:03Z</time>
      </trkpt>
      <trkpt lat="49.00584" lon="1.13274">
        <ele>125.11</ele>
        <time>2012-09-09T07:14:12Z</time>
      </trkpt>
      <trkpt lat="49.00591" lon="1.13261">
        <ele>125.11</ele>
        <time>2012-09-09T07:14:17Z</time>
      </trkpt>
      <trkpt lat="49.006" lon="1.13252">
        <ele>124.63</ele>
        <time>2012-09-09T07:14:25Z</time>
      </trkpt>
      <trkpt lat="49.00602" lon="1.13205">
        <ele>125.59</ele>
        <time>2012-09-09T07:14:37Z</time>
      </trkpt>
      <trkpt lat="49.006" lon="1.13195">
        <ele>125.11</ele>
        <time>2012-09-09T07:14:41Z</time>
      </trkpt>
      <trkpt lat="49.00598" lon="1.1319">
        <ele>124.63</ele>
        <time>2012-09-09T07:14:44Z</time>
      </trkpt>
      <trkpt lat="49.00607" lon="1.13165">
        <ele>125.59</ele>
        <time>2012-09-09T07:14:54Z</time>
      </trkpt>
      <trkpt lat="49.00608" lon="1.13165">
        <ele>125.11</ele>
        <time>2012-09-09T07:14:56Z</time>
      </trkpt>
      <trkpt lat="49.00586" lon="1.13167">
        <ele>126.07</ele>
        <time>2012-09-09T07:15:06Z</time>
      </trkpt>
      <trkpt lat="49.0057" lon="1.1317">
        <ele>124.63</ele>
        <time>2012-09-09T07:15:12Z</time>
      </trkpt>
      <trkpt lat="49.00556" lon="1.13162">
        <ele>124.63</ele>
        <time>2012-09-09T07:15:16Z</time>
      </trkpt>
      <trkpt lat="49.00525" lon="1.13171">
        <ele>125.11</ele>
        <time>2012-09-09T07:15:24Z</time>
      </trkpt>
      <trkpt lat="49.00517" lon="1.13166">
        <ele>125.59</ele>
        <time>2012-09-09T07:15:26Z</time>
      </trkpt>
      <trkpt lat="49.00472" lon="1.13176">
        <ele>126.07</ele>
        <time>2012-09-09T07:15:36Z</time>
      </trkpt>
      <trkpt lat="49.00449" lon="1.13178">
        <ele>127.03</ele>
        <time>2012-09-09T07:15:42Z</time>
      </trkpt>
      <trkpt lat="49.00413" lon="1.1318">
        <ele>128.47</ele>
        <time>2012-09-09T07:15:51Z</time>
      </trkpt>
      <trkpt lat="49.00379" lon="1.1318">
        <ele>128.47</ele>
        <time>2012-09-09T07:16:00Z</time>
      </trkpt>
      <trkpt lat="49.00362" lon="1.13183">
        <ele>128.47</ele>
        <time>2012-09-09T07:16:05Z</time>
      </trkpt>
      <trkpt lat="49.00355" lon="1.13182">
        <ele>127.99</ele>
        <time>2012-09-09T07:16:08Z</time>
      </trkpt>
      <trkpt lat="49.00333" lon="1.13192">
        <ele>128.95</ele>
        <time>2012-09-09T07:16:17Z</time>
      </trkpt>
      <trkpt lat="49.0033" lon="1.13184">
        <ele>128.95</ele>
        <time>2012-09-09T07:16:19Z</time>
      </trkpt>
      <trkpt lat="49.00318" lon="1.13134">
        <ele>128.95</ele>
        <time>2012-09-09T07:16:29Z</time>
      </trkpt>
      <trkpt lat="49.00314" lon="1.13114">
        <ele>128.95</ele>
        <time>2012-09-09T07:16:32Z</time>
      </trkpt>
      <trkpt lat="49.00298" lon="1.13052">
        <ele>128.95</ele>
        <time>2012-09-09T07:16:43Z</time>
      </trkpt>
      <trkpt lat="49.00287" lon="1.1301">
        <ele>127.99</ele>
        <time>2012-09-09T07:16:50Z</time>
      </trkpt>
      <trkpt lat="49.00281" lon="1.12996">
        <ele>127.99</ele>
        <time>2012-09-09T07:16:52Z</time>
      </trkpt>
      <trkpt lat="49.00273" lon="1.12974">
        <ele>128.47</ele>
        <time>2012-09-09T07:16:56Z</time>
      </trkpt>
      <trkpt lat="49.00267" lon="1.12949">
        <ele>128.95</ele>
        <time>2012-09-09T07:17:00Z</time>
      </trkpt>
      <trkpt lat="49.00254" lon="1.12897">
        <ele>128.95</ele>
        <time>2012-09-09T07:17:10Z</time>
      </trkpt>
      <trkpt lat="49.00252" lon="1.1288">
        <ele>128.95</ele>
        <time>2012-09-09T07:17:13Z</time>
      </trkpt>
      <trkpt lat="49.00259" lon="1.12854">
        <ele>128.47</ele>
        <time>2012-09-09T07:17:22Z</time>
      </trkpt>
      <trkpt lat="49.0026" lon="1.12852">
        <ele>128.47</ele>
        <time>2012-09-09T07:17:34Z</time>
      </trkpt>
      <trkpt lat="49.00257" lon="1.12844">
        <ele>128.95</ele>
        <time>2012-09-09T07:19:28Z</time>
      </trkpt>
      <trkpt lat="49.00258" lon="1.12849">
        <ele>127.51</ele>
        <time>2012-09-09T07:19:43Z</time>
      </trkpt>
      <trkpt lat="49.00258" lon="1.12849">
        <ele>127.03</ele>
        <time>2012-09-09T07:19:45Z</time>
      </trkpt>
      <trkpt lat="49.00254" lon="1.12836">
        <ele>127.99</ele>
        <time>2012-09-09T07:19:50Z</time>
      </trkpt>
      <trkpt lat="49.0025" lon="1.12827">
        <ele>128.47</ele>
        <time>2012-09-09T07:19:54Z</time>
      </trkpt>
      <trkpt lat="49.00252" lon="1.12813">
        <ele>129.43</ele>
        <time>2012-09-09T07:19:59Z</time>
      </trkpt>
      <trkpt lat="49.00255" lon="1.12769">
        <ele>127.99</ele>
        <time>2012-09-09T07:20:09Z</time>
      </trkpt>
      <trkpt lat="49.00261" lon="1.12737">
        <ele>127.51</ele>
        <time>2012-09-09T07:20:16Z</time>
      </trkpt>
      <trkpt lat="49.00271" lon="1.12719">
        <ele>127.03</ele>
        <time>2012-09-09T07:20:20Z</time>
      </trkpt>
      <trkpt lat="49.003" lon="1.12658">
        <ele>126.07</ele>
        <time>2012-09-09T07:20:32Z</time>
      </trkpt>
      <trkpt lat="49.00306" lon="1.12653">
        <ele>126.55</ele>
        <time>2012-09-09T07:20:34Z</time>
      </trkpt>
      <trkpt lat="49.00314" lon="1.1265">
        <ele>126.07</ele>
        <time>2012-09-09T07:20:36Z</time>
      </trkpt>
      <trkpt lat="49.00348" lon="1.12641">
        <ele>126.07</ele>
        <time>2012-09-09T07:20:44Z</time>
      </trkpt>
      <trkpt lat="49.0036" lon="1.1264">
        <ele>127.03</ele>
        <time>2012-09-09T07:20:47Z</time>
      </trkpt>
      <trkpt lat="49.00396" lon="1.12644">
        <ele>124.63</ele>
        <time>2012-09-09T07:20:56Z</time>
      </trkpt>
      <trkpt lat="49.0041" lon="1.12613">
        <ele>125.59</ele>
        <time>2012-09-09T07:21:02Z</time>
      </trkpt>
      <trkpt lat="49.00425" lon="1.12529">
        <ele>127.03</ele>
        <time>2012-09-09T07:21:15Z</time>
      </trkpt>
      <trkpt lat="49.00429" lon="1.12499">
        <ele>127.03</ele>
        <time>2012-09-09T07:21:18Z</time>
      </trkpt>
      <trkpt lat="49.00434" lon="1.1246">
        <ele>127.03</ele>
        <time>2012-09-09T07:21:23Z</time>
      </trkpt>
      <trkpt lat="49.0044" lon="1.12405">
        <ele>125.59</ele>
        <time>2012-09-09T07:21:29Z</time>
      </trkpt>
      <trkpt lat="49.00446" lon="1.12357">
        <ele>125.11</ele>
        <time>2012-09-09T07:21:34Z</time>
      </trkpt>
      <trkpt lat="49.00455" lon="1.12266">
        <ele>121.26</ele>
        <time>2012-09-09T07:21:43Z</time>
      </trkpt>
      <trkpt lat="49.00461" lon="1.12213">
        <ele>121.74</ele>
        <time>2012-09-09T07:21:49Z</time>
      </trkpt>
      <trkpt lat="49.00465" lon="1.12154">
        <ele>123.19</ele>
        <time>2012-09-09T07:21:56Z</time>
      </trkpt>
      <trkpt lat="49.00471" lon="1.12112">
        <ele>124.63</ele>
        <time>2012-09-09T07:22:01Z</time>
      </trkpt>
      <trkpt lat="49.00474" lon="1.1207">
        <ele>124.63</ele>
        <time>2012-09-09T07:22:06Z</time>
      </trkpt>
      <trkpt lat="49.00477" lon="1.12055">
        <ele>124.15</ele>
        <time>2012-09-09T07:22:08Z</time>
      </trkpt>
      <trkpt lat="49.00469" lon="1.12037">
        <ele>124.15</ele>
        <time>2012-09-09T07:22:15Z</time>
      </trkpt>
      <trkpt lat="49.00436" lon="1.12052">
        <ele>123.67</ele>
        <time>2012-09-09T07:22:23Z</time>
      </trkpt>
      <trkpt lat="49.00433" lon="1.12055">
        <ele>123.67</ele>
        <time>2012-09-09T07:22:24Z</time>
      </trkpt>
      <trkpt lat="49.00421" lon="1.12061">
        <ele>122.71</ele>
        <time>2012-09-09T07:22:27Z</time>
      </trkpt>
      <trkpt lat="49.00404" lon="1.12068">
        <ele>121.74</ele>
        <time>2012-09-09T07:22:32Z</time>
      </trkpt>
      <trkpt lat="49.00382" lon="1.12073">
        <ele>119.82</ele>
        <time>2012-09-09T07:22:38Z</time>
      </trkpt>
      <trkpt lat="49.00369" lon="1.12076">
        <ele>118.38</ele>
        <time>2012-09-09T07:22:43Z</time>
      </trkpt>
      <trkpt lat="49.00343" lon="1.12086">
        <ele>116.46</ele>
        <time>2012-09-09T07:22:51Z</time>
      </trkpt>
      <trkpt lat="49.00327" lon="1.1209">
        <ele>114.53</ele>
        <time>2012-09-09T07:22:56Z</time>
      </trkpt>
      <trkpt lat="49.00321" lon="1.1209">
        <ele>114.05</ele>
        <time>2012-09-09T07:22:59Z</time>
      </trkpt>
      <trkpt lat="49.00305" lon="1.121">
        <ele>113.09</ele>
        <time>2012-09-09T07:23:08Z</time>
      </trkpt>
      <trkpt lat="49.00294" lon="1.12133">
        <ele>111.17</ele>
        <time>2012-09-09T07:23:17Z</time>
      </trkpt>
      <trkpt lat="49.00278" lon="1.12145">
        <ele>107.32</ele>
        <time>2012-09-09T07:23:25Z</time>
      </trkpt>
      <trkpt lat="49.00274" lon="1.12144">
        <ele>106.36</ele>
        <time>2012-09-09T07:23:27Z</time>
      </trkpt>
      <trkpt lat="49.00269" lon="1.12139">
        <ele>104.92</ele>
        <time>2012-09-09T07:23:30Z</time>
      </trkpt>
      <trkpt lat="49.00258" lon="1.12128">
        <ele>102.04</ele>
        <time>2012-09-09T07:23:35Z</time>
      </trkpt>
      <trkpt lat="49.00251" lon="1.12122">
        <ele>100.6</ele>
        <time>2012-09-09T07:23:38Z</time>
      </trkpt>
      <trkpt lat="49.00244" lon="1.12107">
        <ele>97.71</ele>
        <time>2012-09-09T07:23:43Z</time>
      </trkpt>
      <trkpt lat="49.00243" lon="1.12099">
        <ele>97.71</ele>
        <time>2012-09-09T07:23:52Z</time>
      </trkpt>
      <trkpt lat="49.00223" lon="1.12092">
        <ele>96.27</ele>
        <time>2012-09-09T07:23:59Z</time>
      </trkpt>
      <trkpt lat="49.002" lon="1.12055">
        <ele>94.35</ele>
        <time>2012-09-09T07:24:10Z</time>
      </trkpt>
      <trkpt lat="49.00196" lon="1.12048">
        <ele>94.83</ele>
        <time>2012-09-09T07:24:14Z</time>
      </trkpt>
      <trkpt lat="49.00192" lon="1.1203">
        <ele>94.35</ele>
        <time>2012-09-09T07:24:22Z</time>
      </trkpt>
      <trkpt lat="49.00202" lon="1.12001">
        <ele>96.75</ele>
        <time>2012-09-09T07:24:35Z</time>
      </trkpt>
      <trkpt lat="49.00202" lon="1.11994">
        <ele>98.19</ele>
        <time>2012-09-09T07:24:38Z</time>
      </trkpt>
      <trkpt lat="49.002" lon="1.11987">
        <ele>99.63</ele>
        <time>2012-09-09T07:24:41Z</time>
      </trkpt>
      <trkpt lat="49.002" lon="1.11981">
        <ele>100.6</ele>
        <time>2012-09-09T07:24:43Z</time>
      </trkpt>
      <trkpt lat="49.00196" lon="1.11973">
        <ele>102.04</ele>
        <time>2012-09-09T07:24:48Z</time>
      </trkpt>
      <trkpt lat="49.00195" lon="1.11952">
        <ele>104.44</ele>
        <time>2012-09-09T07:24:56Z</time>
      </trkpt>
      <trkpt lat="49.00196" lon="1.11933">
        <ele>106.36</ele>
        <time>2012-09-09T07:25:05Z</time>
      </trkpt>
      <trkpt lat="49.00195" lon="1.11927">
        <ele>106.84</ele>
        <time>2012-09-09T07:25:07Z</time>
      </trkpt>
      <trkpt lat="49.00185" lon="1.11892">
        <ele>109.25</ele>
        <time>2012-09-09T07:25:18Z</time>
      </trkpt>
      <trkpt lat="49.00183" lon="1.11881">
        <ele>109.73</ele>
        <time>2012-09-09T07:25:21Z</time>
      </trkpt>
      <trkpt lat="49.00183" lon="1.11854">
        <ele>111.17</ele>
        <time>2012-09-09T07:25:26Z</time>
      </trkpt>
      <trkpt lat="49.00182" lon="1.11828">
        <ele>111.65</ele>
        <time>2012-09-09T07:25:32Z</time>
      </trkpt>
      <trkpt lat="49.00181" lon="1.1178">
        <ele>112.13</ele>
        <time>2012-09-09T07:25:42Z</time>
      </trkpt>
      <trkpt lat="49.00176" lon="1.11754">
        <ele>114.05</ele>
        <time>2012-09-09T07:25:48Z</time>
      </trkpt>
      <trkpt lat="49.00169" lon="1.11717">
        <ele>115.98</ele>
        <time>2012-09-09T07:25:58Z</time>
      </trkpt>
      <trkpt lat="49.00154" lon="1.11662">
        <ele>117.9</ele>
        <time>2012-09-09T07:26:12Z</time>
      </trkpt>
      <trkpt lat="49.00146" lon="1.11634">
        <ele>119.34</ele>
        <time>2012-09-09T07:26:21Z</time>
      </trkpt>
      <trkpt lat="49.00141" lon="1.11609">
        <ele>119.34</ele>
        <time>2012-09-09T07:26:26Z</time>
      </trkpt>
      <trkpt lat="49.0013" lon="1.11544">
        <ele>120.3</ele>
        <time>2012-09-09T07:26:38Z</time>
      </trkpt>
      <trkpt lat="49.00125" lon="1.11519">
        <ele>119.34</ele>
        <time>2012-09-09T07:26:42Z</time>
      </trkpt>
      <trkpt lat="49.00117" lon="1.11478">
        <ele>119.34</ele>
        <time>2012-09-09T07:26:49Z</time>
      </trkpt>
      <trkpt lat="49.00123" lon="1.11462">
        <ele>119.82</ele>
        <time>2012-09-09T07:26:53Z</time>
      </trkpt>
      <trkpt lat="49.00149" lon="1.11453">
        <ele>118.86</ele>
        <time>2012-09-09T07:26:59Z</time>
      </trkpt>
      <trkpt lat="49.00164" lon="1.11444">
        <ele>117.9</ele>
        <time>2012-09-09T07:27:02Z</time>
      </trkpt>
      <trkpt lat="49.00186" lon="1.11436">
        <ele>115.98</ele>
        <time>2012-09-09T07:27:05Z</time>
      </trkpt>
      <trkpt lat="49.00209" lon="1.11426">
        <ele>114.05</ele>
        <time>2012-09-09T07:27:08Z</time>
      </trkpt>
      <trkpt lat="49.00234" lon="1.11413">
        <ele>112.13</ele>
        <time>2012-09-09T07:27:12Z</time>
      </trkpt>
      <trkpt lat="49.00246" lon="1.11407">
        <ele>111.17</ele>
        <time>2012-09-09T07:27:14Z</time>
      </trkpt>
      <trkpt lat="49.00264" lon="1.11396">
        <ele>109.25</ele>
        <time>2012-09-09T07:27:17Z</time>
      </trkpt>
      <trkpt lat="49.00286" lon="1.11385">
        <ele>105.4</ele>
        <time>2012-09-09T07:27:21Z</time>
      </trkpt>
      <trkpt lat="49.00302" lon="1.11377">
        <ele>103.48</ele>
        <time>2012-09-09T07:27:24Z</time>
      </trkpt>
      <trkpt lat="49.00328" lon="1.11365">
        <ele>99.63</ele>
        <time>2012-09-09T07:27:28Z</time>
      </trkpt>
      <trkpt lat="49.00334" lon="1.11362">
        <ele>98.19</ele>
        <time>2012-09-09T07:27:29Z</time>
      </trkpt>
      <trkpt lat="49.00352" lon="1.11352">
        <ele>92.9</ele>
        <time>2012-09-09T07:27:32Z</time>
      </trkpt>
      <trkpt lat="49.00364" lon="1.11347">
        <ele>90.5</ele>
        <time>2012-09-09T07:27:35Z</time>
      </trkpt>
      <trkpt lat="49.00369" lon="1.11344">
        <ele>88.58</ele>
        <time>2012-09-09T07:27:37Z</time>
      </trkpt>
      <trkpt lat="49.0037" lon="1.11326">
        <ele>86.18</ele>
        <time>2012-09-09T07:27:42Z</time>
      </trkpt>
      <trkpt lat="49.00331" lon="1.11303">
        <ele>88.1</ele>
        <time>2012-09-09T07:27:55Z</time>
      </trkpt>
      <trkpt lat="49.0031" lon="1.11303">
        <ele>89.54</ele>
        <time>2012-09-09T07:28:05Z</time>
      </trkpt>
      <trkpt lat="49.00275" lon="1.11284">
        <ele>90.98</ele>
        <time>2012-09-09T07:28:17Z</time>
      </trkpt>
      <trkpt lat="49.00238" lon="1.11272">
        <ele>90.98</ele>
        <time>2012-09-09T07:28:29Z</time>
      </trkpt>
      <trkpt lat="49.00217" lon="1.11264">
        <ele>90.5</ele>
        <time>2012-09-09T07:28:35Z</time>
      </trkpt>
      <trkpt lat="49.00207" lon="1.1126">
        <ele>90.98</ele>
        <time>2012-09-09T07:28:37Z</time>
      </trkpt>
      <trkpt lat="49.00189" lon="1.11249">
        <ele>91.46</ele>
        <time>2012-09-09T07:28:41Z</time>
      </trkpt>
      <trkpt lat="49.00162" lon="1.1123">
        <ele>93.87</ele>
        <time>2012-09-09T07:28:52Z</time>
      </trkpt>
      <trkpt lat="49.00135" lon="1.1121">
        <ele>96.27</ele>
        <time>2012-09-09T07:29:03Z</time>
      </trkpt>
      <trkpt lat="49.00131" lon="1.11208">
        <ele>97.23</ele>
        <time>2012-09-09T07:29:05Z</time>
      </trkpt>
      <trkpt lat="49.00115" lon="1.11202">
        <ele>98.67</ele>
        <time>2012-09-09T07:29:13Z</time>
      </trkpt>
      <trkpt lat="49.00087" lon="1.11201">
        <ele>101.08</ele>
        <time>2012-09-09T07:29:24Z</time>
      </trkpt>
      <trkpt lat="49.00057" lon="1.11189">
        <ele>101.08</ele>
        <time>2012-09-09T07:29:33Z</time>
      </trkpt>
      <trkpt lat="49.00034" lon="1.11177">
        <ele>101.56</ele>
        <time>2012-09-09T07:29:41Z</time>
      </trkpt>
      <trkpt lat="49.00028" lon="1.11174">
        <ele>102.04</ele>
        <time>2012-09-09T07:29:43Z</time>
      </trkpt>
      <trkpt lat="49.00018" lon="1.11156">
        <ele>102.52</ele>
        <time>2012-09-09T07:29:50Z</time>
      </trkpt>
      <trkpt lat="48.99988" lon="1.11165">
        <ele>104.92</ele>
        <time>2012-09-09T07:30:03Z</time>
      </trkpt>
      <trkpt lat="48.99985" lon="1.11169">
        <ele>104.92</ele>
        <time>2012-09-09T07:30:05Z</time>
      </trkpt>
      <trkpt lat="48.99979" lon="1.1118">
        <ele>107.32</ele>
        <time>2012-09-09T07:30:11Z</time>
      </trkpt>
      <trkpt lat="48.99976" lon="1.11187">
        <ele>108.29</ele>
        <time>2012-09-09T07:30:16Z</time>
      </trkpt>
      <trkpt lat="48.99969" lon="1.11209">
        <ele>111.17</ele>
        <time>2012-09-09T07:30:27Z</time>
      </trkpt>
      <trkpt lat="48.99968" lon="1.11211">
        <ele>111.65</ele>
        <time>2012-09-09T07:30:28Z</time>
      </trkpt>
      <trkpt lat="48.99962" lon="1.11224">
        <ele>112.61</ele>
        <time>2012-09-09T07:30:35Z</time>
      </trkpt>
      <trkpt lat="48.9996" lon="1.11228">
        <ele>113.09</ele>
        <time>2012-09-09T07:30:37Z</time>
      </trkpt>
      <trkpt lat="48.99955" lon="1.11239">
        <ele>115.01</ele>
        <time>2012-09-09T07:30:42Z</time>
      </trkpt>
      <trkpt lat="48.9996" lon="1.11258">
        <ele>115.01</ele>
        <time>2012-09-09T07:30:48Z</time>
      </trkpt>
      <trkpt lat="48.99963" lon="1.11271">
        <ele>115.01</ele>
        <time>2012-09-09T07:30:52Z</time>
      </trkpt>
      <trkpt lat="48.99965" lon="1.1128">
        <ele>115.5</ele>
        <time>2012-09-09T07:30:56Z</time>
      </trkpt>
      <trkpt lat="48.99969" lon="1.11293">
        <ele>116.94</ele>
        <time>2012-09-09T07:31:02Z</time>
      </trkpt>
      <trkpt lat="48.99975" lon="1.11322">
        <ele>119.82</ele>
        <time>2012-09-09T07:31:14Z</time>
      </trkpt>
      <trkpt lat="48.99979" lon="1.11346">
        <ele>121.74</ele>
        <time>2012-09-09T07:31:24Z</time>
      </trkpt>
      <trkpt lat="48.99986" lon="1.11376">
        <ele>122.71</ele>
        <time>2012-09-09T07:31:35Z</time>
      </trkpt>
      <trkpt lat="48.99994" lon="1.11423">
        <ele>124.15</ele>
        <time>2012-09-09T07:31:46Z</time>
      </trkpt>
      <trkpt lat="49.00004" lon="1.11476">
        <ele>124.63</ele>
        <time>2012-09-09T07:31:57Z</time>
      </trkpt>
      <trkpt lat="49.00009" lon="1.11499">
        <ele>125.11</ele>
        <time>2012-09-09T07:32:02Z</time>
      </trkpt>
      <trkpt lat="49.00005" lon="1.11509">
        <ele>125.59</ele>
        <time>2012-09-09T07:32:07Z</time>
      </trkpt>
      <trkpt lat="48.99976" lon="1.11528">
        <ele>125.59</ele>
        <time>2012-09-09T07:32:19Z</time>
      </trkpt>
      <trkpt lat="48.99962" lon="1.1154">
        <ele>125.59</ele>
        <time>2012-09-09T07:32:26Z</time>
      </trkpt>
      <trkpt lat="48.99956" lon="1.11537">
        <ele>125.59</ele>
        <time>2012-09-09T07:32:29Z</time>
      </trkpt>
      <trkpt lat="48.99932" lon="1.1155">
        <ele>124.63</ele>
        <time>2012-09-09T07:32:36Z</time>
      </trkpt>
      <trkpt lat="48.99921" lon="1.11556">
        <ele>125.11</ele>
        <time>2012-09-09T07:32:39Z</time>
      </trkpt>
      <trkpt lat="48.99911" lon="1.11532">
        <ele>125.11</ele>
        <time>2012-09-09T07:32:45Z</time>
      </trkpt>
      <trkpt lat="48.99897" lon="1.11486">
        <ele>125.59</ele>
        <time>2012-09-09T07:32:54Z</time>
      </trkpt>
      <trkpt lat="48.9988" lon="1.11418">
        <ele>124.63</ele>
        <time>2012-09-09T07:33:04Z</time>
      </trkpt>
      <trkpt lat="48.99876" lon="1.11403">
        <ele>124.63</ele>
        <time>2012-09-09T07:33:06Z</time>
      </trkpt>
      <trkpt lat="48.99873" lon="1.11389">
        <ele>124.15</ele>
        <time>2012-09-09T07:33:08Z</time>
      </trkpt>
      <trkpt lat="48.99858" lon="1.11361">
        <ele>123.19</ele>
        <time>2012-09-09T07:33:15Z</time>
      </trkpt>
      <trkpt lat="48.99849" lon="1.11366">
        <ele>122.71</ele>
        <time>2012-09-09T07:33:18Z</time>
      </trkpt>
      <trkpt lat="48.99836" lon="1.11379">
        <ele>123.19</ele>
        <time>2012-09-09T07:33:22Z</time>
      </trkpt>
      <trkpt lat="48.99808" lon="1.11431">
        <ele>124.15</ele>
        <time>2012-09-09T07:33:32Z</time>
      </trkpt>
      <trkpt lat="48.99796" lon="1.11452">
        <ele>124.63</ele>
        <time>2012-09-09T07:33:36Z</time>
      </trkpt>
      <trkpt lat="48.9979" lon="1.11498">
        <ele>123.67</ele>
        <time>2012-09-09T07:33:43Z</time>
      </trkpt>
      <trkpt lat="48.99792" lon="1.1151">
        <ele>123.67</ele>
        <time>2012-09-09T07:33:45Z</time>
      </trkpt>
      <trkpt lat="48.99789" lon="1.11584">
        <ele>124.15</ele>
        <time>2012-09-09T07:33:56Z</time>
      </trkpt>
      <trkpt lat="48.99789" lon="1.11593">
        <ele>124.63</ele>
        <time>2012-09-09T07:33:58Z</time>
      </trkpt>
      <trkpt lat="48.99754" lon="1.11623">
        <ele>123.19</ele>
        <time>2012-09-09T07:34:08Z</time>
      </trkpt>
      <trkpt lat="48.99746" lon="1.11627">
        <ele>122.71</ele>
        <time>2012-09-09T07:34:10Z</time>
      </trkpt>
      <trkpt lat="48.99736" lon="1.1162">
        <ele>121.26</ele>
        <time>2012-09-09T07:34:14Z</time>
      </trkpt>
      <trkpt lat="48.99732" lon="1.11587">
        <ele>121.26</ele>
        <time>2012-09-09T07:34:19Z</time>
      </trkpt>
      <trkpt lat="48.99724" lon="1.11558">
        <ele>121.74</ele>
        <time>2012-09-09T07:34:24Z</time>
      </trkpt>
      <trkpt lat="48.99719" lon="1.11537">
        <ele>122.22</ele>
        <time>2012-09-09T07:34:27Z</time>
      </trkpt>
      <trkpt lat="48.99714" lon="1.11498">
        <ele>122.71</ele>
        <time>2012-09-09T07:34:33Z</time>
      </trkpt>
      <trkpt lat="48.99706" lon="1.11435">
        <ele>124.63</ele>
        <time>2012-09-09T07:34:45Z</time>
      </trkpt>
      <trkpt lat="48.99698" lon="1.11414">
        <ele>124.63</ele>
        <time>2012-09-09T07:34:49Z</time>
      </trkpt>
      <trkpt lat="48.99694" lon="1.11374">
        <ele>127.03</ele>
        <time>2012-09-09T07:34:56Z</time>
      </trkpt>
      <trkpt lat="48.99683" lon="1.11368">
        <ele>127.03</ele>
        <time>2012-09-09T07:35:00Z</time>
      </trkpt>
      <trkpt lat="48.99667" lon="1.11392">
        <ele>126.07</ele>
        <time>2012-09-09T07:35:05Z</time>
      </trkpt>
      <trkpt lat="48.99637" lon="1.11432">
        <ele>125.11</ele>
        <time>2012-09-09T07:35:13Z</time>
      </trkpt>
      <trkpt lat="48.99609" lon="1.11468">
        <ele>125.11</ele>
        <time>2012-09-09T07:35:21Z</time>
      </trkpt>
      <trkpt lat="48.99592" lon="1.11489">
        <ele>124.63</ele>
        <time>2012-09-09T07:35:26Z</time>
      </trkpt>
      <trkpt lat="48.99572" lon="1.11475">
        <ele>125.59</ele>
        <time>2012-09-09T07:35:36Z</time>
      </trkpt>
      <trkpt lat="48.99539" lon="1.11442">
        <ele>123.19</ele>
        <time>2012-09-09T07:35:48Z</time>
      </trkpt>
      <trkpt lat="48.99532" lon="1.11435">
        <ele>122.71</ele>
        <time>2012-09-09T07:35:50Z</time>
      </trkpt>
      <trkpt lat="48.99513" lon="1.1143">
        <ele>117.9</ele>
        <time>2012-09-09T07:35:55Z</time>
      </trkpt>
      <trkpt lat="48.99506" lon="1.11427">
        <ele>116.94</ele>
        <time>2012-09-09T07:35:57Z</time>
      </trkpt>
      <trkpt lat="48.99495" lon="1.11421">
        <ele>114.05</ele>
        <time>2012-09-09T07:36:00Z</time>
      </trkpt>
      <trkpt lat="48.99476" lon="1.11418">
        <ele>109.25</ele>
        <time>2012-09-09T07:36:05Z</time>
      </trkpt>
      <trkpt lat="48.99467" lon="1.11415">
        <ele>108.29</ele>
        <time>2012-09-09T07:36:07Z</time>
      </trkpt>
      <trkpt lat="48.99454" lon="1.11411">
        <ele>104.92</ele>
        <time>2012-09-09T07:36:10Z</time>
      </trkpt>
      <trkpt lat="48.99439" lon="1.11404">
        <ele>101.56</ele>
        <time>2012-09-09T07:36:13Z</time>
      </trkpt>
      <trkpt lat="48.99426" lon="1.11401">
        <ele>98.19</ele>
        <time>2012-09-09T07:36:16Z</time>
      </trkpt>
      <trkpt lat="48.99423" lon="1.114">
        <ele>98.19</ele>
        <time>2012-09-09T07:36:17Z</time>
      </trkpt>
      <trkpt lat="48.99411" lon="1.11396">
        <ele>95.31</ele>
        <time>2012-09-09T07:36:21Z</time>
      </trkpt>
      <trkpt lat="48.99397" lon="1.11391">
        <ele>91.94</ele>
        <time>2012-09-09T07:36:25Z</time>
      </trkpt>
      <trkpt lat="48.99394" lon="1.1139">
        <ele>91.94</ele>
        <time>2012-09-09T07:36:26Z</time>
      </trkpt>
      <trkpt lat="48.99388" lon="1.11387">
        <ele>90.5</ele>
        <time>2012-09-09T07:36:29Z</time>
      </trkpt>
      <trkpt lat="48.99373" lon="1.11379">
        <ele>87.62</ele>
        <time>2012-09-09T07:36:35Z</time>
      </trkpt>
      <trkpt lat="48.99369" lon="1.11379">
        <ele>85.69</ele>
        <time>2012-09-09T07:36:37Z</time>
      </trkpt>
      <trkpt lat="48.99359" lon="1.11391">
        <ele>84.25</ele>
        <time>2012-09-09T07:36:41Z</time>
      </trkpt>
      <trkpt lat="48.99342" lon="1.11387">
        <ele>82.33</ele>
        <time>2012-09-09T07:36:51Z</time>
      </trkpt>
      <trkpt lat="48.99336" lon="1.11373">
        <ele>80.89</ele>
        <time>2012-09-09T07:37:03Z</time>
      </trkpt>
      <trkpt lat="48.99316" lon="1.113">
        <ele>80.89</ele>
        <time>2012-09-09T07:37:18Z</time>
      </trkpt>
      <trkpt lat="48.99311" lon="1.11286">
        <ele>82.81</ele>
        <time>2012-09-09T07:37:24Z</time>
      </trkpt>
      <trkpt lat="48.99302" lon="1.11251">
        <ele>86.66</ele>
        <time>2012-09-09T07:37:38Z</time>
      </trkpt>
      <trkpt lat="48.993" lon="1.11246">
        <ele>87.62</ele>
        <time>2012-09-09T07:37:40Z</time>
      </trkpt>
      <trkpt lat="48.99298" lon="1.11239">
        <ele>89.06</ele>
        <time>2012-09-09T07:37:43Z</time>
      </trkpt>
      <trkpt lat="48.99289" lon="1.11214">
        <ele>91.94</ele>
        <time>2012-09-09T07:37:54Z</time>
      </trkpt>
      <trkpt lat="48.99273" lon="1.11176">
        <ele>95.31</ele>
        <time>2012-09-09T07:38:10Z</time>
      </trkpt>
      <trkpt lat="48.99259" lon="1.11139">
        <ele>98.19</ele>
        <time>2012-09-09T07:38:25Z</time>
      </trkpt>
      <trkpt lat="48.9923" lon="1.11064">
        <ele>101.56</ele>
        <time>2012-09-09T07:38:51Z</time>
      </trkpt>
      <trkpt lat="48.99209" lon="1.11006">
        <ele>104.44</ele>
        <time>2012-09-09T07:39:11Z</time>
      </trkpt>
      <trkpt lat="48.99188" lon="1.10953">
        <ele>107.81</ele>
        <time>2012-09-09T07:39:30Z</time>
      </trkpt>
      <trkpt lat="48.99164" lon="1.1089">
        <ele>109.73</ele>
        <time>2012-09-09T07:39:52Z</time>
      </trkpt>
      <trkpt lat="48.99139" lon="1.10829">
        <ele>113.09</ele>
        <time>2012-09-09T07:40:14Z</time>
      </trkpt>
      <trkpt lat="48.99138" lon="1.10824">
        <ele>113.09</ele>
        <time>2012-09-09T07:40:16Z</time>
      </trkpt>
      <trkpt lat="48.99128" lon="1.10824">
        <ele>113.57</ele>
        <time>2012-09-09T07:40:21Z</time>
      </trkpt>
      <trkpt lat="48.9907" lon="1.10882">
        <ele>116.46</ele>
        <time>2012-09-09T07:40:41Z</time>
      </trkpt>
      <trkpt lat="48.99012" lon="1.10927">
        <ele>118.38</ele>
        <time>2012-09-09T07:41:02Z</time>
      </trkpt>
      <trkpt lat="48.98951" lon="1.10962">
        <ele>119.82</ele>
        <time>2012-09-09T07:41:22Z</time>
      </trkpt>
      <trkpt lat="48.98928" lon="1.10974">
        <ele>123.19</ele>
        <time>2012-09-09T07:41:31Z</time>
      </trkpt>
      <trkpt lat="48.98893" lon="1.10977">
        <ele>126.55</ele>
        <time>2012-09-09T07:41:44Z</time>
      </trkpt>
      <trkpt lat="48.98846" lon="1.10983">
        <ele>128.95</ele>
        <time>2012-09-09T07:42:01Z</time>
      </trkpt>
      <trkpt lat="48.98778" lon="1.10997">
        <ele>131.36</ele>
        <time>2012-09-09T07:42:23Z</time>
      </trkpt>
      <trkpt lat="48.98698" lon="1.11015">
        <ele>134.72</ele>
        <time>2012-09-09T07:42:46Z</time>
      </trkpt>
      <trkpt lat="48.98644" lon="1.11048">
        <ele>135.68</ele>
        <time>2012-09-09T07:43:04Z</time>
      </trkpt>
      <trkpt lat="48.98579" lon="1.11112">
        <ele>137.61</ele>
        <time>2012-09-09T07:43:26Z</time>
      </trkpt>
      <trkpt lat="48.98516" lon="1.11175">
        <ele>140.49</ele>
        <time>2012-09-09T07:43:51Z</time>
      </trkpt>
      <trkpt lat="48.98456" lon="1.11236">
        <ele>141.93</ele>
        <time>2012-09-09T07:44:15Z</time>
      </trkpt>
      <trkpt lat="48.98423" lon="1.1127">
        <ele>142.89</ele>
        <time>2012-09-09T07:44:29Z</time>
      </trkpt>
      <trkpt lat="48.9839" lon="1.11302">
        <ele>143.85</ele>
        <time>2012-09-09T07:44:42Z</time>
      </trkpt>
      <trkpt lat="48.98364" lon="1.11329">
        <ele>143.37</ele>
        <time>2012-09-09T07:44:53Z</time>
      </trkpt>
      <trkpt lat="48.98351" lon="1.11348">
        <ele>143.37</ele>
        <time>2012-09-09T07:45:00Z</time>
      </trkpt>
      <trkpt lat="48.98322" lon="1.11369">
        <ele>143.85</ele>
        <time>2012-09-09T07:45:11Z</time>
      </trkpt>
      <trkpt lat="48.98278" lon="1.11413">
        <ele>144.34</ele>
        <time>2012-09-09T07:45:25Z</time>
      </trkpt>
      <trkpt lat="48.98275" lon="1.11415">
        <ele>143.85</ele>
        <time>2012-09-09T07:45:27Z</time>
      </trkpt>
      <trkpt lat="48.98273" lon="1.11408">
        <ele>143.37</ele>
        <time>2012-09-09T07:45:31Z</time>
      </trkpt>
      <trkpt lat="48.98279" lon="1.11366">
        <ele>143.37</ele>
        <time>2012-09-09T07:45:41Z</time>
      </trkpt>
      <trkpt lat="48.98265" lon="1.1135">
        <ele>143.37</ele>
        <time>2012-09-09T07:45:49Z</time>
      </trkpt>
      <trkpt lat="48.98225" lon="1.11329">
        <ele>143.85</ele>
        <time>2012-09-09T07:46:03Z</time>
      </trkpt>
      <trkpt lat="48.98193" lon="1.11288">
        <ele>143.37</ele>
        <time>2012-09-09T07:46:14Z</time>
      </trkpt>
      <trkpt lat="48.98155" lon="1.11259">
        <ele>143.85</ele>
        <time>2012-09-09T07:46:24Z</time>
      </trkpt>
      <trkpt lat="48.98136" lon="1.11249">
        <ele>142.89</ele>
        <time>2012-09-09T07:46:29Z</time>
      </trkpt>
      <trkpt lat="48.981" lon="1.11206">
        <ele>142.41</ele>
        <time>2012-09-09T07:46:38Z</time>
      </trkpt>
      <trkpt lat="48.98055" lon="1.11156">
        <ele>141.45</ele>
        <time>2012-09-09T07:46:48Z</time>
      </trkpt>
      <trkpt lat="48.98051" lon="1.11151">
        <ele>141.45</ele>
        <time>2012-09-09T07:46:49Z</time>
      </trkpt>
      <trkpt lat="48.98039" lon="1.11122">
        <ele>140.01</ele>
        <time>2012-09-09T07:46:54Z</time>
      </trkpt>
      <trkpt lat="48.98023" lon="1.11096">
        <ele>140.01</ele>
        <time>2012-09-09T07:46:58Z</time>
      </trkpt>
      <trkpt lat="48.98016" lon="1.11082">
        <ele>139.53</ele>
        <time>2012-09-09T07:47:00Z</time>
      </trkpt>
      <trkpt lat="48.98006" lon="1.11068">
        <ele>137.61</ele>
        <time>2012-09-09T07:47:03Z</time>
      </trkpt>
      <trkpt lat="48.97991" lon="1.11056">
        <ele>137.13</ele>
        <time>2012-09-09T07:47:07Z</time>
      </trkpt>
      <trkpt lat="48.97975" lon="1.11039">
        <ele>137.61</ele>
        <time>2012-09-09T07:47:11Z</time>
      </trkpt>
      <trkpt lat="48.97958" lon="1.11011">
        <ele>137.61</ele>
        <time>2012-09-09T07:47:21Z</time>
      </trkpt>
      <trkpt lat="48.97955" lon="1.11009">
        <ele>137.61</ele>
        <time>2012-09-09T07:47:22Z</time>
      </trkpt>
      <trkpt lat="48.97945" lon="1.11009">
        <ele>136.64</ele>
        <time>2012-09-09T07:47:24Z</time>
      </trkpt>
      <trkpt lat="48.97929" lon="1.11014">
        <ele>136.16</ele>
        <time>2012-09-09T07:47:27Z</time>
      </trkpt>
      <trkpt lat="48.97838" lon="1.11021">
        <ele>136.16</ele>
        <time>2012-09-09T07:47:43Z</time>
      </trkpt>
      <trkpt lat="48.97832" lon="1.11021">
        <ele>136.16</ele>
        <time>2012-09-09T07:47:44Z</time>
      </trkpt>
      <trkpt lat="48.97805" lon="1.11027">
        <ele>134.72</ele>
        <time>2012-09-09T07:47:49Z</time>
      </trkpt>
      <trkpt lat="48.97728" lon="1.11026">
        <ele>133.76</ele>
        <time>2012-09-09T07:48:02Z</time>
      </trkpt>
      <trkpt lat="48.97717" lon="1.11023">
        <ele>132.8</ele>
        <time>2012-09-09T07:48:04Z</time>
      </trkpt>
      <trkpt lat="48.97705" lon="1.1102">
        <ele>131.84</ele>
        <time>2012-09-09T07:48:06Z</time>
      </trkpt>
      <trkpt lat="48.97699" lon="1.11018">
        <ele>131.36</ele>
        <time>2012-09-09T07:48:07Z</time>
      </trkpt>
      <trkpt lat="48.97667" lon="1.11029">
        <ele>131.36</ele>
        <time>2012-09-09T07:48:14Z</time>
      </trkpt>
      <trkpt lat="48.97645" lon="1.11058">
        <ele>131.36</ele>
        <time>2012-09-09T07:48:22Z</time>
      </trkpt>
      <trkpt lat="48.97635" lon="1.11053">
        <ele>133.76</ele>
        <time>2012-09-09T07:48:29Z</time>
      </trkpt>
      <trkpt lat="48.97612" lon="1.11056">
        <ele>134.24</ele>
        <time>2012-09-09T07:48:37Z</time>
      </trkpt>
      <trkpt lat="48.97577" lon="1.11074">
        <ele>135.2</ele>
        <time>2012-09-09T07:48:47Z</time>
      </trkpt>
      <trkpt lat="48.97551" lon="1.11087">
        <ele>136.16</ele>
        <time>2012-09-09T07:48:56Z</time>
      </trkpt>
      <trkpt lat="48.97511" lon="1.111">
        <ele>136.64</ele>
        <time>2012-09-09T07:49:05Z</time>
      </trkpt>
      <trkpt lat="48.97499" lon="1.11108">
        <ele>137.13</ele>
        <time>2012-09-09T07:49:09Z</time>
      </trkpt>
      <trkpt lat="48.97475" lon="1.11125">
        <ele>137.61</ele>
        <time>2012-09-09T07:49:13Z</time>
      </trkpt>
      <trkpt lat="48.97456" lon="1.11137">
        <ele>138.09</ele>
        <time>2012-09-09T07:49:18Z</time>
      </trkpt>
      <trkpt lat="48.97432" lon="1.11147">
        <ele>138.09</ele>
        <time>2012-09-09T07:49:24Z</time>
      </trkpt>
      <trkpt lat="48.97417" lon="1.11151">
        <ele>138.57</ele>
        <time>2012-09-09T07:49:28Z</time>
      </trkpt>
      <trkpt lat="48.97362" lon="1.11177">
        <ele>139.05</ele>
        <time>2012-09-09T07:49:40Z</time>
      </trkpt>
      <trkpt lat="48.97357" lon="1.11179">
        <ele>139.53</ele>
        <time>2012-09-09T07:49:42Z</time>
      </trkpt>
      <trkpt lat="48.97345" lon="1.11187">
        <ele>139.05</ele>
        <time>2012-09-09T07:49:46Z</time>
      </trkpt>
      <trkpt lat="48.97314" lon="1.112">
        <ele>139.53</ele>
        <time>2012-09-09T07:49:54Z</time>
      </trkpt>
      <trkpt lat="48.97296" lon="1.11207">
        <ele>140.01</ele>
        <time>2012-09-09T07:50:01Z</time>
      </trkpt>
      <trkpt lat="48.97256" lon="1.11197">
        <ele>140.49</ele>
        <time>2012-09-09T07:50:09Z</time>
      </trkpt>
      <trkpt lat="48.97209" lon="1.11199">
        <ele>140.49</ele>
        <time>2012-09-09T07:50:21Z</time>
      </trkpt>
      <trkpt lat="48.97167" lon="1.112">
        <ele>142.41</ele>
        <time>2012-09-09T07:50:29Z</time>
      </trkpt>
      <trkpt lat="48.97145" lon="1.11215">
        <ele>142.41</ele>
        <time>2012-09-09T07:50:35Z</time>
      </trkpt>
      <trkpt lat="48.9711" lon="1.11227">
        <ele>142.89</ele>
        <time>2012-09-09T07:50:44Z</time>
      </trkpt>
      <trkpt lat="48.97077" lon="1.11226">
        <ele>143.37</ele>
        <time>2012-09-09T07:50:53Z</time>
      </trkpt>
      <trkpt lat="48.97047" lon="1.11228">
        <ele>144.34</ele>
        <time>2012-09-09T07:51:00Z</time>
      </trkpt>
      <trkpt lat="48.96994" lon="1.11245">
        <ele>144.82</ele>
        <time>2012-09-09T07:51:11Z</time>
      </trkpt>
      <trkpt lat="48.96959" lon="1.1127">
        <ele>146.74</ele>
        <time>2012-09-09T07:51:20Z</time>
      </trkpt>
      <trkpt lat="48.96928" lon="1.11284">
        <ele>146.74</ele>
        <time>2012-09-09T07:51:29Z</time>
      </trkpt>
      <trkpt lat="48.96887" lon="1.11283">
        <ele>146.74</ele>
        <time>2012-09-09T07:51:39Z</time>
      </trkpt>
      <trkpt lat="48.96857" lon="1.11285">
        <ele>145.78</ele>
        <time>2012-09-09T07:51:46Z</time>
      </trkpt>
      <trkpt lat="48.96834" lon="1.11294">
        <ele>147.22</ele>
        <time>2012-09-09T07:51:52Z</time>
      </trkpt>
      <trkpt lat="48.96831" lon="1.11296">
        <ele>146.74</ele>
        <time>2012-09-09T07:51:53Z</time>
      </trkpt>
      <trkpt lat="48.9681" lon="1.11309">
        <ele>147.7</ele>
        <time>2012-09-09T07:51:59Z</time>
      </trkpt>
      <trkpt lat="48.96775" lon="1.11323">
        <ele>148.18</ele>
        <time>2012-09-09T07:52:08Z</time>
      </trkpt>
      <trkpt lat="48.96745" lon="1.1133">
        <ele>147.22</ele>
        <time>2012-09-09T07:52:15Z</time>
      </trkpt>
      <trkpt lat="48.96722" lon="1.11333">
        <ele>147.22</ele>
        <time>2012-09-09T07:52:20Z</time>
      </trkpt>
      <trkpt lat="48.96677" lon="1.11343">
        <ele>147.7</ele>
        <time>2012-09-09T07:52:30Z</time>
      </trkpt>
      <trkpt lat="48.96663" lon="1.11347">
        <ele>148.18</ele>
        <time>2012-09-09T07:52:34Z</time>
      </trkpt>
      <trkpt lat="48.96623" lon="1.11374">
        <ele>147.22</ele>
        <time>2012-09-09T07:52:44Z</time>
      </trkpt>
      <trkpt lat="48.96621" lon="1.11377">
        <ele>147.22</ele>
        <time>2012-09-09T07:52:45Z</time>
      </trkpt>
      <trkpt lat="48.96586" lon="1.11409">
        <ele>147.7</ele>
        <time>2012-09-09T07:52:56Z</time>
      </trkpt>
      <trkpt lat="48.96555" lon="1.11429">
        <ele>148.18</ele>
        <time>2012-09-09T07:53:04Z</time>
      </trkpt>
      <trkpt lat="48.96521" lon="1.11451">
        <ele>148.66</ele>
        <time>2012-09-09T07:53:13Z</time>
      </trkpt>
      <trkpt lat="48.96508" lon="1.11467">
        <ele>147.7</ele>
        <time>2012-09-09T07:53:17Z</time>
      </trkpt>
      <trkpt lat="48.96492" lon="1.11487">
        <ele>147.22</ele>
        <time>2012-09-09T07:53:21Z</time>
      </trkpt>
      <trkpt lat="48.96468" lon="1.11502">
        <ele>148.18</ele>
        <time>2012-09-09T07:53:26Z</time>
      </trkpt>
      <trkpt lat="48.96449" lon="1.11523">
        <ele>147.7</ele>
        <time>2012-09-09T07:53:31Z</time>
      </trkpt>
      <trkpt lat="48.96428" lon="1.11544">
        <ele>146.74</ele>
        <time>2012-09-09T07:53:37Z</time>
      </trkpt>
      <trkpt lat="48.96415" lon="1.11548">
        <ele>147.7</ele>
        <time>2012-09-09T07:53:49Z</time>
      </trkpt>
      <trkpt lat="48.96411" lon="1.11551">
        <ele>147.7</ele>
        <time>2012-09-09T07:53:50Z</time>
      </trkpt>
      <trkpt lat="48.96387" lon="1.11579">
        <ele>146.26</ele>
        <time>2012-09-09T07:53:56Z</time>
      </trkpt>
      <trkpt lat="48.96294" lon="1.11672">
        <ele>144.82</ele>
        <time>2012-09-09T07:54:15Z</time>
      </trkpt>
      <trkpt lat="48.96159" lon="1.11812">
        <ele>143.37</ele>
        <time>2012-09-09T07:54:41Z</time>
      </trkpt>
      <trkpt lat="48.96109" lon="1.11865">
        <ele>143.85</ele>
        <time>2012-09-09T07:54:54Z</time>
      </trkpt>
      <trkpt lat="48.96093" lon="1.11911">
        <ele>143.37</ele>
        <time>2012-09-09T07:55:01Z</time>
      </trkpt>
      <trkpt lat="48.96067" lon="1.11951">
        <ele>144.82</ele>
        <time>2012-09-09T07:55:08Z</time>
      </trkpt>
      <trkpt lat="48.95974" lon="1.12043">
        <ele>146.74</ele>
        <time>2012-09-09T07:55:30Z</time>
      </trkpt>
      <trkpt lat="48.95855" lon="1.12168">
        <ele>147.22</ele>
        <time>2012-09-09T07:56:01Z</time>
      </trkpt>
      <trkpt lat="48.95756" lon="1.12275">
        <ele>147.7</ele>
        <time>2012-09-09T07:56:26Z</time>
      </trkpt>
      <trkpt lat="48.95677" lon="1.12375">
        <ele>149.14</ele>
        <time>2012-09-09T07:56:49Z</time>
      </trkpt>
      <trkpt lat="48.95633" lon="1.12441">
        <ele>151.06</ele>
        <time>2012-09-09T07:57:09Z</time>
      </trkpt>
      <trkpt lat="48.95569" lon="1.12517">
        <ele>152.03</ele>
        <time>2012-09-09T07:57:35Z</time>
      </trkpt>
      <trkpt lat="48.95549" lon="1.12554">
        <ele>152.03</ele>
        <time>2012-09-09T07:57:47Z</time>
      </trkpt>
      <trkpt lat="48.95571" lon="1.12567">
        <ele>152.99</ele>
        <time>2012-09-09T07:57:55Z</time>
      </trkpt>
      <trkpt lat="48.95585" lon="1.12521">
        <ele>152.51</ele>
        <time>2012-09-09T07:58:05Z</time>
      </trkpt>
      <trkpt lat="48.95634" lon="1.12451">
        <ele>150.58</ele>
        <time>2012-09-09T07:58:20Z</time>
      </trkpt>
      <trkpt lat="48.95708" lon="1.12342">
        <ele>147.7</ele>
        <time>2012-09-09T07:58:39Z</time>
      </trkpt>
      <trkpt lat="48.95795" lon="1.12239">
        <ele>146.74</ele>
        <time>2012-09-09T07:58:59Z</time>
      </trkpt>
      <trkpt lat="48.95825" lon="1.12207">
        <ele>147.7</ele>
        <time>2012-09-09T07:59:06Z</time>
      </trkpt>
      <trkpt lat="48.95938" lon="1.12089">
        <ele>145.78</ele>
        <time>2012-09-09T07:59:30Z</time>
      </trkpt>
      <trkpt lat="48.96074" lon="1.1195">
        <ele>144.82</ele>
        <time>2012-09-09T07:59:57Z</time>
      </trkpt>
      <trkpt lat="48.96086" lon="1.11934">
        <ele>144.82</ele>
        <time>2012-09-09T08:00:00Z</time>
      </trkpt>
      <trkpt lat="48.96106" lon="1.11885">
        <ele>143.37</ele>
        <time>2012-09-09T08:00:07Z</time>
      </trkpt>
      <trkpt lat="48.96124" lon="1.11853">
        <ele>144.34</ele>
        <time>2012-09-09T08:00:12Z</time>
      </trkpt>
      <trkpt lat="48.96133" lon="1.11844">
        <ele>144.82</ele>
        <time>2012-09-09T08:00:14Z</time>
      </trkpt>
      <trkpt lat="48.96142" lon="1.11836">
        <ele>145.78</ele>
        <time>2012-09-09T08:00:16Z</time>
      </trkpt>
      <trkpt lat="48.96156" lon="1.11844">
        <ele>144.82</ele>
        <time>2012-09-09T08:00:20Z</time>
      </trkpt>
      <trkpt lat="48.96181" lon="1.11924">
        <ele>144.34</ele>
        <time>2012-09-09T08:00:30Z</time>
      </trkpt>
      <trkpt lat="48.96227" lon="1.12055">
        <ele>143.85</ele>
        <time>2012-09-09T08:00:48Z</time>
      </trkpt>
      <trkpt lat="48.96297" lon="1.12168">
        <ele>143.85</ele>
        <time>2012-09-09T08:01:07Z</time>
      </trkpt>
      <trkpt lat="48.9635" lon="1.12283">
        <ele>143.85</ele>
        <time>2012-09-09T08:01:23Z</time>
      </trkpt>
      <trkpt lat="48.96388" lon="1.12395">
        <ele>142.89</ele>
        <time>2012-09-09T08:01:37Z</time>
      </trkpt>
      <trkpt lat="48.96457" lon="1.12563">
        <ele>141.45</ele>
        <time>2012-09-09T08:01:59Z</time>
      </trkpt>
      <trkpt lat="48.96495" lon="1.12688">
        <ele>141.45</ele>
        <time>2012-09-09T08:02:14Z</time>
      </trkpt>
      <trkpt lat="48.9651" lon="1.12806">
        <ele>140.01</ele>
        <time>2012-09-09T08:02:27Z</time>
      </trkpt>
      <trkpt lat="48.96553" lon="1.12942">
        <ele>138.57</ele>
        <time>2012-09-09T08:02:42Z</time>
      </trkpt>
      <trkpt lat="48.96598" lon="1.13069">
        <ele>139.53</ele>
        <time>2012-09-09T08:02:58Z</time>
      </trkpt>
      <trkpt lat="48.96617" lon="1.1308">
        <ele>139.05</ele>
        <time>2012-09-09T08:03:03Z</time>
      </trkpt>
      <trkpt lat="48.96718" lon="1.12966">
        <ele>140.49</ele>
        <time>2012-09-09T08:03:26Z</time>
      </trkpt>
      <trkpt lat="48.96804" lon="1.1288">
        <ele>139.05</ele>
        <time>2012-09-09T08:03:45Z</time>
      </trkpt>
      <trkpt lat="48.96887" lon="1.128">
        <ele>138.57</ele>
        <time>2012-09-09T08:04:05Z</time>
      </trkpt>
      <trkpt lat="48.9689" lon="1.12797">
        <ele>136.64</ele>
        <time>2012-09-09T08:04:12Z</time>
      </trkpt>
      <trkpt lat="48.96891" lon="1.12798">
        <ele>138.09</ele>
        <time>2012-09-09T08:04:18Z</time>
      </trkpt>
      <trkpt lat="48.9689" lon="1.128">
        <ele>138.09</ele>
        <time>2012-09-09T08:04:41Z</time>
      </trkpt>
      <trkpt lat="48.96889" lon="1.128">
        <ele>138.57</ele>
        <time>2012-09-09T08:06:56Z</time>
      </trkpt>
      <trkpt lat="48.96888" lon="1.12797">
        <ele>138.09</ele>
        <time>2012-09-09T08:07:09Z</time>
      </trkpt>
      <trkpt lat="48.96888" lon="1.12797">
        <ele>138.09</ele>
        <time>2012-09-09T08:07:10Z</time>
      </trkpt>
      <trkpt lat="48.96907" lon="1.12779">
        <ele>138.57</ele>
        <time>2012-09-09T08:07:19Z</time>
      </trkpt>
      <trkpt lat="48.96964" lon="1.1272">
        <ele>137.13</ele>
        <time>2012-09-09T08:07:33Z</time>
      </trkpt>
      <trkpt lat="48.97032" lon="1.1265">
        <ele>137.61</ele>
        <time>2012-09-09T08:07:50Z</time>
      </trkpt>
      <trkpt lat="48.97048" lon="1.12633">
        <ele>137.61</ele>
        <time>2012-09-09T08:07:54Z</time>
      </trkpt>
      <trkpt lat="48.97116" lon="1.12571">
        <ele>136.16</ele>
        <time>2012-09-09T08:08:10Z</time>
      </trkpt>
      <trkpt lat="48.97153" lon="1.12544">
        <ele>137.61</ele>
        <time>2012-09-09T08:08:21Z</time>
      </trkpt>
      <trkpt lat="48.97169" lon="1.12508">
        <ele>137.13</ele>
        <time>2012-09-09T08:08:30Z</time>
      </trkpt>
      <trkpt lat="48.97175" lon="1.12496">
        <ele>137.61</ele>
        <time>2012-09-09T08:08:33Z</time>
      </trkpt>
      <trkpt lat="48.97189" lon="1.12506">
        <ele>137.61</ele>
        <time>2012-09-09T08:08:39Z</time>
      </trkpt>
      <trkpt lat="48.97218" lon="1.1247">
        <ele>137.61</ele>
        <time>2012-09-09T08:08:49Z</time>
      </trkpt>
      <trkpt lat="48.97229" lon="1.1246">
        <ele>137.61</ele>
        <time>2012-09-09T08:08:52Z</time>
      </trkpt>
      <trkpt lat="48.97247" lon="1.12437">
        <ele>136.64</ele>
        <time>2012-09-09T08:09:00Z</time>
      </trkpt>
      <trkpt lat="48.97253" lon="1.12433">
        <ele>136.64</ele>
        <time>2012-09-09T08:09:02Z</time>
      </trkpt>
      <trkpt lat="48.9728" lon="1.12401">
        <ele>136.64</ele>
        <time>2012-09-09T08:09:08Z</time>
      </trkpt>
      <trkpt lat="48.97295" lon="1.12388">
        <ele>136.64</ele>
        <time>2012-09-09T08:09:11Z</time>
      </trkpt>
      <trkpt lat="48.97329" lon="1.12356">
        <ele>135.2</ele>
        <time>2012-09-09T08:09:22Z</time>
      </trkpt>
      <trkpt lat="48.97363" lon="1.12323">
        <ele>132.8</ele>
        <time>2012-09-09T08:09:31Z</time>
      </trkpt>
      <trkpt lat="48.97384" lon="1.12303">
        <ele>132.8</ele>
        <time>2012-09-09T08:09:36Z</time>
      </trkpt>
      <trkpt lat="48.97421" lon="1.12265">
        <ele>130.88</ele>
        <time>2012-09-09T08:09:46Z</time>
      </trkpt>
      <trkpt lat="48.97429" lon="1.12257">
        <ele>129.92</ele>
        <time>2012-09-09T08:09:48Z</time>
      </trkpt>
      <trkpt lat="48.97454" lon="1.12228">
        <ele>127.51</ele>
        <time>2012-09-09T08:09:53Z</time>
      </trkpt>
      <trkpt lat="48.97468" lon="1.12207">
        <ele>127.99</ele>
        <time>2012-09-09T08:09:59Z</time>
      </trkpt>
      <trkpt lat="48.97475" lon="1.12202">
        <ele>128.47</ele>
        <time>2012-09-09T08:10:02Z</time>
      </trkpt>
      <trkpt lat="48.97491" lon="1.12177">
        <ele>128.95</ele>
        <time>2012-09-09T08:10:08Z</time>
      </trkpt>
      <trkpt lat="48.97502" lon="1.1217">
        <ele>129.92</ele>
        <time>2012-09-09T08:10:10Z</time>
      </trkpt>
      <trkpt lat="48.97537" lon="1.1214">
        <ele>130.88</ele>
        <time>2012-09-09T08:10:19Z</time>
      </trkpt>
      <trkpt lat="48.97581" lon="1.12099">
        <ele>130.88</ele>
        <time>2012-09-09T08:10:29Z</time>
      </trkpt>
      <trkpt lat="48.97602" lon="1.12076">
        <ele>130.4</ele>
        <time>2012-09-09T08:10:33Z</time>
      </trkpt>
      <trkpt lat="48.9764" lon="1.12041">
        <ele>130.4</ele>
        <time>2012-09-09T08:10:43Z</time>
      </trkpt>
      <trkpt lat="48.97655" lon="1.12037">
        <ele>129.92</ele>
        <time>2012-09-09T08:10:47Z</time>
      </trkpt>
      <trkpt lat="48.97681" lon="1.12073">
        <ele>128.95</ele>
        <time>2012-09-09T08:10:57Z</time>
      </trkpt>
      <trkpt lat="48.97687" lon="1.12087">
        <ele>128.47</ele>
        <time>2012-09-09T08:11:00Z</time>
      </trkpt>
      <trkpt lat="48.97695" lon="1.1211">
        <ele>126.55</ele>
        <time>2012-09-09T08:11:04Z</time>
      </trkpt>
      <trkpt lat="48.97708" lon="1.12138">
        <ele>122.71</ele>
        <time>2012-09-09T08:11:08Z</time>
      </trkpt>
      <trkpt lat="48.97717" lon="1.12151">
        <ele>120.78</ele>
        <time>2012-09-09T08:11:10Z</time>
      </trkpt>
      <trkpt lat="48.97737" lon="1.12165">
        <ele>119.34</ele>
        <time>2012-09-09T08:11:14Z</time>
      </trkpt>
      <trkpt lat="48.97766" lon="1.12181">
        <ele>114.53</ele>
        <time>2012-09-09T08:11:19Z</time>
      </trkpt>
      <trkpt lat="48.97771" lon="1.12185">
        <ele>114.53</ele>
        <time>2012-09-09T08:11:20Z</time>
      </trkpt>
      <trkpt lat="48.97793" lon="1.12198">
        <ele>112.13</ele>
        <time>2012-09-09T08:11:24Z</time>
      </trkpt>
      <trkpt lat="48.97803" lon="1.12203">
        <ele>112.13</ele>
        <time>2012-09-09T08:11:26Z</time>
      </trkpt>
      <trkpt lat="48.97818" lon="1.12206">
        <ele>110.69</ele>
        <time>2012-09-09T08:11:29Z</time>
      </trkpt>
      <trkpt lat="48.97827" lon="1.1221">
        <ele>110.21</ele>
        <time>2012-09-09T08:11:31Z</time>
      </trkpt>
      <trkpt lat="48.97844" lon="1.12223">
        <ele>107.32</ele>
        <time>2012-09-09T08:11:35Z</time>
      </trkpt>
      <trkpt lat="48.97854" lon="1.12243">
        <ele>105.4</ele>
        <time>2012-09-09T08:11:42Z</time>
      </trkpt>
      <trkpt lat="48.97855" lon="1.12283">
        <ele>101.56</ele>
        <time>2012-09-09T08:11:47Z</time>
      </trkpt>
      <trkpt lat="48.9787" lon="1.12356">
        <ele>99.63</ele>
        <time>2012-09-09T08:11:59Z</time>
      </trkpt>
      <trkpt lat="48.97871" lon="1.12364">
        <ele>99.15</ele>
        <time>2012-09-09T08:12:01Z</time>
      </trkpt>
      <trkpt lat="48.97872" lon="1.12367">
        <ele>100.11</ele>
        <time>2012-09-09T08:12:03Z</time>
      </trkpt>
      <trkpt lat="48.97894" lon="1.12339">
        <ele>100.11</ele>
        <time>2012-09-09T08:12:14Z</time>
      </trkpt>
      <trkpt lat="48.97918" lon="1.12324">
        <ele>100.11</ele>
        <time>2012-09-09T08:12:22Z</time>
      </trkpt>
      <trkpt lat="48.97943" lon="1.12315">
        <ele>100.11</ele>
        <time>2012-09-09T08:12:31Z</time>
      </trkpt>
      <trkpt lat="48.97985" lon="1.1231">
        <ele>98.67</ele>
        <time>2012-09-09T08:12:41Z</time>
      </trkpt>
      <trkpt lat="48.98018" lon="1.12313">
        <ele>98.67</ele>
        <time>2012-09-09T08:12:49Z</time>
      </trkpt>
      <trkpt lat="48.98058" lon="1.123">
        <ele>99.15</ele>
        <time>2012-09-09T08:13:00Z</time>
      </trkpt>
      <trkpt lat="48.9807" lon="1.12298">
        <ele>98.19</ele>
        <time>2012-09-09T08:13:04Z</time>
      </trkpt>
      <trkpt lat="48.98098" lon="1.12313">
        <ele>98.19</ele>
        <time>2012-09-09T08:13:13Z</time>
      </trkpt>
      <trkpt lat="48.98103" lon="1.12311">
        <ele>97.71</ele>
        <time>2012-09-09T08:13:15Z</time>
      </trkpt>
      <trkpt lat="48.98113" lon="1.12304">
        <ele>96.27</ele>
        <time>2012-09-09T08:13:18Z</time>
      </trkpt>
      <trkpt lat="48.98164" lon="1.123">
        <ele>95.79</ele>
        <time>2012-09-09T08:13:29Z</time>
      </trkpt>
      <trkpt lat="48.98176" lon="1.12295">
        <ele>95.31</ele>
        <time>2012-09-09T08:13:32Z</time>
      </trkpt>
      <trkpt lat="48.98222" lon="1.12264">
        <ele>94.35</ele>
        <time>2012-09-09T08:13:42Z</time>
      </trkpt>
      <trkpt lat="48.98226" lon="1.12259">
        <ele>94.35</ele>
        <time>2012-09-09T08:13:43Z</time>
      </trkpt>
      <trkpt lat="48.98237" lon="1.12253">
        <ele>95.31</ele>
        <time>2012-09-09T08:13:47Z</time>
      </trkpt>
      <trkpt lat="48.98243" lon="1.12253">
        <ele>95.31</ele>
        <time>2012-09-09T08:13:49Z</time>
      </trkpt>
      <trkpt lat="48.98256" lon="1.12249">
        <ele>94.83</ele>
        <time>2012-09-09T08:13:53Z</time>
      </trkpt>
      <trkpt lat="48.98261" lon="1.12249">
        <ele>94.83</ele>
        <time>2012-09-09T08:13:55Z</time>
      </trkpt>
      <trkpt lat="48.98272" lon="1.1227">
        <ele>93.87</ele>
        <time>2012-09-09T08:14:06Z</time>
      </trkpt>
      <trkpt lat="48.98277" lon="1.12286">
        <ele>93.39</ele>
        <time>2012-09-09T08:14:12Z</time>
      </trkpt>
      <trkpt lat="48.9829" lon="1.12296">
        <ele>93.39</ele>
        <time>2012-09-09T08:14:17Z</time>
      </trkpt>
      <trkpt lat="48.98301" lon="1.12307">
        <ele>93.39</ele>
        <time>2012-09-09T08:14:25Z</time>
      </trkpt>
      <trkpt lat="48.98305" lon="1.12312">
        <ele>93.87</ele>
        <time>2012-09-09T08:14:28Z</time>
      </trkpt>
      <trkpt lat="48.98309" lon="1.12329">
        <ele>92.9</ele>
        <time>2012-09-09T08:14:36Z</time>
      </trkpt>
      <trkpt lat="48.98312" lon="1.12344">
        <ele>93.39</ele>
        <time>2012-09-09T08:14:41Z</time>
      </trkpt>
      <trkpt lat="48.98316" lon="1.12353">
        <ele>91.94</ele>
        <time>2012-09-09T08:14:44Z</time>
      </trkpt>
      <trkpt lat="48.98336" lon="1.12373">
        <ele>92.9</ele>
        <time>2012-09-09T08:14:50Z</time>
      </trkpt>
      <trkpt lat="48.98355" lon="1.124">
        <ele>91.46</ele>
        <time>2012-09-09T08:14:56Z</time>
      </trkpt>
      <trkpt lat="48.98374" lon="1.12418">
        <ele>91.94</ele>
        <time>2012-09-09T08:15:02Z</time>
      </trkpt>
      <trkpt lat="48.9839" lon="1.12433">
        <ele>91.46</ele>
        <time>2012-09-09T08:15:07Z</time>
      </trkpt>
      <trkpt lat="48.98426" lon="1.12412">
        <ele>90.5</ele>
        <time>2012-09-09T08:15:15Z</time>
      </trkpt>
      <trkpt lat="48.98436" lon="1.12385">
        <ele>89.54</ele>
        <time>2012-09-09T08:15:18Z</time>
      </trkpt>
      <trkpt lat="48.98438" lon="1.12353">
        <ele>89.54</ele>
        <time>2012-09-09T08:15:22Z</time>
      </trkpt>
      <trkpt lat="48.98429" lon="1.12322">
        <ele>89.54</ele>
        <time>2012-09-09T08:15:28Z</time>
      </trkpt>
      <trkpt lat="48.98439" lon="1.12294">
        <ele>89.06</ele>
        <time>2012-09-09T08:15:34Z</time>
      </trkpt>
      <trkpt lat="48.9845" lon="1.12282">
        <ele>89.54</ele>
        <time>2012-09-09T08:15:37Z</time>
      </trkpt>
      <trkpt lat="48.98469" lon="1.12243">
        <ele>90.98</ele>
        <time>2012-09-09T08:15:44Z</time>
      </trkpt>
      <trkpt lat="48.98483" lon="1.12201">
        <ele>90.02</ele>
        <time>2012-09-09T08:15:50Z</time>
      </trkpt>
      <trkpt lat="48.98505" lon="1.12145">
        <ele>89.54</ele>
        <time>2012-09-09T08:15:57Z</time>
      </trkpt>
      <trkpt lat="48.98533" lon="1.12106">
        <ele>88.58</ele>
        <time>2012-09-09T08:16:04Z</time>
      </trkpt>
      <trkpt lat="48.9856" lon="1.12072">
        <ele>88.1</ele>
        <time>2012-09-09T08:16:13Z</time>
      </trkpt>
      <trkpt lat="48.98575" lon="1.12064">
        <ele>88.1</ele>
        <time>2012-09-09T08:16:16Z</time>
      </trkpt>
      <trkpt lat="48.98595" lon="1.12054">
        <ele>88.58</ele>
        <time>2012-09-09T08:16:19Z</time>
      </trkpt>
      <trkpt lat="48.98641" lon="1.12037">
        <ele>88.1</ele>
        <time>2012-09-09T08:16:27Z</time>
      </trkpt>
      <trkpt lat="48.98657" lon="1.12031">
        <ele>88.1</ele>
        <time>2012-09-09T08:16:30Z</time>
      </trkpt>
      <trkpt lat="48.98673" lon="1.12021">
        <ele>87.62</ele>
        <time>2012-09-09T08:16:33Z</time>
      </trkpt>
      <trkpt lat="48.98728" lon="1.11985">
        <ele>86.66</ele>
        <time>2012-09-09T08:16:45Z</time>
      </trkpt>
      <trkpt lat="48.98739" lon="1.1197">
        <ele>87.14</ele>
        <time>2012-09-09T08:16:48Z</time>
      </trkpt>
      <trkpt lat="48.9876" lon="1.11953">
        <ele>86.66</ele>
        <time>2012-09-09T08:16:52Z</time>
      </trkpt>
      <trkpt lat="48.98775" lon="1.11938">
        <ele>86.18</ele>
        <time>2012-09-09T08:16:55Z</time>
      </trkpt>
      <trkpt lat="48.98789" lon="1.11921">
        <ele>85.69</ele>
        <time>2012-09-09T08:16:58Z</time>
      </trkpt>
      <trkpt lat="48.98822" lon="1.11872">
        <ele>85.69</ele>
        <time>2012-09-09T08:17:06Z</time>
      </trkpt>
      <trkpt lat="48.9883" lon="1.11859">
        <ele>85.69</ele>
        <time>2012-09-09T08:17:08Z</time>
      </trkpt>
      <trkpt lat="48.98848" lon="1.11827">
        <ele>85.69</ele>
        <time>2012-09-09T08:17:13Z</time>
      </trkpt>
      <trkpt lat="48.98864" lon="1.11811">
        <ele>85.69</ele>
        <time>2012-09-09T08:17:16Z</time>
      </trkpt>
      <trkpt lat="48.98889" lon="1.1178">
        <ele>84.25</ele>
        <time>2012-09-09T08:17:22Z</time>
      </trkpt>
      <trkpt lat="48.98897" lon="1.11773">
        <ele>85.21</ele>
        <time>2012-09-09T08:17:24Z</time>
      </trkpt>
      <trkpt lat="48.9894" lon="1.11769">
        <ele>85.21</ele>
        <time>2012-09-09T08:17:32Z</time>
      </trkpt>
      <trkpt lat="48.98964" lon="1.11777">
        <ele>86.18</ele>
        <time>2012-09-09T08:17:44Z</time>
      </trkpt>
      <trkpt lat="48.98966" lon="1.11781">
        <ele>87.14</ele>
        <time>2012-09-09T08:17:48Z</time>
      </trkpt>
      <trkpt lat="48.98972" lon="1.11784">
        <ele>89.06</ele>
        <time>2012-09-09T08:17:53Z</time>
      </trkpt>
      <trkpt lat="48.98987" lon="1.1179">
        <ele>92.42</ele>
        <time>2012-09-09T08:18:05Z</time>
      </trkpt>
      <trkpt lat="48.98998" lon="1.11796">
        <ele>92.42</ele>
        <time>2012-09-09T08:18:13Z</time>
      </trkpt>
      <trkpt lat="48.99007" lon="1.118">
        <ele>95.31</ele>
        <time>2012-09-09T08:18:19Z</time>
      </trkpt>
      <trkpt lat="48.99014" lon="1.11805">
        <ele>95.79</ele>
        <time>2012-09-09T08:18:25Z</time>
      </trkpt>
      <trkpt lat="48.99017" lon="1.11808">
        <ele>96.27</ele>
        <time>2012-09-09T08:18:28Z</time>
      </trkpt>
      <trkpt lat="48.99019" lon="1.11812">
        <ele>97.23</ele>
        <time>2012-09-09T08:18:32Z</time>
      </trkpt>
      <trkpt lat="48.99029" lon="1.11831">
        <ele>99.15</ele>
        <time>2012-09-09T08:18:42Z</time>
      </trkpt>
      <trkpt lat="48.9903" lon="1.11839">
        <ele>100.11</ele>
        <time>2012-09-09T08:18:47Z</time>
      </trkpt>
      <trkpt lat="48.99023" lon="1.11853">
        <ele>102.04</ele>
        <time>2012-09-09T08:18:57Z</time>
      </trkpt>
      <trkpt lat="48.99012" lon="1.1186">
        <ele>104.44</ele>
        <time>2012-09-09T08:19:09Z</time>
      </trkpt>
      <trkpt lat="48.99" lon="1.11873">
        <ele>106.84</ele>
        <time>2012-09-09T08:19:22Z</time>
      </trkpt>
      <trkpt lat="48.98998" lon="1.11878">
        <ele>107.32</ele>
        <time>2012-09-09T08:19:24Z</time>
      </trkpt>
      <trkpt lat="48.98988" lon="1.11893">
        <ele>109.25</ele>
        <time>2012-09-09T08:19:37Z</time>
      </trkpt>
      <trkpt lat="48.98985" lon="1.11895">
        <ele>109.73</ele>
        <time>2012-09-09T08:19:39Z</time>
      </trkpt>
      <trkpt lat="48.98984" lon="1.11904">
        <ele>110.69</ele>
        <time>2012-09-09T08:19:43Z</time>
      </trkpt>
      <trkpt lat="48.98986" lon="1.11909">
        <ele>113.09</ele>
        <time>2012-09-09T08:19:55Z</time>
      </trkpt>
      <trkpt lat="48.98988" lon="1.11913">
        <ele>115.98</ele>
        <time>2012-09-09T08:20:09Z</time>
      </trkpt>
      <trkpt lat="48.98999" lon="1.11924">
        <ele>119.34</ele>
        <time>2012-09-09T08:20:23Z</time>
      </trkpt>
      <trkpt lat="48.99002" lon="1.11931">
        <ele>121.26</ele>
        <time>2012-09-09T08:20:31Z</time>
      </trkpt>
      <trkpt lat="48.99006" lon="1.11956">
        <ele>123.67</ele>
        <time>2012-09-09T08:20:51Z</time>
      </trkpt>
      <trkpt lat="48.99017" lon="1.1197">
        <ele>126.07</ele>
        <time>2012-09-09T08:21:06Z</time>
      </trkpt>
      <trkpt lat="48.99018" lon="1.11988">
        <ele>126.07</ele>
        <time>2012-09-09T08:21:13Z</time>
      </trkpt>
      <trkpt lat="48.99014" lon="1.12">
        <ele>126.07</ele>
        <time>2012-09-09T08:21:17Z</time>
      </trkpt>
      <trkpt lat="48.99009" lon="1.12006">
        <ele>127.03</ele>
        <time>2012-09-09T08:21:21Z</time>
      </trkpt>
      <trkpt lat="48.99006" lon="1.12009">
        <ele>127.03</ele>
        <time>2012-09-09T08:21:24Z</time>
      </trkpt>
      <trkpt lat="48.99001" lon="1.1202">
        <ele>126.55</ele>
        <time>2012-09-09T08:21:28Z</time>
      </trkpt>
      <trkpt lat="48.98998" lon="1.12033">
        <ele>127.03</ele>
        <time>2012-09-09T08:21:33Z</time>
      </trkpt>
      <trkpt lat="48.98996" lon="1.12041">
        <ele>127.51</ele>
        <time>2012-09-09T08:21:36Z</time>
      </trkpt>
      <trkpt lat="48.98991" lon="1.12048">
        <ele>127.03</ele>
        <time>2012-09-09T08:21:39Z</time>
      </trkpt>
      <trkpt lat="48.98997" lon="1.12072">
        <ele>127.03</ele>
        <time>2012-09-09T08:21:45Z</time>
      </trkpt>
      <trkpt lat="48.99009" lon="1.12131">
        <ele>126.55</ele>
        <time>2012-09-09T08:21:57Z</time>
      </trkpt>
      <trkpt lat="48.99012" lon="1.12143">
        <ele>126.55</ele>
        <time>2012-09-09T08:21:59Z</time>
      </trkpt>
      <trkpt lat="48.99033" lon="1.12243">
        <ele>125.11</ele>
        <time>2012-09-09T08:22:12Z</time>
      </trkpt>
      <trkpt lat="48.99033" lon="1.12248">
        <ele>124.63</ele>
        <time>2012-09-09T08:22:13Z</time>
      </trkpt>
      <trkpt lat="48.99035" lon="1.12261">
        <ele>124.63</ele>
        <time>2012-09-09T08:22:16Z</time>
      </trkpt>
      <trkpt lat="48.9904" lon="1.12261">
        <ele>124.63</ele>
        <time>2012-09-09T08:22:20Z</time>
      </trkpt>
      <trkpt lat="48.99068" lon="1.1224">
        <ele>123.19</ele>
        <time>2012-09-09T08:22:29Z</time>
      </trkpt>
      <trkpt lat="48.99101" lon="1.12203">
        <ele>122.22</ele>
        <time>2012-09-09T08:22:40Z</time>
      </trkpt>
      <trkpt lat="48.99108" lon="1.12194">
        <ele>121.74</ele>
        <time>2012-09-09T08:22:42Z</time>
      </trkpt>
      <trkpt lat="48.9914" lon="1.12169">
        <ele>121.74</ele>
        <time>2012-09-09T08:22:48Z</time>
      </trkpt>
      <trkpt lat="48.99166" lon="1.12148">
        <ele>121.74</ele>
        <time>2012-09-09T08:22:55Z</time>
      </trkpt>
      <trkpt lat="48.99192" lon="1.12119">
        <ele>122.22</ele>
        <time>2012-09-09T08:23:03Z</time>
      </trkpt>
      <trkpt lat="48.99201" lon="1.12109">
        <ele>122.22</ele>
        <time>2012-09-09T08:23:05Z</time>
      </trkpt>
      <trkpt lat="48.99228" lon="1.12083">
        <ele>120.78</ele>
        <time>2012-09-09T08:23:10Z</time>
      </trkpt>
      <trkpt lat="48.99239" lon="1.12082">
        <ele>119.82</ele>
        <time>2012-09-09T08:23:19Z</time>
      </trkpt>
      <trkpt lat="48.99247" lon="1.12101">
        <ele>119.34</ele>
        <time>2012-09-09T08:23:29Z</time>
      </trkpt>
      <trkpt lat="48.99254" lon="1.12122">
        <ele>118.38</ele>
        <time>2012-09-09T08:23:35Z</time>
      </trkpt>
      <trkpt lat="48.99255" lon="1.12134">
        <ele>117.9</ele>
        <time>2012-09-09T08:23:40Z</time>
      </trkpt>
      <trkpt lat="48.99272" lon="1.12157">
        <ele>117.42</ele>
        <time>2012-09-09T08:23:44Z</time>
      </trkpt>
      <trkpt lat="48.99272" lon="1.12158">
        <ele>117.42</ele>
        <time>2012-09-09T08:23:47Z</time>
      </trkpt>
      <trkpt lat="48.99295" lon="1.12116">
        <ele>118.38</ele>
        <time>2012-09-09T08:23:56Z</time>
      </trkpt>
      <trkpt lat="48.99316" lon="1.12092">
        <ele>118.86</ele>
        <time>2012-09-09T08:24:03Z</time>
      </trkpt>
      <trkpt lat="48.99359" lon="1.12062">
        <ele>117.9</ele>
        <time>2012-09-09T08:24:14Z</time>
      </trkpt>
      <trkpt lat="48.99369" lon="1.12054">
        <ele>117.9</ele>
        <time>2012-09-09T08:24:16Z</time>
      </trkpt>
      <trkpt lat="48.99399" lon="1.12018">
        <ele>117.42</ele>
        <time>2012-09-09T08:24:24Z</time>
      </trkpt>
      <trkpt lat="48.99434" lon="1.1198">
        <ele>115.98</ele>
        <time>2012-09-09T08:24:32Z</time>
      </trkpt>
      <trkpt lat="48.99437" lon="1.11976">
        <ele>115.98</ele>
        <time>2012-09-09T08:24:33Z</time>
      </trkpt>
      <trkpt lat="48.99486" lon="1.11919">
        <ele>116.46</ele>
        <time>2012-09-09T08:24:44Z</time>
      </trkpt>
      <trkpt lat="48.9949" lon="1.11915">
        <ele>116.46</ele>
        <time>2012-09-09T08:24:45Z</time>
      </trkpt>
      <trkpt lat="48.99538" lon="1.11896">
        <ele>115.5</ele>
        <time>2012-09-09T08:24:54Z</time>
      </trkpt>
      <trkpt lat="48.99562" lon="1.119">
        <ele>114.53</ele>
        <time>2012-09-09T08:24:59Z</time>
      </trkpt>
      <trkpt lat="48.99605" lon="1.11914">
        <ele>113.57</ele>
        <time>2012-09-09T08:25:09Z</time>
      </trkpt>
      <trkpt lat="48.99627" lon="1.11925">
        <ele>113.09</ele>
        <time>2012-09-09T08:25:13Z</time>
      </trkpt>
      <trkpt lat="48.99679" lon="1.11925">
        <ele>110.21</ele>
        <time>2012-09-09T08:25:22Z</time>
      </trkpt>
      <trkpt lat="48.99686" lon="1.11924">
        <ele>110.21</ele>
        <time>2012-09-09T08:25:23Z</time>
      </trkpt>
      <trkpt lat="48.99717" lon="1.11921">
        <ele>108.29</ele>
        <time>2012-09-09T08:25:29Z</time>
      </trkpt>
      <trkpt lat="48.9974" lon="1.11898">
        <ele>107.81</ele>
        <time>2012-09-09T08:25:34Z</time>
      </trkpt>
      <trkpt lat="48.99755" lon="1.11881">
        <ele>107.81</ele>
        <time>2012-09-09T08:25:37Z</time>
      </trkpt>
      <trkpt lat="48.99783" lon="1.11865">
        <ele>106.36</ele>
        <time>2012-09-09T08:25:45Z</time>
      </trkpt>
      <trkpt lat="48.99798" lon="1.11867">
        <ele>104.92</ele>
        <time>2012-09-09T08:25:48Z</time>
      </trkpt>
      <trkpt lat="48.99822" lon="1.11863">
        <ele>103.96</ele>
        <time>2012-09-09T08:25:53Z</time>
      </trkpt>
      <trkpt lat="48.99842" lon="1.11863">
        <ele>103.48</ele>
        <time>2012-09-09T08:25:58Z</time>
      </trkpt>
      <trkpt lat="48.99863" lon="1.1187">
        <ele>102.52</ele>
        <time>2012-09-09T08:26:02Z</time>
      </trkpt>
      <trkpt lat="48.99891" lon="1.11886">
        <ele>102.04</ele>
        <time>2012-09-09T08:26:07Z</time>
      </trkpt>
      <trkpt lat="48.99927" lon="1.11906">
        <ele>101.08</ele>
        <time>2012-09-09T08:26:13Z</time>
      </trkpt>
      <trkpt lat="48.99992" lon="1.11949">
        <ele>97.71</ele>
        <time>2012-09-09T08:26:25Z</time>
      </trkpt>
      <trkpt lat="48.99999" lon="1.11952">
        <ele>97.71</ele>
        <time>2012-09-09T08:26:27Z</time>
      </trkpt>
      <trkpt lat="49.00007" lon="1.11953">
        <ele>98.19</ele>
        <time>2012-09-09T08:26:33Z</time>
      </trkpt>
      <trkpt lat="49" lon="1.11968">
        <ele>101.56</ele>
        <time>2012-09-09T08:26:42Z</time>
      </trkpt>
      <trkpt lat="48.99997" lon="1.11971">
        <ele>102.04</ele>
        <time>2012-09-09T08:26:44Z</time>
      </trkpt>
      <trkpt lat="48.99991" lon="1.11999">
        <ele>105.88</ele>
        <time>2012-09-09T08:26:55Z</time>
      </trkpt>
      <trkpt lat="48.99988" lon="1.12022">
        <ele>107.81</ele>
        <time>2012-09-09T08:27:06Z</time>
      </trkpt>
      <trkpt lat="48.99988" lon="1.12026">
        <ele>108.29</ele>
        <time>2012-09-09T08:27:08Z</time>
      </trkpt>
      <trkpt lat="48.99985" lon="1.12035">
        <ele>109.73</ele>
        <time>2012-09-09T08:27:13Z</time>
      </trkpt>
      <trkpt lat="48.99977" lon="1.12045">
        <ele>110.69</ele>
        <time>2012-09-09T08:27:22Z</time>
      </trkpt>
      <trkpt lat="48.99976" lon="1.1205">
        <ele>111.17</ele>
        <time>2012-09-09T08:27:25Z</time>
      </trkpt>
      <trkpt lat="48.99958" lon="1.12059">
        <ele>113.57</ele>
        <time>2012-09-09T08:27:37Z</time>
      </trkpt>
      <trkpt lat="48.99945" lon="1.12055">
        <ele>114.53</ele>
        <time>2012-09-09T08:27:46Z</time>
      </trkpt>
      <trkpt lat="48.9993" lon="1.12039">
        <ele>115.5</ele>
        <time>2012-09-09T08:27:56Z</time>
      </trkpt>
      <trkpt lat="48.99919" lon="1.12031">
        <ele>115.98</ele>
        <time>2012-09-09T08:28:01Z</time>
      </trkpt>
      <trkpt lat="48.99914" lon="1.12016">
        <ele>116.94</ele>
        <time>2012-09-09T08:28:06Z</time>
      </trkpt>
      <trkpt lat="48.99907" lon="1.12005">
        <ele>116.94</ele>
        <time>2012-09-09T08:28:11Z</time>
      </trkpt>
      <trkpt lat="48.99887" lon="1.12">
        <ele>117.9</ele>
        <time>2012-09-09T08:28:18Z</time>
      </trkpt>
      <trkpt lat="48.99877" lon="1.12003">
        <ele>118.38</ele>
        <time>2012-09-09T08:28:22Z</time>
      </trkpt>
      <trkpt lat="48.99854" lon="1.12018">
        <ele>119.82</ele>
        <time>2012-09-09T08:28:34Z</time>
      </trkpt>
      <trkpt lat="48.99851" lon="1.12019">
        <ele>119.82</ele>
        <time>2012-09-09T08:28:36Z</time>
      </trkpt>
      <trkpt lat="48.99837" lon="1.12026">
        <ele>120.78</ele>
        <time>2012-09-09T08:28:43Z</time>
      </trkpt>
      <trkpt lat="48.99815" lon="1.12023">
        <ele>121.26</ele>
        <time>2012-09-09T08:28:50Z</time>
      </trkpt>
      <trkpt lat="48.99809" lon="1.12021">
        <ele>121.26</ele>
        <time>2012-09-09T08:28:52Z</time>
      </trkpt>
      <trkpt lat="48.99802" lon="1.12049">
        <ele>122.22</ele>
        <time>2012-09-09T08:29:02Z</time>
      </trkpt>
      <trkpt lat="48.99803" lon="1.12075">
        <ele>122.71</ele>
        <time>2012-09-09T08:29:09Z</time>
      </trkpt>
      <trkpt lat="48.99807" lon="1.12119">
        <ele>123.67</ele>
        <time>2012-09-09T08:29:19Z</time>
      </trkpt>
      <trkpt lat="48.99806" lon="1.12143">
        <ele>124.15</ele>
        <time>2012-09-09T08:29:25Z</time>
      </trkpt>
      <trkpt lat="48.99819" lon="1.12205">
        <ele>124.63</ele>
        <time>2012-09-09T08:29:37Z</time>
      </trkpt>
      <trkpt lat="48.99827" lon="1.12257">
        <ele>125.11</ele>
        <time>2012-09-09T08:29:48Z</time>
      </trkpt>
      <trkpt lat="48.9984" lon="1.12325">
        <ele>127.03</ele>
        <time>2012-09-09T08:30:03Z</time>
      </trkpt>
      <trkpt lat="48.99845" lon="1.12372">
        <ele>127.51</ele>
        <time>2012-09-09T08:30:13Z</time>
      </trkpt>
      <trkpt lat="48.99847" lon="1.12389">
        <ele>127.51</ele>
        <time>2012-09-09T08:30:16Z</time>
      </trkpt>
      <trkpt lat="48.99855" lon="1.12437">
        <ele>127.03</ele>
        <time>2012-09-09T08:30:23Z</time>
      </trkpt>
      <trkpt lat="48.99863" lon="1.125">
        <ele>127.51</ele>
        <time>2012-09-09T08:30:35Z</time>
      </trkpt>
      <trkpt lat="48.99869" lon="1.1254">
        <ele>128.47</ele>
        <time>2012-09-09T08:30:45Z</time>
      </trkpt>
      <trkpt lat="48.99871" lon="1.12561">
        <ele>129.43</ele>
        <time>2012-09-09T08:30:50Z</time>
      </trkpt>
      <trkpt lat="48.99875" lon="1.12583">
        <ele>129.92</ele>
        <time>2012-09-09T08:30:56Z</time>
      </trkpt>
      <trkpt lat="48.99884" lon="1.12631">
        <ele>132.32</ele>
        <time>2012-09-09T08:31:09Z</time>
      </trkpt>
      <trkpt lat="48.99885" lon="1.12643">
        <ele>132.8</ele>
        <time>2012-09-09T08:31:12Z</time>
      </trkpt>
      <trkpt lat="48.99888" lon="1.12661">
        <ele>133.28</ele>
        <time>2012-09-09T08:31:16Z</time>
      </trkpt>
      <trkpt lat="48.99888" lon="1.12685">
        <ele>133.76</ele>
        <time>2012-09-09T08:31:22Z</time>
      </trkpt>
      <trkpt lat="48.99897" lon="1.12726">
        <ele>134.72</ele>
        <time>2012-09-09T08:31:34Z</time>
      </trkpt>
      <trkpt lat="48.99894" lon="1.1273">
        <ele>135.2</ele>
        <time>2012-09-09T08:31:39Z</time>
      </trkpt>
      <trkpt lat="48.99871" lon="1.12703">
        <ele>135.68</ele>
        <time>2012-09-09T08:31:50Z</time>
      </trkpt>
      <trkpt lat="48.99855" lon="1.12683">
        <ele>135.2</ele>
        <time>2012-09-09T08:31:56Z</time>
      </trkpt>
      <trkpt lat="48.99822" lon="1.12644">
        <ele>134.24</ele>
        <time>2012-09-09T08:32:07Z</time>
      </trkpt>
      <trkpt lat="48.99788" lon="1.12616">
        <ele>134.24</ele>
        <time>2012-09-09T08:32:18Z</time>
      </trkpt>
      <trkpt lat="48.99766" lon="1.12593">
        <ele>133.28</ele>
        <time>2012-09-09T08:32:27Z</time>
      </trkpt>
      <trkpt lat="48.99745" lon="1.12569">
        <ele>132.32</ele>
        <time>2012-09-09T08:32:34Z</time>
      </trkpt>
      <trkpt lat="48.99726" lon="1.1255">
        <ele>131.84</ele>
        <time>2012-09-09T08:32:39Z</time>
      </trkpt>
      <trkpt lat="48.99707" lon="1.12532">
        <ele>131.36</ele>
        <time>2012-09-09T08:32:44Z</time>
      </trkpt>
      <trkpt lat="48.99701" lon="1.12507">
        <ele>131.36</ele>
        <time>2012-09-09T08:32:51Z</time>
      </trkpt>
      <trkpt lat="48.99693" lon="1.12453">
        <ele>131.36</ele>
        <time>2012-09-09T08:33:01Z</time>
      </trkpt>
      <trkpt lat="48.99687" lon="1.12406">
        <ele>131.36</ele>
        <time>2012-09-09T08:33:10Z</time>
      </trkpt>
      <trkpt lat="48.99673" lon="1.12336">
        <ele>130.4</ele>
        <time>2012-09-09T08:33:22Z</time>
      </trkpt>
      <trkpt lat="48.99666" lon="1.12298">
        <ele>130.4</ele>
        <time>2012-09-09T08:33:29Z</time>
      </trkpt>
      <trkpt lat="48.99665" lon="1.12275">
        <ele>130.4</ele>
        <time>2012-09-09T08:33:33Z</time>
      </trkpt>
      <trkpt lat="48.99652" lon="1.12215">
        <ele>130.4</ele>
        <time>2012-09-09T08:33:46Z</time>
      </trkpt>
      <trkpt lat="48.9965" lon="1.12201">
        <ele>130.4</ele>
        <time>2012-09-09T08:33:51Z</time>
      </trkpt>
      <trkpt lat="48.99651" lon="1.1219">
        <ele>130.4</ele>
        <time>2012-09-09T08:33:55Z</time>
      </trkpt>
      <trkpt lat="48.99657" lon="1.12165">
        <ele>129.43</ele>
        <time>2012-09-09T08:34:00Z</time>
      </trkpt>
      <trkpt lat="48.9966" lon="1.12148">
        <ele>128.47</ele>
        <time>2012-09-09T08:34:03Z</time>
      </trkpt>
      <trkpt lat="48.99668" lon="1.12145">
        <ele>127.51</ele>
        <time>2012-09-09T08:34:07Z</time>
      </trkpt>
      <trkpt lat="48.99675" lon="1.12135">
        <ele>127.51</ele>
        <time>2012-09-09T08:34:12Z</time>
      </trkpt>
      <trkpt lat="48.99689" lon="1.12122">
        <ele>127.51</ele>
        <time>2012-09-09T08:34:19Z</time>
      </trkpt>
      <trkpt lat="48.9969" lon="1.12105">
        <ele>127.03</ele>
        <time>2012-09-09T08:34:23Z</time>
      </trkpt>
      <trkpt lat="48.99674" lon="1.12098">
        <ele>127.03</ele>
        <time>2012-09-09T08:34:28Z</time>
      </trkpt>
      <trkpt lat="48.99672" lon="1.1209">
        <ele>127.03</ele>
        <time>2012-09-09T08:34:33Z</time>
      </trkpt>
      <trkpt lat="48.99674" lon="1.12072">
        <ele>127.51</ele>
        <time>2012-09-09T08:34:37Z</time>
      </trkpt>
      <trkpt lat="48.99667" lon="1.12061">
        <ele>127.51</ele>
        <time>2012-09-09T08:34:41Z</time>
      </trkpt>
      <trkpt lat="48.99637" lon="1.12072">
        <ele>127.99</ele>
        <time>2012-09-09T08:34:51Z</time>
      </trkpt>
      <trkpt lat="48.99606" lon="1.12085">
        <ele>128.47</ele>
        <time>2012-09-09T08:34:59Z</time>
      </trkpt>
      <trkpt lat="48.99589" lon="1.1209">
        <ele>127.51</ele>
        <time>2012-09-09T08:35:03Z</time>
      </trkpt>
      <trkpt lat="48.99572" lon="1.12095">
        <ele>127.99</ele>
        <time>2012-09-09T08:35:07Z</time>
      </trkpt>
      <trkpt lat="48.99562" lon="1.12097">
        <ele>127.99</ele>
        <time>2012-09-09T08:35:09Z</time>
      </trkpt>
      <trkpt lat="48.99502" lon="1.12117">
        <ele>128.47</ele>
        <time>2012-09-09T08:35:21Z</time>
      </trkpt>
      <trkpt lat="48.99478" lon="1.12126">
        <ele>127.51</ele>
        <time>2012-09-09T08:35:26Z</time>
      </trkpt>
      <trkpt lat="48.99463" lon="1.12128">
        <ele>127.03</ele>
        <time>2012-09-09T08:35:29Z</time>
      </trkpt>
      <trkpt lat="48.99454" lon="1.12131">
        <ele>126.07</ele>
        <time>2012-09-09T08:35:31Z</time>
      </trkpt>
      <trkpt lat="48.99433" lon="1.12139">
        <ele>126.07</ele>
        <time>2012-09-09T08:35:36Z</time>
      </trkpt>
      <trkpt lat="48.99415" lon="1.12143">
        <ele>125.59</ele>
        <time>2012-09-09T08:35:41Z</time>
      </trkpt>
      <trkpt lat="48.99389" lon="1.12154">
        <ele>124.63</ele>
        <time>2012-09-09T08:35:48Z</time>
      </trkpt>
      <trkpt lat="48.99387" lon="1.12161">
        <ele>125.11</ele>
        <time>2012-09-09T08:35:51Z</time>
      </trkpt>
      <trkpt lat="48.99387" lon="1.12203">
        <ele>125.59</ele>
        <time>2012-09-09T08:36:02Z</time>
      </trkpt>
      <trkpt lat="48.99388" lon="1.12218">
        <ele>126.07</ele>
        <time>2012-09-09T08:36:07Z</time>
      </trkpt>
      <trkpt lat="48.99389" lon="1.12241">
        <ele>126.07</ele>
        <time>2012-09-09T08:36:15Z</time>
      </trkpt>
      <trkpt lat="48.99394" lon="1.12266">
        <ele>126.55</ele>
        <time>2012-09-09T08:36:25Z</time>
      </trkpt>
      <trkpt lat="48.99394" lon="1.12269">
        <ele>126.07</ele>
        <time>2012-09-09T08:36:26Z</time>
      </trkpt>
      <trkpt lat="48.99403" lon="1.12324">
        <ele>127.99</ele>
        <time>2012-09-09T08:36:40Z</time>
      </trkpt>
      <trkpt lat="48.99413" lon="1.12378">
        <ele>128.47</ele>
        <time>2012-09-09T08:36:55Z</time>
      </trkpt>
      <trkpt lat="48.99418" lon="1.12408">
        <ele>130.88</ele>
        <time>2012-09-09T08:37:04Z</time>
      </trkpt>
      <trkpt lat="48.99419" lon="1.12415">
        <ele>130.4</ele>
        <time>2012-09-09T08:37:06Z</time>
      </trkpt>
      <trkpt lat="48.99422" lon="1.12442">
        <ele>128.95</ele>
        <time>2012-09-09T08:37:14Z</time>
      </trkpt>
      <trkpt lat="48.99427" lon="1.12484">
        <ele>130.88</ele>
        <time>2012-09-09T08:37:26Z</time>
      </trkpt>
      <trkpt lat="48.99438" lon="1.12537">
        <ele>131.84</ele>
        <time>2012-09-09T08:37:40Z</time>
      </trkpt>
      <trkpt lat="48.99441" lon="1.12566">
        <ele>131.84</ele>
        <time>2012-09-09T08:37:48Z</time>
      </trkpt>
      <trkpt lat="48.99447" lon="1.12609">
        <ele>131.84</ele>
        <time>2012-09-09T08:37:59Z</time>
      </trkpt>
      <trkpt lat="48.99448" lon="1.1262">
        <ele>132.8</ele>
        <time>2012-09-09T08:38:02Z</time>
      </trkpt>
      <trkpt lat="48.99454" lon="1.1267">
        <ele>133.28</ele>
        <time>2012-09-09T08:38:15Z</time>
      </trkpt>
      <trkpt lat="48.99456" lon="1.12707">
        <ele>133.76</ele>
        <time>2012-09-09T08:38:27Z</time>
      </trkpt>
      <trkpt lat="48.99428" lon="1.12749">
        <ele>133.76</ele>
        <time>2012-09-09T08:38:39Z</time>
      </trkpt>
      <trkpt lat="48.99424" lon="1.12757">
        <ele>134.24</ele>
        <time>2012-09-09T08:38:41Z</time>
      </trkpt>
      <trkpt lat="48.99392" lon="1.12756">
        <ele>132.32</ele>
        <time>2012-09-09T08:38:50Z</time>
      </trkpt>
      <trkpt lat="48.99388" lon="1.12755">
        <ele>132.8</ele>
        <time>2012-09-09T08:38:51Z</time>
      </trkpt>
      <trkpt lat="48.99369" lon="1.12753">
        <ele>132.32</ele>
        <time>2012-09-09T08:38:55Z</time>
      </trkpt>
      <trkpt lat="48.99339" lon="1.12749">
        <ele>129.92</ele>
        <time>2012-09-09T08:39:00Z</time>
      </trkpt>
      <trkpt lat="48.99249" lon="1.12738">
        <ele>125.59</ele>
        <time>2012-09-09T08:39:14Z</time>
      </trkpt>
      <trkpt lat="48.99236" lon="1.12739">
        <ele>124.63</ele>
        <time>2012-09-09T08:39:16Z</time>
      </trkpt>
      <trkpt lat="48.99224" lon="1.12739">
        <ele>123.67</ele>
        <time>2012-09-09T08:39:18Z</time>
      </trkpt>
      <trkpt lat="48.99182" lon="1.12735">
        <ele>123.67</ele>
        <time>2012-09-09T08:39:28Z</time>
      </trkpt>
      <trkpt lat="48.99175" lon="1.12731">
        <ele>123.67</ele>
        <time>2012-09-09T08:39:30Z</time>
      </trkpt>
      <trkpt lat="48.99162" lon="1.12732">
        <ele>124.63</ele>
        <time>2012-09-09T08:39:36Z</time>
      </trkpt>
      <trkpt lat="48.99158" lon="1.12764">
        <ele>125.59</ele>
        <time>2012-09-09T08:39:43Z</time>
      </trkpt>
      <trkpt lat="48.99163" lon="1.1281">
        <ele>126.07</ele>
        <time>2012-09-09T08:39:53Z</time>
      </trkpt>
      <trkpt lat="48.99165" lon="1.12828">
        <ele>126.55</ele>
        <time>2012-09-09T08:39:57Z</time>
      </trkpt>
      <trkpt lat="48.99168" lon="1.12839">
        <ele>126.07</ele>
        <time>2012-09-09T08:39:59Z</time>
      </trkpt>
      <trkpt lat="48.99173" lon="1.1288">
        <ele>126.07</ele>
        <time>2012-09-09T08:40:05Z</time>
      </trkpt>
      <trkpt lat="48.9917" lon="1.12905">
        <ele>126.07</ele>
        <time>2012-09-09T08:40:10Z</time>
      </trkpt>
      <trkpt lat="48.99171" lon="1.1292">
        <ele>127.03</ele>
        <time>2012-09-09T08:40:12Z</time>
      </trkpt>
      <trkpt lat="48.99175" lon="1.12934">
        <ele>126.55</ele>
        <time>2012-09-09T08:40:14Z</time>
      </trkpt>
      <trkpt lat="48.9918" lon="1.12954">
        <ele>126.07</ele>
        <time>2012-09-09T08:40:17Z</time>
      </trkpt>
      <trkpt lat="48.99183" lon="1.13008">
        <ele>127.03</ele>
        <time>2012-09-09T08:40:26Z</time>
      </trkpt>
      <trkpt lat="48.99198" lon="1.13064">
        <ele>128.95</ele>
        <time>2012-09-09T08:40:35Z</time>
      </trkpt>
      <trkpt lat="48.99204" lon="1.13084">
        <ele>129.92</ele>
        <time>2012-09-09T08:40:38Z</time>
      </trkpt>
      <trkpt lat="48.99206" lon="1.13102">
        <ele>130.4</ele>
        <time>2012-09-09T08:40:42Z</time>
      </trkpt>
      <trkpt lat="48.99223" lon="1.13148">
        <ele>131.84</ele>
        <time>2012-09-09T08:40:52Z</time>
      </trkpt>
      <trkpt lat="48.99231" lon="1.13179">
        <ele>132.32</ele>
        <time>2012-09-09T08:40:59Z</time>
      </trkpt>
      <trkpt lat="48.99247" lon="1.13228">
        <ele>133.28</ele>
        <time>2012-09-09T08:41:10Z</time>
      </trkpt>
      <trkpt lat="48.99261" lon="1.13286">
        <ele>136.16</ele>
        <time>2012-09-09T08:41:23Z</time>
      </trkpt>
      <trkpt lat="48.99273" lon="1.13348">
        <ele>137.13</ele>
        <time>2012-09-09T08:41:36Z</time>
      </trkpt>
      <trkpt lat="48.99292" lon="1.1341">
        <ele>139.05</ele>
        <time>2012-09-09T08:41:49Z</time>
      </trkpt>
      <trkpt lat="48.99312" lon="1.13482">
        <ele>138.57</ele>
        <time>2012-09-09T08:42:03Z</time>
      </trkpt>
      <trkpt lat="48.99316" lon="1.13498">
        <ele>138.57</ele>
        <time>2012-09-09T08:42:06Z</time>
      </trkpt>
      <trkpt lat="48.9933" lon="1.13556">
        <ele>138.57</ele>
        <time>2012-09-09T08:42:16Z</time>
      </trkpt>
      <trkpt lat="48.99342" lon="1.13615">
        <ele>139.05</ele>
        <time>2012-09-09T08:42:26Z</time>
      </trkpt>
      <trkpt lat="48.99348" lon="1.13651">
        <ele>139.05</ele>
        <time>2012-09-09T08:42:33Z</time>
      </trkpt>
      <trkpt lat="48.99365" lon="1.1372">
        <ele>141.45</ele>
        <time>2012-09-09T08:42:45Z</time>
      </trkpt>
      <trkpt lat="48.99374" lon="1.1377">
        <ele>142.41</ele>
        <time>2012-09-09T08:42:56Z</time>
      </trkpt>
      <trkpt lat="48.99385" lon="1.13828">
        <ele>143.37</ele>
        <time>2012-09-09T08:43:07Z</time>
      </trkpt>
      <trkpt lat="48.99397" lon="1.13879">
        <ele>142.89</ele>
        <time>2012-09-09T08:43:16Z</time>
      </trkpt>
      <trkpt lat="48.99409" lon="1.13939">
        <ele>142.89</ele>
        <time>2012-09-09T08:43:27Z</time>
      </trkpt>
      <trkpt lat="48.9941" lon="1.13949">
        <ele>143.85</ele>
        <time>2012-09-09T08:43:29Z</time>
      </trkpt>
      <trkpt lat="48.99412" lon="1.1397">
        <ele>144.82</ele>
        <time>2012-09-09T08:43:33Z</time>
      </trkpt>
      <trkpt lat="48.99433" lon="1.14043">
        <ele>144.34</ele>
        <time>2012-09-09T08:43:47Z</time>
      </trkpt>
      <trkpt lat="48.99436" lon="1.14059">
        <ele>145.3</ele>
        <time>2012-09-09T08:43:50Z</time>
      </trkpt>
      <trkpt lat="48.99443" lon="1.14097">
        <ele>145.3</ele>
        <time>2012-09-09T08:43:56Z</time>
      </trkpt>
      <trkpt lat="48.99461" lon="1.14175">
        <ele>143.85</ele>
        <time>2012-09-09T08:44:04Z</time>
      </trkpt>
      <trkpt lat="48.99469" lon="1.14228">
        <ele>143.37</ele>
        <time>2012-09-09T08:44:11Z</time>
      </trkpt>
      <trkpt lat="48.99483" lon="1.14281">
        <ele>142.89</ele>
        <time>2012-09-09T08:44:17Z</time>
      </trkpt>
      <trkpt lat="48.99508" lon="1.14316">
        <ele>142.89</ele>
        <time>2012-09-09T08:44:25Z</time>
      </trkpt>
      <trkpt lat="48.99533" lon="1.14303">
        <ele>141.93</ele>
        <time>2012-09-09T08:44:34Z</time>
      </trkpt>
      <trkpt lat="48.99551" lon="1.14291">
        <ele>143.85</ele>
        <time>2012-09-09T08:44:42Z</time>
      </trkpt>
      <trkpt lat="48.99577" lon="1.14284">
        <ele>144.82</ele>
        <time>2012-09-09T08:44:50Z</time>
      </trkpt>
      <trkpt lat="48.99594" lon="1.14278">
        <ele>145.3</ele>
        <time>2012-09-09T08:44:56Z</time>
      </trkpt>
      <trkpt lat="48.99625" lon="1.14261">
        <ele>146.26</ele>
        <time>2012-09-09T08:45:06Z</time>
      </trkpt>
      <trkpt lat="48.99644" lon="1.14251">
        <ele>146.74</ele>
        <time>2012-09-09T08:45:13Z</time>
      </trkpt>
      <trkpt lat="48.99678" lon="1.14233">
        <ele>148.18</ele>
        <time>2012-09-09T08:45:24Z</time>
      </trkpt>
      <trkpt lat="48.99717" lon="1.14212">
        <ele>147.7</ele>
        <time>2012-09-09T08:45:33Z</time>
      </trkpt>
      <trkpt lat="48.99744" lon="1.14203">
        <ele>148.18</ele>
        <time>2012-09-09T08:45:41Z</time>
      </trkpt>
      <trkpt lat="48.99752" lon="1.14198">
        <ele>148.18</ele>
        <time>2012-09-09T08:45:43Z</time>
      </trkpt>
      <trkpt lat="48.99766" lon="1.14128">
        <ele>149.14</ele>
        <time>2012-09-09T08:45:55Z</time>
      </trkpt>
      <trkpt lat="48.99759" lon="1.14065">
        <ele>149.62</ele>
        <time>2012-09-09T08:46:06Z</time>
      </trkpt>
      <trkpt lat="48.99757" lon="1.14048">
        <ele>150.1</ele>
        <time>2012-09-09T08:46:09Z</time>
      </trkpt>
      <trkpt lat="48.99752" lon="1.14007">
        <ele>149.14</ele>
        <time>2012-09-09T08:46:16Z</time>
      </trkpt>
      <trkpt lat="48.99748" lon="1.13983">
        <ele>147.7</ele>
        <time>2012-09-09T08:46:20Z</time>
      </trkpt>
      <trkpt lat="48.99745" lon="1.1393">
        <ele>148.18</ele>
        <time>2012-09-09T08:46:29Z</time>
      </trkpt>
      <trkpt lat="48.99743" lon="1.13905">
        <ele>147.22</ele>
        <time>2012-09-09T08:46:33Z</time>
      </trkpt>
      <trkpt lat="48.99733" lon="1.13839">
        <ele>148.18</ele>
        <time>2012-09-09T08:46:44Z</time>
      </trkpt>
      <trkpt lat="48.99727" lon="1.13796">
        <ele>148.18</ele>
        <time>2012-09-09T08:46:51Z</time>
      </trkpt>
      <trkpt lat="48.99724" lon="1.13772">
        <ele>147.7</ele>
        <time>2012-09-09T08:46:55Z</time>
      </trkpt>
      <trkpt lat="48.99722" lon="1.13759">
        <ele>147.7</ele>
        <time>2012-09-09T08:46:57Z</time>
      </trkpt>
      <trkpt lat="48.99708" lon="1.13679">
        <ele>148.18</ele>
        <time>2012-09-09T08:47:10Z</time>
      </trkpt>
      <trkpt lat="48.99705" lon="1.13631">
        <ele>146.74</ele>
        <time>2012-09-09T08:47:18Z</time>
      </trkpt>
      <trkpt lat="48.99712" lon="1.13621">
        <ele>146.74</ele>
        <time>2012-09-09T08:47:23Z</time>
      </trkpt>
      <trkpt lat="48.99743" lon="1.1361">
        <ele>145.78</ele>
        <time>2012-09-09T08:47:34Z</time>
      </trkpt>
      <trkpt lat="48.9977" lon="1.13597">
        <ele>146.26</ele>
        <time>2012-09-09T08:47:41Z</time>
      </trkpt>
      <trkpt lat="48.99797" lon="1.13588">
        <ele>145.3</ele>
        <time>2012-09-09T08:47:48Z</time>
      </trkpt>
      <trkpt lat="48.99813" lon="1.1356">
        <ele>146.26</ele>
        <time>2012-09-09T08:47:54Z</time>
      </trkpt>
      <trkpt lat="48.99813" lon="1.13496">
        <ele>144.34</ele>
        <time>2012-09-09T08:48:04Z</time>
      </trkpt>
      <trkpt lat="48.99813" lon="1.1349">
        <ele>144.34</ele>
        <time>2012-09-09T08:48:05Z</time>
      </trkpt>
      <trkpt lat="48.99809" lon="1.13429">
        <ele>146.74</ele>
        <time>2012-09-09T08:48:15Z</time>
      </trkpt>
      <trkpt lat="48.99808" lon="1.13393">
        <ele>145.3</ele>
        <time>2012-09-09T08:48:21Z</time>
      </trkpt>
      <trkpt lat="48.99801" lon="1.13354">
        <ele>145.3</ele>
        <time>2012-09-09T08:48:30Z</time>
      </trkpt>
      <trkpt lat="48.99799" lon="1.13349">
        <ele>146.74</ele>
        <time>2012-09-09T08:48:42Z</time>
      </trkpt>
      <trkpt lat="48.99799" lon="1.13346">
        <ele>145.3</ele>
        <time>2012-09-09T08:49:07Z</time>
      </trkpt>
      <trkpt lat="48.99789" lon="1.13342">
        <ele>146.26</ele>
        <time>2012-09-09T08:49:41Z</time>
      </trkpt>
      <trkpt lat="48.99788" lon="1.13346">
        <ele>144.34</ele>
        <time>2012-09-09T08:49:53Z</time>
      </trkpt>
      <trkpt lat="48.99793" lon="1.13356">
        <ele>144.82</ele>
        <time>2012-09-09T08:50:23Z</time>
      </trkpt>
      <trkpt lat="48.99798" lon="1.13351">
        <ele>143.85</ele>
        <time>2012-09-09T08:51:05Z</time>
      </trkpt>
      <trkpt lat="48.99789" lon="1.13367">
        <ele>144.34</ele>
        <time>2012-09-09T08:51:36Z</time>
      </trkpt>
      <trkpt lat="48.99796" lon="1.13373">
        <ele>144.34</ele>
        <time>2012-09-09T08:52:24Z</time>
      </trkpt>
      <trkpt lat="48.9979" lon="1.13349">
        <ele>143.85</ele>
        <time>2012-09-09T08:52:52Z</time>
      </trkpt>
      <trkpt lat="48.9979" lon="1.13337">
        <ele>143.37</ele>
        <time>2012-09-09T08:53:08Z</time>
      </trkpt>
      <trkpt lat="48.99791" lon="1.13336">
        <ele>143.85</ele>
        <time>2012-09-09T08:53:25Z</time>
      </trkpt>
      <trkpt lat="48.99793" lon="1.13339">
        <ele>144.34</ele>
        <time>2012-09-09T08:53:57Z</time>
      </trkpt>
      <trkpt lat="48.99785" lon="1.13351">
        <ele>143.85</ele>
        <time>2012-09-09T08:54:14Z</time>
      </trkpt>
      <trkpt lat="48.99783" lon="1.13353">
        <ele>143.85</ele>
        <time>2012-09-09T08:54:41Z</time>
      </trkpt>
      <trkpt lat="48.99782" lon="1.13343">
        <ele>143.37</ele>
        <time>2012-09-09T08:55:07Z</time>
      </trkpt>
      <trkpt lat="48.99782" lon="1.13295">
        <ele>143.85</ele>
        <time>2012-09-09T08:55:16Z</time>
      </trkpt>
      <trkpt lat="48.99778" lon="1.13261">
        <ele>143.37</ele>
        <time>2012-09-09T08:55:21Z</time>
      </trkpt>
      <trkpt lat="48.99769" lon="1.13188">
        <ele>144.82</ele>
        <time>2012-09-09T08:55:32Z</time>
      </trkpt>
      <trkpt lat="48.99766" lon="1.1317">
        <ele>144.34</ele>
        <time>2012-09-09T08:55:41Z</time>
      </trkpt>
      <trkpt lat="48.99758" lon="1.13136">
        <ele>142.89</ele>
        <time>2012-09-09T08:55:50Z</time>
      </trkpt>
      <trkpt lat="48.99756" lon="1.13102">
        <ele>142.89</ele>
        <time>2012-09-09T08:55:57Z</time>
      </trkpt>
      <trkpt lat="48.99763" lon="1.13087">
        <ele>142.41</ele>
        <time>2012-09-09T08:56:03Z</time>
      </trkpt>
      <trkpt lat="48.99773" lon="1.13084">
        <ele>141.93</ele>
        <time>2012-09-09T08:56:07Z</time>
      </trkpt>
      <trkpt lat="48.99787" lon="1.13085">
        <ele>141.93</ele>
        <time>2012-09-09T08:56:14Z</time>
      </trkpt>
      <trkpt lat="48.99795" lon="1.13085">
        <ele>141.93</ele>
        <time>2012-09-09T08:56:17Z</time>
      </trkpt>
      <trkpt lat="48.99808" lon="1.1309">
        <ele>142.41</ele>
        <time>2012-09-09T08:56:21Z</time>
      </trkpt>
      <trkpt lat="48.99828" lon="1.13106">
        <ele>143.37</ele>
        <time>2012-09-09T08:56:28Z</time>
      </trkpt>
      <trkpt lat="48.99853" lon="1.13113">
        <ele>142.89</ele>
        <time>2012-09-09T08:56:36Z</time>
      </trkpt>
      <trkpt lat="48.99857" lon="1.13114">
        <ele>142.89</ele>
        <time>2012-09-09T08:56:37Z</time>
      </trkpt>
      <trkpt lat="48.99873" lon="1.13101">
        <ele>141.93</ele>
        <time>2012-09-09T08:56:42Z</time>
      </trkpt>
      <trkpt lat="48.9988" lon="1.13071">
        <ele>141.45</ele>
        <time>2012-09-09T08:56:49Z</time>
      </trkpt>
      <trkpt lat="48.9989" lon="1.13039">
        <ele>140.97</ele>
        <time>2012-09-09T08:56:58Z</time>
      </trkpt>
      <trkpt lat="48.99907" lon="1.12985">
        <ele>140.49</ele>
        <time>2012-09-09T08:57:09Z</time>
      </trkpt>
      <trkpt lat="48.99913" lon="1.12964">
        <ele>139.53</ele>
        <time>2012-09-09T08:57:13Z</time>
      </trkpt>
      <trkpt lat="48.99915" lon="1.12943">
        <ele>138.57</ele>
        <time>2012-09-09T08:57:17Z</time>
      </trkpt>
      <trkpt lat="48.99918" lon="1.12907">
        <ele>140.01</ele>
        <time>2012-09-09T08:57:26Z</time>
      </trkpt>
      <trkpt lat="48.9992" lon="1.12893">
        <ele>139.53</ele>
        <time>2012-09-09T08:57:29Z</time>
      </trkpt>
      <trkpt lat="48.99923" lon="1.12884">
        <ele>139.05</ele>
        <time>2012-09-09T08:57:31Z</time>
      </trkpt>
      <trkpt lat="48.99926" lon="1.12874">
        <ele>138.09</ele>
        <time>2012-09-09T08:57:33Z</time>
      </trkpt>
      <trkpt lat="48.99925" lon="1.12851">
        <ele>137.61</ele>
        <time>2012-09-09T08:57:37Z</time>
      </trkpt>
      <trkpt lat="48.99927" lon="1.12817">
        <ele>138.57</ele>
        <time>2012-09-09T08:57:43Z</time>
      </trkpt>
      <trkpt lat="49" lon="1.12821">
        <ele>135.68</ele>
        <time>2012-09-09T08:57:55Z</time>
      </trkpt>
      <trkpt lat="49.00071" lon="1.12831">
        <ele>134.72</ele>
        <time>2012-09-09T08:58:05Z</time>
      </trkpt>
      <trkpt lat="49.00078" lon="1.12831">
        <ele>134.24</ele>
        <time>2012-09-09T08:58:06Z</time>
      </trkpt>
      <trkpt lat="49.00116" lon="1.12838">
        <ele>133.76</ele>
        <time>2012-09-09T08:58:12Z</time>
      </trkpt>
      <trkpt lat="49.00135" lon="1.12838">
        <ele>132.8</ele>
        <time>2012-09-09T08:58:15Z</time>
      </trkpt>
      <trkpt lat="49.00196" lon="1.12848">
        <ele>131.84</ele>
        <time>2012-09-09T08:58:26Z</time>
      </trkpt>
      <trkpt lat="49.00228" lon="1.12851">
        <ele>130.4</ele>
        <time>2012-09-09T08:58:34Z</time>
      </trkpt>
      <trkpt lat="49.00231" lon="1.1286">
        <ele>129.92</ele>
        <time>2012-09-09T08:58:38Z</time>
      </trkpt>
      <trkpt lat="49.00244" lon="1.12885">
        <ele>129.43</ele>
        <time>2012-09-09T08:58:42Z</time>
      </trkpt>
      <trkpt lat="49.00256" lon="1.12932">
        <ele>128.95</ele>
        <time>2012-09-09T08:58:48Z</time>
      </trkpt>
      <trkpt lat="49.00261" lon="1.12951">
        <ele>127.99</ele>
        <time>2012-09-09T08:58:50Z</time>
      </trkpt>
      <trkpt lat="49.00267" lon="1.12976">
        <ele>127.99</ele>
        <time>2012-09-09T08:58:53Z</time>
      </trkpt>
      <trkpt lat="49.00279" lon="1.13032">
        <ele>129.43</ele>
        <time>2012-09-09T08:59:00Z</time>
      </trkpt>
      <trkpt lat="49.00289" lon="1.13074">
        <ele>127.99</ele>
        <time>2012-09-09T08:59:05Z</time>
      </trkpt>
      <trkpt lat="49.00297" lon="1.13098">
        <ele>128.95</ele>
        <time>2012-09-09T08:59:08Z</time>
      </trkpt>
      <trkpt lat="49.00318" lon="1.13192">
        <ele>128.47</ele>
        <time>2012-09-09T08:59:19Z</time>
      </trkpt>
      <trkpt lat="49.00338" lon="1.13263">
        <ele>130.4</ele>
        <time>2012-09-09T08:59:27Z</time>
      </trkpt>
      <trkpt lat="49.0037" lon="1.1339">
        <ele>128.47</ele>
        <time>2012-09-09T08:59:41Z</time>
      </trkpt>
      <trkpt lat="49.00378" lon="1.13419">
        <ele>127.03</ele>
        <time>2012-09-09T08:59:44Z</time>
      </trkpt>
      <trkpt lat="49.00386" lon="1.13458">
        <ele>126.07</ele>
        <time>2012-09-09T08:59:48Z</time>
      </trkpt>
      <trkpt lat="49.00392" lon="1.1349">
        <ele>126.55</ele>
        <time>2012-09-09T08:59:51Z</time>
      </trkpt>
      <trkpt lat="49.00406" lon="1.13542">
        <ele>124.63</ele>
        <time>2012-09-09T08:59:56Z</time>
      </trkpt>
      <trkpt lat="49.00444" lon="1.13696">
        <ele>123.67</ele>
        <time>2012-09-09T09:00:12Z</time>
      </trkpt>
      <trkpt lat="49.00471" lon="1.13802">
        <ele>123.67</ele>
        <time>2012-09-09T09:00:24Z</time>
      </trkpt>
      <trkpt lat="49.0048" lon="1.13843">
        <ele>124.63</ele>
        <time>2012-09-09T09:00:29Z</time>
      </trkpt>
      <trkpt lat="49.00528" lon="1.14031">
        <ele>122.71</ele>
        <time>2012-09-09T09:00:50Z</time>
      </trkpt>
      <trkpt lat="49.00573" lon="1.14193">
        <ele>123.19</ele>
        <time>2012-09-09T09:01:11Z</time>
      </trkpt>
      <trkpt lat="49.00594" lon="1.14284">
        <ele>123.19</ele>
        <time>2012-09-09T09:01:23Z</time>
      </trkpt>
      <trkpt lat="49.00602" lon="1.14323">
        <ele>124.63</ele>
        <time>2012-09-09T09:01:28Z</time>
      </trkpt>
      <trkpt lat="49.00625" lon="1.14421">
        <ele>123.19</ele>
        <time>2012-09-09T09:01:41Z</time>
      </trkpt>
      <trkpt lat="49.00633" lon="1.14454">
        <ele>125.11</ele>
        <time>2012-09-09T09:01:46Z</time>
      </trkpt>
      <trkpt lat="49.00636" lon="1.14505">
        <ele>125.59</ele>
        <time>2012-09-09T09:01:57Z</time>
      </trkpt>
      <trkpt lat="49.00634" lon="1.14501">
        <ele>128.47</ele>
        <time>2012-09-09T09:02:13Z</time>
      </trkpt>
      <trkpt lat="49.00634" lon="1.14501">
        <ele>128.47</ele>
        <time>2012-09-09T09:02:14Z</time>
      </trkpt>
      <trkpt lat="49.00653" lon="1.14551">
        <ele>126.55</ele>
        <time>2012-09-09T09:02:26Z</time>
      </trkpt>
      <trkpt lat="49.00679" lon="1.14703">
        <ele>128.95</ele>
        <time>2012-09-09T09:02:50Z</time>
      </trkpt>
      <trkpt lat="49.00702" lon="1.14865">
        <ele>130.4</ele>
        <time>2012-09-09T09:03:14Z</time>
      </trkpt>
      <trkpt lat="49.00714" lon="1.14942">
        <ele>131.84</ele>
        <time>2012-09-09T09:03:26Z</time>
      </trkpt>
      <trkpt lat="49.00728" lon="1.15104">
        <ele>133.76</ele>
        <time>2012-09-09T09:03:50Z</time>
      </trkpt>
      <trkpt lat="49.00727" lon="1.15129">
        <ele>132.8</ele>
        <time>2012-09-09T09:03:56Z</time>
      </trkpt>
      <trkpt lat="49.00734" lon="1.15144">
        <ele>133.28</ele>
        <time>2012-09-09T09:04:01Z</time>
      </trkpt>
      <trkpt lat="49.00748" lon="1.15183">
        <ele>133.28</ele>
        <time>2012-09-09T09:04:09Z</time>
      </trkpt>
      <trkpt lat="49.00821" lon="1.15261">
        <ele>131.84</ele>
        <time>2012-09-09T09:04:29Z</time>
      </trkpt>
      <trkpt lat="49.00828" lon="1.15284">
        <ele>131.84</ele>
        <time>2012-09-09T09:04:33Z</time>
      </trkpt>
      <trkpt lat="49.00839" lon="1.15296">
        <ele>131.84</ele>
        <time>2012-09-09T09:04:37Z</time>
      </trkpt>
      <trkpt lat="49.00881" lon="1.15306">
        <ele>131.36</ele>
        <time>2012-09-09T09:04:48Z</time>
      </trkpt>
      <trkpt lat="49.00876" lon="1.15302">
        <ele>130.4</ele>
        <time>2012-09-09T09:04:54Z</time>
      </trkpt>
      <trkpt lat="49.00883" lon="1.15314">
        <ele>129.92</ele>
        <time>2012-09-09T09:04:57Z</time>
      </trkpt>
      <trkpt lat="49.00921" lon="1.15343">
        <ele>129.92</ele>
        <time>2012-09-09T09:05:06Z</time>
      </trkpt>
      <trkpt lat="49.00945" lon="1.15361">
        <ele>129.43</ele>
        <time>2012-09-09T09:05:15Z</time>
      </trkpt>
      <trkpt lat="49.00961" lon="1.15431">
        <ele>131.36</ele>
        <time>2012-09-09T09:05:29Z</time>
      </trkpt>
      <trkpt lat="49.00958" lon="1.15473">
        <ele>133.28</ele>
        <time>2012-09-09T09:05:37Z</time>
      </trkpt>
      <trkpt lat="49.00945" lon="1.15546">
        <ele>132.32</ele>
        <time>2012-09-09T09:05:51Z</time>
      </trkpt>
      <trkpt lat="49.00946" lon="1.1563">
        <ele>133.28</ele>
        <time>2012-09-09T09:06:05Z</time>
      </trkpt>
      <trkpt lat="49.00953" lon="1.15653">
        <ele>133.76</ele>
        <time>2012-09-09T09:06:09Z</time>
      </trkpt>
      <trkpt lat="49.00967" lon="1.15676">
        <ele>134.24</ele>
        <time>2012-09-09T09:06:14Z</time>
      </trkpt>
      <trkpt lat="49.00987" lon="1.15714">
        <ele>134.72</ele>
        <time>2012-09-09T09:06:22Z</time>
      </trkpt>
      <trkpt lat="49.00997" lon="1.15724">
        <ele>135.2</ele>
        <time>2012-09-09T09:06:25Z</time>
      </trkpt>
      <trkpt lat="49.01044" lon="1.15815">
        <ele>135.2</ele>
        <time>2012-09-09T09:06:43Z</time>
      </trkpt>
      <trkpt lat="49.01046" lon="1.1582">
        <ele>134.72</ele>
        <time>2012-09-09T09:06:44Z</time>
      </trkpt>
      <trkpt lat="49.01092" lon="1.15902">
        <ele>135.68</ele>
        <time>2012-09-09T09:07:00Z</time>
      </trkpt>
      <trkpt lat="49.01188" lon="1.16009">
        <ele>135.68</ele>
        <time>2012-09-09T09:07:23Z</time>
      </trkpt>
      <trkpt lat="49.01209" lon="1.16034">
        <ele>135.2</ele>
        <time>2012-09-09T09:07:29Z</time>
      </trkpt>
      <trkpt lat="49.01221" lon="1.16056">
        <ele>136.64</ele>
        <time>2012-09-09T09:07:35Z</time>
      </trkpt>
      <trkpt lat="49.01232" lon="1.16067">
        <ele>136.16</ele>
        <time>2012-09-09T09:07:38Z</time>
      </trkpt>
      <trkpt lat="49.01274" lon="1.16168">
        <ele>134.72</ele>
        <time>2012-09-09T09:07:53Z</time>
      </trkpt>
      <trkpt lat="49.01335" lon="1.16338">
        <ele>134.24</ele>
        <time>2012-09-09T09:08:17Z</time>
      </trkpt>
      <trkpt lat="49.01356" lon="1.164">
        <ele>134.72</ele>
        <time>2012-09-09T09:08:29Z</time>
      </trkpt>
      <trkpt lat="49.01369" lon="1.16398">
        <ele>133.76</ele>
        <time>2012-09-09T09:08:33Z</time>
      </trkpt>
      <trkpt lat="49.01402" lon="1.16366">
        <ele>132.8</ele>
        <time>2012-09-09T09:08:41Z</time>
      </trkpt>
      <trkpt lat="49.01413" lon="1.16384">
        <ele>131.84</ele>
        <time>2012-09-09T09:08:46Z</time>
      </trkpt>
      <trkpt lat="49.01402" lon="1.16413">
        <ele>131.84</ele>
        <time>2012-09-09T09:08:50Z</time>
      </trkpt>
      <trkpt lat="49.01406" lon="1.16434">
        <ele>133.28</ele>
        <time>2012-09-09T09:08:54Z</time>
      </trkpt>
      <trkpt lat="49.01473" lon="1.16554">
        <ele>133.28</ele>
        <time>2012-09-09T09:09:15Z</time>
      </trkpt>
      <trkpt lat="49.01503" lon="1.1661">
        <ele>133.28</ele>
        <time>2012-09-09T09:09:25Z</time>
      </trkpt>
      <trkpt lat="49.01519" lon="1.16611">
        <ele>133.76</ele>
        <time>2012-09-09T09:09:30Z</time>
      </trkpt>
      <trkpt lat="49.01568" lon="1.16531">
        <ele>131.84</ele>
        <time>2012-09-09T09:09:45Z</time>
      </trkpt>
      <trkpt lat="49.01588" lon="1.16557">
        <ele>130.4</ele>
        <time>2012-09-09T09:09:56Z</time>
      </trkpt>
      <trkpt lat="49.01601" lon="1.16573">
        <ele>129.92</ele>
        <time>2012-09-09T09:10:06Z</time>
      </trkpt>
      <trkpt lat="49.01614" lon="1.16589">
        <ele>131.36</ele>
        <time>2012-09-09T09:10:09Z</time>
      </trkpt>
      <trkpt lat="49.01648" lon="1.16623">
        <ele>130.4</ele>
        <time>2012-09-09T09:10:15Z</time>
      </trkpt>
      <trkpt lat="49.01703" lon="1.16644">
        <ele>130.88</ele>
        <time>2012-09-09T09:10:24Z</time>
      </trkpt>
      <trkpt lat="49.01728" lon="1.16661">
        <ele>130.4</ele>
        <time>2012-09-09T09:10:28Z</time>
      </trkpt>
      <trkpt lat="49.01784" lon="1.16723">
        <ele>130.4</ele>
        <time>2012-09-09T09:10:40Z</time>
      </trkpt>
      <trkpt lat="49.01791" lon="1.16741">
        <ele>130.4</ele>
        <time>2012-09-09T09:10:44Z</time>
      </trkpt>
      <trkpt lat="49.01801" lon="1.16759">
        <ele>130.88</ele>
        <time>2012-09-09T09:10:50Z</time>
      </trkpt>
      <trkpt lat="49.01809" lon="1.16769">
        <ele>130.88</ele>
        <time>2012-09-09T09:10:52Z</time>
      </trkpt>
      <trkpt lat="49.01824" lon="1.16792">
        <ele>130.88</ele>
        <time>2012-09-09T09:10:56Z</time>
      </trkpt>
      <trkpt lat="49.01904" lon="1.16834">
        <ele>130.88</ele>
        <time>2012-09-09T09:11:11Z</time>
      </trkpt>
      <trkpt lat="49.01998" lon="1.16855">
        <ele>127.51</ele>
        <time>2012-09-09T09:11:26Z</time>
      </trkpt>
      <trkpt lat="49.02116" lon="1.16902">
        <ele>126.07</ele>
        <time>2012-09-09T09:11:43Z</time>
      </trkpt>
      <trkpt lat="49.02126" lon="1.16909">
        <ele>126.07</ele>
        <time>2012-09-09T09:11:45Z</time>
      </trkpt>
      <trkpt lat="49.0217" lon="1.17004">
        <ele>122.22</ele>
        <time>2012-09-09T09:11:56Z</time>
      </trkpt>
      <trkpt lat="49.02179" lon="1.17031">
        <ele>120.78</ele>
        <time>2012-09-09T09:12:00Z</time>
      </trkpt>
      <trkpt lat="49.02228" lon="1.17143">
        <ele>119.34</ele>
        <time>2012-09-09T09:12:15Z</time>
      </trkpt>
      <trkpt lat="49.02276" lon="1.17269">
        <ele>120.78</ele>
        <time>2012-09-09T09:12:33Z</time>
      </trkpt>
      <trkpt lat="49.02299" lon="1.17313">
        <ele>118.86</ele>
        <time>2012-09-09T09:12:45Z</time>
      </trkpt>
      <trkpt lat="49.02301" lon="1.17318">
        <ele>118.86</ele>
        <time>2012-09-09T09:12:46Z</time>
      </trkpt>
      <trkpt lat="49.02303" lon="1.17347">
        <ele>120.3</ele>
        <time>2012-09-09T09:12:51Z</time>
      </trkpt>
      <trkpt lat="49.02281" lon="1.1744">
        <ele>120.78</ele>
        <time>2012-09-09T09:13:09Z</time>
      </trkpt>
      <trkpt lat="49.02279" lon="1.17442">
        <ele>121.26</ele>
        <time>2012-09-09T09:13:12Z</time>
      </trkpt>
      <trkpt lat="49.02276" lon="1.17438">
        <ele>121.26</ele>
        <time>2012-09-09T09:13:26Z</time>
      </trkpt>
    </trkseg>
  </trk>
</gpx>